<?xml version="1.0" encoding="UTF-8"?>
<gpx xmlns="http://www.topografix.com/GPX/1/1" version="1.1" creator="EasyGPS 3.82" xmlns:xsi="http://www.w3.org/2001/XMLSchema-instance" xsi:schemaLocation="http://www.topografix.com/GPX/1/1 http://www.topografix.com/GPX/1/1/gpx.xsd http://www.topografix.com/GPX/gpx_overlay/0/3 http://www.topografix.com/GPX/gpx_overlay/0/3/gpx_overlay.xsd http://www.topografix.com/GPX/gpx_modified/0/1 http://www.topografix.com/GPX/gpx_modified/0/1/gpx_modified.xsd">
<metadata>
<link href="http://www.gpstm.com">
<text>Geo Studio Tecnology Ltd</text>
</link>
<bounds minlat="43.12917802" minlon="-2.52790688" maxlat="43.16857902" maxlon="-2.46532988"/>
<extensions>
<time xmlns="http://www.topografix.com/GPX/gpx_modified/0/1">2016-02-11T14:54:32.612Z</time>
</extensions>
</metadata>
<wpt lat="43.16225502" lon="-2.49490088">
<ele>728.100</ele>
<time>2013-01-09T22:33:26Z</time>
<name>Egoarbitza</name>
<cmt>Egoarbitza</cmt>
<desc>Egoarbitza</desc>
<sym>Waypoint</sym>
<extensions>
<label xmlns="http://www.topografix.com/GPX/gpx_overlay/0/3">
<label_text>Egoarbitza</label_text>
</label>
</extensions>
</wpt>
<wpt lat="43.13693802" lon="-2.48830688">
<ele>462.100</ele>
<time>2013-02-20T03:33:17Z</time>
<name>Elgeta-II</name>
<cmt>Elgeta</cmt>
<desc>Elgeta</desc>
<sym>Waypoint</sym>
<extensions>
<label xmlns="http://www.topografix.com/GPX/gpx_overlay/0/3">
<label_text>Elgeta-II</label_text>
</label>
</extensions>
</wpt>
<wpt lat="43.14657602" lon="-2.51155788">
<ele>685.800</ele>
<time>2012-05-02T18:50:35Z</time>
<name>Erdella</name>
<cmt>Erdella</cmt>
<desc>Erdella</desc>
<sym>Waypoint</sym>
<extensions>
<label xmlns="http://www.topografix.com/GPX/gpx_overlay/0/3">
<label_text>Erdella</label_text>
</label>
</extensions>
</wpt>
<wpt lat="43.16187304" lon="-2.51035976">
<ele>305.000</ele>
<time>2013-02-16T13:02:17Z</time>
<name>Aixola</name>
<cmt>Aixola Urtegia</cmt>
<desc>Aixola Urtegia</desc>
<sym>Waypoint</sym>
<extensions>
<label xmlns="http://www.topografix.com/GPX/gpx_overlay/0/3">
<label_text>Aixola</label_text>
</label>
</extensions>
</wpt>
<wpt lat="43.13033402" lon="-2.49895288">
<ele>740.300</ele>
<time>2012-05-02T18:50:35Z</time>
<name>Intxorta</name>
<cmt>Intxorta</cmt>
<desc>Intxorta</desc>
<sym>Waypoint</sym>
<extensions>
<label xmlns="http://www.topografix.com/GPX/gpx_overlay/0/3">
<label_text>Intxorta</label_text>
</label>
</extensions>
</wpt>
<wpt lat="43.15550563" lon="-2.46842277">
<ele>702.000</ele>
<time>2013-02-16T12:57:13Z</time>
<name>Azkonabitz</name>
<cmt>Azkonabitza</cmt>
<desc>Azkonabitza</desc>
<sym>Waypoint</sym>
<extensions>
<label xmlns="http://www.topografix.com/GPX/gpx_overlay/0/3">
<label_text>Azkonabitz</label_text>
</label>
</extensions>
</wpt>
<wpt lat="43.15836902" lon="-2.52645088">
<ele>668.200</ele>
<time>2012-05-02T18:50:35Z</time>
<name>Santamarin</name>
<cmt>Santamarinezar</cmt>
<desc>Santamarinezar</desc>
<sym>Waypoint</sym>
<extensions>
<label xmlns="http://www.topografix.com/GPX/gpx_overlay/0/3">
<label_text>Santamarin</label_text>
</label>
</extensions>
</wpt>
<wpt lat="43.14816402" lon="-2.47982888">
<ele>556.000</ele>
<time>2013-02-16T12:58:08Z</time>
<name>Karabieta</name>
<cmt>Karabieta</cmt>
<desc>Karabieta</desc>
<sym>Waypoint</sym>
<extensions>
<label xmlns="http://www.topografix.com/GPX/gpx_overlay/0/3">
<label_text>Karabieta</label_text>
</label>
</extensions>
</wpt>
<wpt lat="43.13691902" lon="-2.48834188">
<ele>462.100</ele>
<time>2013-02-20T03:32:52Z</time>
<name>Elgeta-I</name>
<cmt>Elgeta</cmt>
<desc>Elgeta</desc>
<sym>Waypoint</sym>
<extensions>
<label xmlns="http://www.topografix.com/GPX/gpx_overlay/0/3">
<label_text>Elgeta-I</label_text>
</label>
</extensions>
</wpt>
<trk>
<name>Elgeta-Intxorta-Erdella-Aixola-Egoarbitza-Karabieta-Azkonabitza-Elgeta</name>
<extensions>
<label xmlns="http://www.topografix.com/GPX/gpx_overlay/0/3">
</label>
</extensions>
<trkseg>
<trkpt lat="43.13691902" lon="-2.48834188">
<ele>462.100</ele>
<time>2012-05-02T06:08:02Z</time>
</trkpt>
<trkpt lat="43.13697902" lon="-2.48839688">
<ele>461.600</ele>
<time>2012-05-02T06:08:13Z</time>
</trkpt>
<trkpt lat="43.13698202" lon="-2.48844988">
<ele>461.600</ele>
<time>2012-05-02T06:08:26Z</time>
</trkpt>
<trkpt lat="43.13700702" lon="-2.48846488">
<ele>461.100</ele>
<time>2012-05-02T06:08:31Z</time>
</trkpt>
<trkpt lat="43.13704702" lon="-2.48866288">
<ele>461.100</ele>
<time>2012-05-02T06:08:47Z</time>
</trkpt>
<trkpt lat="43.13702902" lon="-2.48875788">
<ele>460.100</ele>
<time>2012-05-02T06:09:00Z</time>
</trkpt>
<trkpt lat="43.13690002" lon="-2.48891588">
<ele>461.100</ele>
<time>2012-05-02T06:09:19Z</time>
</trkpt>
<trkpt lat="43.13689802" lon="-2.48891888">
<ele>461.100</ele>
<time>2012-05-02T06:09:33Z</time>
</trkpt>
<trkpt lat="43.13689302" lon="-2.48890288">
<ele>460.600</ele>
<time>2012-05-02T06:09:59Z</time>
</trkpt>
<trkpt lat="43.13687202" lon="-2.48898088">
<ele>461.100</ele>
<time>2012-05-02T06:10:12Z</time>
</trkpt>
<trkpt lat="43.13675202" lon="-2.48910988">
<ele>461.100</ele>
<time>2012-05-02T06:10:31Z</time>
</trkpt>
<trkpt lat="43.13668002" lon="-2.48914688">
<ele>461.100</ele>
<time>2012-05-02T06:10:43Z</time>
</trkpt>
<trkpt lat="43.13647102" lon="-2.48925488">
<ele>461.600</ele>
<time>2012-05-02T06:11:04Z</time>
</trkpt>
<trkpt lat="43.13639202" lon="-2.48929088">
<ele>462.500</ele>
<time>2012-05-02T06:11:12Z</time>
</trkpt>
<trkpt lat="43.13620802" lon="-2.48937488">
<ele>464.000</ele>
<time>2012-05-02T06:11:31Z</time>
</trkpt>
<trkpt lat="43.13606902" lon="-2.48943388">
<ele>464.900</ele>
<time>2012-05-02T06:11:45Z</time>
</trkpt>
<trkpt lat="43.13603202" lon="-2.48944888">
<ele>466.400</ele>
<time>2012-05-02T06:11:49Z</time>
</trkpt>
<trkpt lat="43.13582702" lon="-2.48952188">
<ele>467.300</ele>
<time>2012-05-02T06:12:13Z</time>
</trkpt>
<trkpt lat="43.13571302" lon="-2.48953888">
<ele>467.300</ele>
<time>2012-05-02T06:12:27Z</time>
</trkpt>
<trkpt lat="43.13555302" lon="-2.48952988">
<ele>468.300</ele>
<time>2012-05-02T06:12:41Z</time>
</trkpt>
<trkpt lat="43.13542802" lon="-2.48945788">
<ele>467.800</ele>
<time>2012-05-02T06:12:54Z</time>
</trkpt>
<trkpt lat="43.13524402" lon="-2.48926788">
<ele>471.200</ele>
<time>2012-05-02T06:13:16Z</time>
</trkpt>
<trkpt lat="43.13509802" lon="-2.48901988">
<ele>473.100</ele>
<time>2012-05-02T06:13:39Z</time>
</trkpt>
<trkpt lat="43.13497502" lon="-2.48887288">
<ele>475.000</ele>
<time>2012-05-02T06:13:57Z</time>
</trkpt>
<trkpt lat="43.13485102" lon="-2.48888388">
<ele>476.000</ele>
<time>2012-05-02T06:14:11Z</time>
</trkpt>
<trkpt lat="43.13482702" lon="-2.48891688">
<ele>476.500</ele>
<time>2012-05-02T06:14:24Z</time>
</trkpt>
<trkpt lat="43.13478702" lon="-2.48898488">
<ele>477.400</ele>
<time>2012-05-02T06:14:37Z</time>
</trkpt>
<trkpt lat="43.13477002" lon="-2.48897288">
<ele>478.900</ele>
<time>2012-05-02T06:15:10Z</time>
</trkpt>
<trkpt lat="43.13477002" lon="-2.48895488">
<ele>477.400</ele>
<time>2012-05-02T06:15:39Z</time>
</trkpt>
<trkpt lat="43.13476402" lon="-2.48896288">
<ele>478.400</ele>
<time>2012-05-02T06:16:04Z</time>
</trkpt>
<trkpt lat="43.13472102" lon="-2.48900188">
<ele>477.900</ele>
<time>2012-05-02T06:16:43Z</time>
</trkpt>
<trkpt lat="43.13465802" lon="-2.48904288">
<ele>479.800</ele>
<time>2012-05-02T06:16:58Z</time>
</trkpt>
<trkpt lat="43.13456202" lon="-2.48909188">
<ele>481.300</ele>
<time>2012-05-02T06:17:14Z</time>
</trkpt>
<trkpt lat="43.13443502" lon="-2.48914288">
<ele>484.200</ele>
<time>2012-05-02T06:17:32Z</time>
</trkpt>
<trkpt lat="43.13427702" lon="-2.48920688">
<ele>487.500</ele>
<time>2012-05-02T06:17:51Z</time>
</trkpt>
<trkpt lat="43.13412402" lon="-2.48927188">
<ele>489.900</ele>
<time>2012-05-02T06:18:10Z</time>
</trkpt>
<trkpt lat="43.13402002" lon="-2.48931588">
<ele>493.300</ele>
<time>2012-05-02T06:18:25Z</time>
</trkpt>
<trkpt lat="43.13397502" lon="-2.48933088">
<ele>493.800</ele>
<time>2012-05-02T06:18:46Z</time>
</trkpt>
<trkpt lat="43.13384302" lon="-2.48935788">
<ele>496.200</ele>
<time>2012-05-02T06:19:04Z</time>
</trkpt>
<trkpt lat="43.13370702" lon="-2.48937188">
<ele>498.600</ele>
<time>2012-05-02T06:19:22Z</time>
</trkpt>
<trkpt lat="43.13356002" lon="-2.48938388">
<ele>501.900</ele>
<time>2012-05-02T06:19:41Z</time>
</trkpt>
<trkpt lat="43.13342202" lon="-2.48936588">
<ele>504.300</ele>
<time>2012-05-02T06:20:00Z</time>
</trkpt>
<trkpt lat="43.13333002" lon="-2.48937588">
<ele>505.800</ele>
<time>2012-05-02T06:20:15Z</time>
</trkpt>
<trkpt lat="43.13332302" lon="-2.48938988">
<ele>505.800</ele>
<time>2012-05-02T06:20:31Z</time>
</trkpt>
<trkpt lat="43.13336602" lon="-2.48936788">
<ele>504.300</ele>
<time>2012-05-02T06:21:09Z</time>
</trkpt>
<trkpt lat="43.13335902" lon="-2.48936888">
<ele>504.800</ele>
<time>2012-05-02T06:21:36Z</time>
</trkpt>
<trkpt lat="43.13330902" lon="-2.48937588">
<ele>505.800</ele>
<time>2012-05-02T06:21:51Z</time>
</trkpt>
<trkpt lat="43.13331102" lon="-2.48938588">
<ele>505.800</ele>
<time>2012-05-02T06:21:52Z</time>
</trkpt>
<trkpt lat="43.13330502" lon="-2.48943088">
<ele>505.800</ele>
<time>2012-05-02T06:22:10Z</time>
</trkpt>
<trkpt lat="43.13331102" lon="-2.48936888">
<ele>505.300</ele>
<time>2012-05-02T06:22:28Z</time>
</trkpt>
<trkpt lat="43.13335402" lon="-2.48940588">
<ele>504.300</ele>
<time>2012-05-02T06:22:48Z</time>
</trkpt>
<trkpt lat="43.13338802" lon="-2.48941288">
<ele>504.300</ele>
<time>2012-05-02T06:22:57Z</time>
</trkpt>
<trkpt lat="43.13341402" lon="-2.48952688">
<ele>505.800</ele>
<time>2012-05-02T06:23:13Z</time>
</trkpt>
<trkpt lat="43.13340302" lon="-2.48964288">
<ele>507.200</ele>
<time>2012-05-02T06:23:29Z</time>
</trkpt>
<trkpt lat="43.13346702" lon="-2.48972088">
<ele>506.300</ele>
<time>2012-05-02T06:23:50Z</time>
</trkpt>
<trkpt lat="43.13348402" lon="-2.48977088">
<ele>506.800</ele>
<time>2012-05-02T06:24:02Z</time>
</trkpt>
<trkpt lat="43.13333702" lon="-2.48972088">
<ele>507.700</ele>
<time>2012-05-02T06:24:20Z</time>
</trkpt>
<trkpt lat="43.13328202" lon="-2.48974688">
<ele>508.700</ele>
<time>2012-05-02T06:24:39Z</time>
</trkpt>
<trkpt lat="43.13323902" lon="-2.48984588">
<ele>511.100</ele>
<time>2012-05-02T06:24:56Z</time>
</trkpt>
<trkpt lat="43.13319302" lon="-2.48996088">
<ele>512.500</ele>
<time>2012-05-02T06:25:11Z</time>
</trkpt>
<trkpt lat="43.13313302" lon="-2.49004388">
<ele>514.400</ele>
<time>2012-05-02T06:25:27Z</time>
</trkpt>
<trkpt lat="43.13305602" lon="-2.49015088">
<ele>516.800</ele>
<time>2012-05-02T06:25:44Z</time>
</trkpt>
<trkpt lat="43.13299002" lon="-2.49024788">
<ele>519.700</ele>
<time>2012-05-02T06:26:00Z</time>
</trkpt>
<trkpt lat="43.13292402" lon="-2.49031188">
<ele>521.200</ele>
<time>2012-05-02T06:26:17Z</time>
</trkpt>
<trkpt lat="43.13286602" lon="-2.49039288">
<ele>523.600</ele>
<time>2012-05-02T06:26:35Z</time>
</trkpt>
<trkpt lat="43.13278702" lon="-2.49048988">
<ele>526.900</ele>
<time>2012-05-02T06:26:52Z</time>
</trkpt>
<trkpt lat="43.13267702" lon="-2.49051688">
<ele>528.900</ele>
<time>2012-05-02T06:27:10Z</time>
</trkpt>
<trkpt lat="43.13262302" lon="-2.49058988">
<ele>531.700</ele>
<time>2012-05-02T06:27:25Z</time>
</trkpt>
<trkpt lat="43.13258902" lon="-2.49069388">
<ele>532.200</ele>
<time>2012-05-02T06:27:39Z</time>
</trkpt>
<trkpt lat="43.13255902" lon="-2.49077588">
<ele>534.100</ele>
<time>2012-05-02T06:27:54Z</time>
</trkpt>
<trkpt lat="43.13249702" lon="-2.49088788">
<ele>537.000</ele>
<time>2012-05-02T06:28:11Z</time>
</trkpt>
<trkpt lat="43.13241002" lon="-2.49099988">
<ele>539.400</ele>
<time>2012-05-02T06:28:30Z</time>
</trkpt>
<trkpt lat="43.13237902" lon="-2.49110488">
<ele>541.800</ele>
<time>2012-05-02T06:28:48Z</time>
</trkpt>
<trkpt lat="43.13232102" lon="-2.49117788">
<ele>543.300</ele>
<time>2012-05-02T06:29:03Z</time>
</trkpt>
<trkpt lat="43.13226702" lon="-2.49125888">
<ele>544.200</ele>
<time>2012-05-02T06:29:19Z</time>
</trkpt>
<trkpt lat="43.13219602" lon="-2.49132888">
<ele>546.600</ele>
<time>2012-05-02T06:29:35Z</time>
</trkpt>
<trkpt lat="43.13215202" lon="-2.49142688">
<ele>549.100</ele>
<time>2012-05-02T06:29:49Z</time>
</trkpt>
<trkpt lat="43.13216902" lon="-2.49159288">
<ele>551.500</ele>
<time>2012-05-02T06:30:05Z</time>
</trkpt>
<trkpt lat="43.13220502" lon="-2.49173488">
<ele>553.900</ele>
<time>2012-05-02T06:30:23Z</time>
</trkpt>
<trkpt lat="43.13226602" lon="-2.49184388">
<ele>555.800</ele>
<time>2012-05-02T06:30:40Z</time>
</trkpt>
<trkpt lat="43.13228502" lon="-2.49196588">
<ele>557.200</ele>
<time>2012-05-02T06:30:57Z</time>
</trkpt>
<trkpt lat="43.13230702" lon="-2.49206488">
<ele>558.700</ele>
<time>2012-05-02T06:31:10Z</time>
</trkpt>
<trkpt lat="43.13231702" lon="-2.49222988">
<ele>559.100</ele>
<time>2012-05-02T06:31:28Z</time>
</trkpt>
<trkpt lat="43.13233902" lon="-2.49233188">
<ele>560.100</ele>
<time>2012-05-02T06:31:38Z</time>
</trkpt>
<trkpt lat="43.13236002" lon="-2.49247188">
<ele>561.100</ele>
<time>2012-05-02T06:31:53Z</time>
</trkpt>
<trkpt lat="43.13233002" lon="-2.49260388">
<ele>561.100</ele>
<time>2012-05-02T06:32:08Z</time>
</trkpt>
<trkpt lat="43.13231002" lon="-2.49273188">
<ele>564.000</ele>
<time>2012-05-02T06:32:25Z</time>
</trkpt>
<trkpt lat="43.13225702" lon="-2.49285088">
<ele>566.800</ele>
<time>2012-05-02T06:32:41Z</time>
</trkpt>
<trkpt lat="43.13222302" lon="-2.49296588">
<ele>567.800</ele>
<time>2012-05-02T06:32:56Z</time>
</trkpt>
<trkpt lat="43.13215602" lon="-2.49309488">
<ele>570.700</ele>
<time>2012-05-02T06:33:17Z</time>
</trkpt>
<trkpt lat="43.13211802" lon="-2.49315688">
<ele>573.600</ele>
<time>2012-05-02T06:33:30Z</time>
</trkpt>
<trkpt lat="43.13204902" lon="-2.49326588">
<ele>575.500</ele>
<time>2012-05-02T06:33:46Z</time>
</trkpt>
<trkpt lat="43.13201202" lon="-2.49336988">
<ele>577.400</ele>
<time>2012-05-02T06:34:03Z</time>
</trkpt>
<trkpt lat="43.13199302" lon="-2.49345088">
<ele>579.300</ele>
<time>2012-05-02T06:34:18Z</time>
</trkpt>
<trkpt lat="43.13191702" lon="-2.49355188">
<ele>581.300</ele>
<time>2012-05-02T06:34:32Z</time>
</trkpt>
<trkpt lat="43.13189802" lon="-2.49365688">
<ele>583.700</ele>
<time>2012-05-02T06:34:49Z</time>
</trkpt>
<trkpt lat="43.13188902" lon="-2.49369488">
<ele>583.200</ele>
<time>2012-05-02T06:35:03Z</time>
</trkpt>
<trkpt lat="43.13185202" lon="-2.49371588">
<ele>584.100</ele>
<time>2012-05-02T06:35:18Z</time>
</trkpt>
<trkpt lat="43.13180302" lon="-2.49381188">
<ele>587.500</ele>
<time>2012-05-02T06:35:37Z</time>
</trkpt>
<trkpt lat="43.13173402" lon="-2.49388988">
<ele>588.900</ele>
<time>2012-05-02T06:35:53Z</time>
</trkpt>
<trkpt lat="43.13168402" lon="-2.49401488">
<ele>590.900</ele>
<time>2012-05-02T06:36:09Z</time>
</trkpt>
<trkpt lat="43.13161502" lon="-2.49409988">
<ele>592.800</ele>
<time>2012-05-02T06:36:25Z</time>
</trkpt>
<trkpt lat="43.13156702" lon="-2.49413288">
<ele>594.200</ele>
<time>2012-05-02T06:36:40Z</time>
</trkpt>
<trkpt lat="43.13150202" lon="-2.49416288">
<ele>596.600</ele>
<time>2012-05-02T06:36:51Z</time>
</trkpt>
<trkpt lat="43.13143002" lon="-2.49420188">
<ele>598.100</ele>
<time>2012-05-02T06:37:03Z</time>
</trkpt>
<trkpt lat="43.13137202" lon="-2.49420488">
<ele>601.000</ele>
<time>2012-05-02T06:37:17Z</time>
</trkpt>
<trkpt lat="43.13136802" lon="-2.49408688">
<ele>602.400</ele>
<time>2012-05-02T06:37:35Z</time>
</trkpt>
<trkpt lat="43.13133202" lon="-2.49396288">
<ele>603.800</ele>
<time>2012-05-02T06:37:50Z</time>
</trkpt>
<trkpt lat="43.13124302" lon="-2.49392788">
<ele>605.300</ele>
<time>2012-05-02T06:38:05Z</time>
</trkpt>
<trkpt lat="43.13116002" lon="-2.49398588">
<ele>607.700</ele>
<time>2012-05-02T06:38:20Z</time>
</trkpt>
<trkpt lat="43.13108502" lon="-2.49407488">
<ele>611.100</ele>
<time>2012-05-02T06:38:36Z</time>
</trkpt>
<trkpt lat="43.13101802" lon="-2.49415288">
<ele>613.000</ele>
<time>2012-05-02T06:38:52Z</time>
</trkpt>
<trkpt lat="43.13095202" lon="-2.49420588">
<ele>614.400</ele>
<time>2012-05-02T06:39:07Z</time>
</trkpt>
<trkpt lat="43.13089202" lon="-2.49423988">
<ele>617.300</ele>
<time>2012-05-02T06:39:23Z</time>
</trkpt>
<trkpt lat="43.13085602" lon="-2.49429988">
<ele>619.200</ele>
<time>2012-05-02T06:39:38Z</time>
</trkpt>
<trkpt lat="43.13077002" lon="-2.49440388">
<ele>621.600</ele>
<time>2012-05-02T06:39:53Z</time>
</trkpt>
<trkpt lat="43.13071102" lon="-2.49446188">
<ele>623.600</ele>
<time>2012-05-02T06:40:08Z</time>
</trkpt>
<trkpt lat="43.13064202" lon="-2.49452188">
<ele>626.000</ele>
<time>2012-05-02T06:40:21Z</time>
</trkpt>
<trkpt lat="43.13059102" lon="-2.49463188">
<ele>626.900</ele>
<time>2012-05-02T06:40:36Z</time>
</trkpt>
<trkpt lat="43.13058002" lon="-2.49459588">
<ele>625.500</ele>
<time>2012-05-02T06:41:02Z</time>
</trkpt>
<trkpt lat="43.13051402" lon="-2.49456188">
<ele>626.400</ele>
<time>2012-05-02T06:43:51Z</time>
</trkpt>
<trkpt lat="43.13052202" lon="-2.49463788">
<ele>627.900</ele>
<time>2012-05-02T06:44:19Z</time>
</trkpt>
<trkpt lat="43.13046902" lon="-2.49471688">
<ele>630.300</ele>
<time>2012-05-02T06:44:30Z</time>
</trkpt>
<trkpt lat="43.13041402" lon="-2.49479288">
<ele>631.700</ele>
<time>2012-05-02T06:44:47Z</time>
</trkpt>
<trkpt lat="43.13035702" lon="-2.49488188">
<ele>633.600</ele>
<time>2012-05-02T06:45:04Z</time>
</trkpt>
<trkpt lat="43.13029302" lon="-2.49499188">
<ele>635.600</ele>
<time>2012-05-02T06:45:19Z</time>
</trkpt>
<trkpt lat="43.13023602" lon="-2.49510888">
<ele>638.500</ele>
<time>2012-05-02T06:45:35Z</time>
</trkpt>
<trkpt lat="43.13017702" lon="-2.49518688">
<ele>639.900</ele>
<time>2012-05-02T06:45:51Z</time>
</trkpt>
<trkpt lat="43.13010302" lon="-2.49526288">
<ele>642.800</ele>
<time>2012-05-02T06:46:08Z</time>
</trkpt>
<trkpt lat="43.13005002" lon="-2.49532488">
<ele>644.700</ele>
<time>2012-05-02T06:46:22Z</time>
</trkpt>
<trkpt lat="43.13001202" lon="-2.49543988">
<ele>645.700</ele>
<time>2012-05-02T06:46:37Z</time>
</trkpt>
<trkpt lat="43.12992102" lon="-2.49552888">
<ele>649.000</ele>
<time>2012-05-02T06:46:55Z</time>
</trkpt>
<trkpt lat="43.12983902" lon="-2.49560988">
<ele>651.900</ele>
<time>2012-05-02T06:47:14Z</time>
</trkpt>
<trkpt lat="43.12976202" lon="-2.49569588">
<ele>653.800</ele>
<time>2012-05-02T06:47:31Z</time>
</trkpt>
<trkpt lat="43.12970402" lon="-2.49578188">
<ele>656.700</ele>
<time>2012-05-02T06:47:47Z</time>
</trkpt>
<trkpt lat="43.12961902" lon="-2.49589788">
<ele>659.600</ele>
<time>2012-05-02T06:48:06Z</time>
</trkpt>
<trkpt lat="43.12956702" lon="-2.49596488">
<ele>661.000</ele>
<time>2012-05-02T06:48:21Z</time>
</trkpt>
<trkpt lat="43.12952302" lon="-2.49607488">
<ele>662.500</ele>
<time>2012-05-02T06:48:41Z</time>
</trkpt>
<trkpt lat="43.12953202" lon="-2.49618788">
<ele>664.400</ele>
<time>2012-05-02T06:48:59Z</time>
</trkpt>
<trkpt lat="43.12952802" lon="-2.49630588">
<ele>665.900</ele>
<time>2012-05-02T06:49:16Z</time>
</trkpt>
<trkpt lat="43.12954402" lon="-2.49641688">
<ele>667.800</ele>
<time>2012-05-02T06:49:33Z</time>
</trkpt>
<trkpt lat="43.12951602" lon="-2.49648688">
<ele>669.700</ele>
<time>2012-05-02T06:49:51Z</time>
</trkpt>
<trkpt lat="43.12953502" lon="-2.49658488">
<ele>671.600</ele>
<time>2012-05-02T06:50:08Z</time>
</trkpt>
<trkpt lat="43.12954802" lon="-2.49665188">
<ele>674.000</ele>
<time>2012-05-02T06:50:25Z</time>
</trkpt>
<trkpt lat="43.12954902" lon="-2.49671688">
<ele>675.500</ele>
<time>2012-05-02T06:50:44Z</time>
</trkpt>
<trkpt lat="43.12953202" lon="-2.49670688">
<ele>675.500</ele>
<time>2012-05-02T06:51:25Z</time>
</trkpt>
<trkpt lat="43.12946902" lon="-2.49668088">
<ele>676.900</ele>
<time>2012-05-02T06:51:49Z</time>
</trkpt>
<trkpt lat="43.12943002" lon="-2.49673788">
<ele>680.300</ele>
<time>2012-05-02T06:52:04Z</time>
</trkpt>
<trkpt lat="43.12939702" lon="-2.49679788">
<ele>683.200</ele>
<time>2012-05-02T06:52:16Z</time>
</trkpt>
<trkpt lat="43.12931402" lon="-2.49689688">
<ele>686.000</ele>
<time>2012-05-02T06:52:36Z</time>
</trkpt>
<trkpt lat="43.12917802" lon="-2.49702588">
<ele>691.300</ele>
<time>2012-05-02T07:32:52Z</time>
</trkpt>
<trkpt lat="43.12925602" lon="-2.49716388">
<ele>691.300</ele>
<time>2012-05-02T07:33:14Z</time>
</trkpt>
<trkpt lat="43.12932502" lon="-2.49732788">
<ele>693.200</ele>
<time>2012-05-02T07:33:29Z</time>
</trkpt>
<trkpt lat="43.12945002" lon="-2.49750788">
<ele>695.700</ele>
<time>2012-05-02T07:33:52Z</time>
</trkpt>
<trkpt lat="43.12950502" lon="-2.49761988">
<ele>698.500</ele>
<time>2012-05-02T07:34:06Z</time>
</trkpt>
<trkpt lat="43.12955602" lon="-2.49771488">
<ele>701.900</ele>
<time>2012-05-02T07:34:22Z</time>
</trkpt>
<trkpt lat="43.12955902" lon="-2.49771888">
<ele>701.400</ele>
<time>2012-05-02T07:34:23Z</time>
</trkpt>
<trkpt lat="43.12959902" lon="-2.49779388">
<ele>704.800</ele>
<time>2012-05-02T07:34:35Z</time>
</trkpt>
<trkpt lat="43.12960102" lon="-2.49780088">
<ele>705.300</ele>
<time>2012-05-02T07:34:36Z</time>
</trkpt>
<trkpt lat="43.12966702" lon="-2.49788588">
<ele>708.100</ele>
<time>2012-05-02T07:34:52Z</time>
</trkpt>
<trkpt lat="43.12970802" lon="-2.49796088">
<ele>710.600</ele>
<time>2012-05-02T07:35:09Z</time>
</trkpt>
<trkpt lat="43.12975202" lon="-2.49800288">
<ele>713.400</ele>
<time>2012-05-02T07:35:22Z</time>
</trkpt>
<trkpt lat="43.12980202" lon="-2.49806588">
<ele>715.400</ele>
<time>2012-05-02T07:35:36Z</time>
</trkpt>
<trkpt lat="43.12984802" lon="-2.49815888">
<ele>718.200</ele>
<time>2012-05-02T07:35:53Z</time>
</trkpt>
<trkpt lat="43.12987202" lon="-2.49825788">
<ele>720.200</ele>
<time>2012-05-02T07:36:09Z</time>
</trkpt>
<trkpt lat="43.12991702" lon="-2.49834688">
<ele>723.000</ele>
<time>2012-05-02T07:36:26Z</time>
</trkpt>
<trkpt lat="43.12997202" lon="-2.49844088">
<ele>725.000</ele>
<time>2012-05-02T07:36:41Z</time>
</trkpt>
<trkpt lat="43.13004402" lon="-2.49855188">
<ele>727.400</ele>
<time>2012-05-02T07:36:58Z</time>
</trkpt>
<trkpt lat="43.13006702" lon="-2.49864588">
<ele>730.700</ele>
<time>2012-05-02T07:37:12Z</time>
</trkpt>
<trkpt lat="43.13011902" lon="-2.49875588">
<ele>733.100</ele>
<time>2012-05-02T07:37:29Z</time>
</trkpt>
<trkpt lat="43.13016302" lon="-2.49885588">
<ele>735.500</ele>
<time>2012-05-02T07:37:47Z</time>
</trkpt>
<trkpt lat="43.13022402" lon="-2.49890488">
<ele>737.500</ele>
<time>2012-05-02T07:38:03Z</time>
</trkpt>
<trkpt lat="43.13028102" lon="-2.49884888">
<ele>739.900</ele>
<time>2012-05-02T07:38:18Z</time>
</trkpt>
<trkpt lat="43.13032002" lon="-2.49886288">
<ele>740.400</ele>
<time>2012-05-02T07:38:32Z</time>
</trkpt>
<trkpt lat="43.13033702" lon="-2.49895088">
<ele>740.400</ele>
<time>2012-05-02T07:38:46Z</time>
</trkpt>
<trkpt lat="43.13033702" lon="-2.49895188">
<ele>740.400</ele>
<time>2012-05-02T07:39:00Z</time>
</trkpt>
<trkpt lat="43.13034902" lon="-2.49894988">
<ele>740.800</ele>
<time>2012-05-02T07:39:23Z</time>
</trkpt>
<trkpt lat="43.13035402" lon="-2.49895588">
<ele>740.800</ele>
<time>2012-05-02T07:39:52Z</time>
</trkpt>
<trkpt lat="43.13035802" lon="-2.49892088">
<ele>741.800</ele>
<time>2012-05-02T07:40:19Z</time>
</trkpt>
<trkpt lat="43.13038102" lon="-2.49891088">
<ele>741.300</ele>
<time>2012-05-02T07:40:55Z</time>
</trkpt>
<trkpt lat="43.13037102" lon="-2.49891088">
<ele>741.300</ele>
<time>2012-05-02T07:42:05Z</time>
</trkpt>
<trkpt lat="43.13034902" lon="-2.49893988">
<ele>741.300</ele>
<time>2012-05-02T07:42:22Z</time>
</trkpt>
<trkpt lat="43.13033902" lon="-2.49897388">
<ele>740.800</ele>
<time>2012-05-02T07:42:34Z</time>
</trkpt>
<trkpt lat="43.13035002" lon="-2.49907688">
<ele>740.800</ele>
<time>2012-05-02T07:42:48Z</time>
</trkpt>
<trkpt lat="43.13036202" lon="-2.49905988">
<ele>740.800</ele>
<time>2012-05-02T07:43:10Z</time>
</trkpt>
<trkpt lat="43.13040202" lon="-2.49906288">
<ele>740.800</ele>
<time>2012-05-02T07:43:29Z</time>
</trkpt>
<trkpt lat="43.13042702" lon="-2.49910388">
<ele>740.800</ele>
<time>2012-05-02T07:43:53Z</time>
</trkpt>
<trkpt lat="43.13040502" lon="-2.49913688">
<ele>741.800</ele>
<time>2012-05-02T07:44:20Z</time>
</trkpt>
<trkpt lat="43.13041902" lon="-2.49913688">
<ele>741.300</ele>
<time>2012-05-02T07:45:05Z</time>
</trkpt>
<trkpt lat="43.13034802" lon="-2.49912888">
<ele>740.400</ele>
<time>2012-05-02T07:45:31Z</time>
</trkpt>
<trkpt lat="43.13037802" lon="-2.49908988">
<ele>741.300</ele>
<time>2012-05-02T07:45:45Z</time>
</trkpt>
<trkpt lat="43.13032202" lon="-2.49910788">
<ele>739.900</ele>
<time>2012-05-02T07:46:03Z</time>
</trkpt>
<trkpt lat="43.13035802" lon="-2.49919588">
<ele>740.400</ele>
<time>2012-05-02T07:46:18Z</time>
</trkpt>
<trkpt lat="43.13037902" lon="-2.49923888">
<ele>739.900</ele>
<time>2012-05-02T07:46:23Z</time>
</trkpt>
<trkpt lat="43.13045202" lon="-2.49940488">
<ele>737.900</ele>
<time>2012-05-02T07:46:37Z</time>
</trkpt>
<trkpt lat="43.13047902" lon="-2.49946388">
<ele>737.000</ele>
<time>2012-05-02T07:46:43Z</time>
</trkpt>
<trkpt lat="43.13054802" lon="-2.49961288">
<ele>735.500</ele>
<time>2012-05-02T07:47:01Z</time>
</trkpt>
<trkpt lat="43.13055502" lon="-2.49962788">
<ele>734.600</ele>
<time>2012-05-02T07:47:03Z</time>
</trkpt>
<trkpt lat="43.13057202" lon="-2.49965788">
<ele>732.700</ele>
<time>2012-05-02T07:47:07Z</time>
</trkpt>
<trkpt lat="43.13061802" lon="-2.49975388">
<ele>730.700</ele>
<time>2012-05-02T07:47:22Z</time>
</trkpt>
<trkpt lat="43.13066702" lon="-2.49987588">
<ele>727.400</ele>
<time>2012-05-02T07:47:36Z</time>
</trkpt>
<trkpt lat="43.13071902" lon="-2.49999388">
<ele>724.500</ele>
<time>2012-05-02T07:47:51Z</time>
</trkpt>
<trkpt lat="43.13073502" lon="-2.50001288">
<ele>722.600</ele>
<time>2012-05-02T07:47:54Z</time>
</trkpt>
<trkpt lat="43.13076502" lon="-2.50012588">
<ele>719.200</ele>
<time>2012-05-02T07:48:10Z</time>
</trkpt>
<trkpt lat="43.13079702" lon="-2.50022588">
<ele>715.800</ele>
<time>2012-05-02T07:48:26Z</time>
</trkpt>
<trkpt lat="43.13083502" lon="-2.50032188">
<ele>713.000</ele>
<time>2012-05-02T07:48:42Z</time>
</trkpt>
<trkpt lat="43.13086502" lon="-2.50039088">
<ele>709.600</ele>
<time>2012-05-02T07:48:53Z</time>
</trkpt>
<trkpt lat="43.13091302" lon="-2.50048788">
<ele>706.700</ele>
<time>2012-05-02T07:49:08Z</time>
</trkpt>
<trkpt lat="43.13097902" lon="-2.50054388">
<ele>703.300</ele>
<time>2012-05-02T07:49:22Z</time>
</trkpt>
<trkpt lat="43.13105002" lon="-2.50065188">
<ele>699.500</ele>
<time>2012-05-02T07:49:37Z</time>
</trkpt>
<trkpt lat="43.13107302" lon="-2.50069888">
<ele>698.500</ele>
<time>2012-05-02T07:49:42Z</time>
</trkpt>
<trkpt lat="43.13110502" lon="-2.50079388">
<ele>695.700</ele>
<time>2012-05-02T07:49:53Z</time>
</trkpt>
<trkpt lat="43.13116302" lon="-2.50088988">
<ele>692.800</ele>
<time>2012-05-02T07:50:04Z</time>
</trkpt>
<trkpt lat="43.13127102" lon="-2.50107188">
<ele>689.900</ele>
<time>2012-05-02T07:50:19Z</time>
</trkpt>
<trkpt lat="43.13132802" lon="-2.50118688">
<ele>686.500</ele>
<time>2012-05-02T07:50:30Z</time>
</trkpt>
<trkpt lat="43.13141202" lon="-2.50130588">
<ele>682.700</ele>
<time>2012-05-02T07:50:43Z</time>
</trkpt>
<trkpt lat="43.13150402" lon="-2.50147288">
<ele>679.300</ele>
<time>2012-05-02T07:51:00Z</time>
</trkpt>
<trkpt lat="43.13151102" lon="-2.50148288">
<ele>679.300</ele>
<time>2012-05-02T07:51:01Z</time>
</trkpt>
<trkpt lat="43.13162102" lon="-2.50169688">
<ele>676.900</ele>
<time>2012-05-02T07:51:21Z</time>
</trkpt>
<trkpt lat="43.13166702" lon="-2.50179088">
<ele>675.500</ele>
<time>2012-05-02T07:51:31Z</time>
</trkpt>
<trkpt lat="43.13172502" lon="-2.50185688">
<ele>673.500</ele>
<time>2012-05-02T07:51:47Z</time>
</trkpt>
<trkpt lat="43.13180002" lon="-2.50205588">
<ele>670.700</ele>
<time>2012-05-02T07:52:03Z</time>
</trkpt>
<trkpt lat="43.13187402" lon="-2.50220688">
<ele>667.800</ele>
<time>2012-05-02T07:52:17Z</time>
</trkpt>
<trkpt lat="43.13192302" lon="-2.50236788">
<ele>664.900</ele>
<time>2012-05-02T07:52:33Z</time>
</trkpt>
<trkpt lat="43.13195502" lon="-2.50253988">
<ele>662.000</ele>
<time>2012-05-02T07:52:49Z</time>
</trkpt>
<trkpt lat="43.13198502" lon="-2.50267788">
<ele>658.600</ele>
<time>2012-05-02T07:53:02Z</time>
</trkpt>
<trkpt lat="43.13203802" lon="-2.50284988">
<ele>656.700</ele>
<time>2012-05-02T07:53:19Z</time>
</trkpt>
<trkpt lat="43.13206802" lon="-2.50300288">
<ele>653.800</ele>
<time>2012-05-02T07:53:31Z</time>
</trkpt>
<trkpt lat="43.13207302" lon="-2.50319388">
<ele>650.900</ele>
<time>2012-05-02T07:53:46Z</time>
</trkpt>
<trkpt lat="43.13212402" lon="-2.50338488">
<ele>648.500</ele>
<time>2012-05-02T07:54:01Z</time>
</trkpt>
<trkpt lat="43.13213402" lon="-2.50341788">
<ele>647.600</ele>
<time>2012-05-02T07:54:04Z</time>
</trkpt>
<trkpt lat="43.13216102" lon="-2.50359188">
<ele>644.200</ele>
<time>2012-05-02T07:54:19Z</time>
</trkpt>
<trkpt lat="43.13217402" lon="-2.50374788">
<ele>642.800</ele>
<time>2012-05-02T07:54:32Z</time>
</trkpt>
<trkpt lat="43.13217702" lon="-2.50402588">
<ele>640.400</ele>
<time>2012-05-02T07:54:50Z</time>
</trkpt>
<trkpt lat="43.13216302" lon="-2.50427288">
<ele>639.900</ele>
<time>2012-05-02T07:55:08Z</time>
</trkpt>
<trkpt lat="43.13215702" lon="-2.50428688">
<ele>639.400</ele>
<time>2012-05-02T07:55:09Z</time>
</trkpt>
<trkpt lat="43.13217202" lon="-2.50450488">
<ele>638.500</ele>
<time>2012-05-02T07:55:26Z</time>
</trkpt>
<trkpt lat="43.13229002" lon="-2.50470588">
<ele>636.500</ele>
<time>2012-05-02T07:55:45Z</time>
</trkpt>
<trkpt lat="43.13234502" lon="-2.50483688">
<ele>635.600</ele>
<time>2012-05-02T07:55:57Z</time>
</trkpt>
<trkpt lat="43.13241602" lon="-2.50503388">
<ele>634.100</ele>
<time>2012-05-02T07:56:13Z</time>
</trkpt>
<trkpt lat="43.13250802" lon="-2.50517688">
<ele>631.700</ele>
<time>2012-05-02T07:56:28Z</time>
</trkpt>
<trkpt lat="43.13258502" lon="-2.50530088">
<ele>629.300</ele>
<time>2012-05-02T07:56:40Z</time>
</trkpt>
<trkpt lat="43.13269002" lon="-2.50540288">
<ele>626.400</ele>
<time>2012-05-02T07:56:56Z</time>
</trkpt>
<trkpt lat="43.13275202" lon="-2.50548088">
<ele>623.100</ele>
<time>2012-05-02T07:57:11Z</time>
</trkpt>
<trkpt lat="43.13281502" lon="-2.50554288">
<ele>621.600</ele>
<time>2012-05-02T07:57:20Z</time>
</trkpt>
<trkpt lat="43.13291602" lon="-2.50566388">
<ele>618.300</ele>
<time>2012-05-02T07:57:35Z</time>
</trkpt>
<trkpt lat="43.13301902" lon="-2.50571888">
<ele>615.900</ele>
<time>2012-05-02T07:57:47Z</time>
</trkpt>
<trkpt lat="43.13308902" lon="-2.50582288">
<ele>613.500</ele>
<time>2012-05-02T07:58:00Z</time>
</trkpt>
<trkpt lat="43.13312702" lon="-2.50590488">
<ele>610.100</ele>
<time>2012-05-02T07:58:14Z</time>
</trkpt>
<trkpt lat="43.13323102" lon="-2.50603988">
<ele>607.200</ele>
<time>2012-05-02T07:58:30Z</time>
</trkpt>
<trkpt lat="43.13331702" lon="-2.50619588">
<ele>604.300</ele>
<time>2012-05-02T07:58:48Z</time>
</trkpt>
<trkpt lat="43.13338802" lon="-2.50633988">
<ele>601.000</ele>
<time>2012-05-02T07:59:03Z</time>
</trkpt>
<trkpt lat="43.13342902" lon="-2.50642288">
<ele>599.000</ele>
<time>2012-05-02T07:59:14Z</time>
</trkpt>
<trkpt lat="43.13353302" lon="-2.50661188">
<ele>597.100</ele>
<time>2012-05-02T07:59:33Z</time>
</trkpt>
<trkpt lat="43.13357702" lon="-2.50668188">
<ele>595.200</ele>
<time>2012-05-02T07:59:41Z</time>
</trkpt>
<trkpt lat="43.13369102" lon="-2.50683488">
<ele>592.800</ele>
<time>2012-05-02T07:59:59Z</time>
</trkpt>
<trkpt lat="43.13369902" lon="-2.50684188">
<ele>592.300</ele>
<time>2012-05-02T08:00:00Z</time>
</trkpt>
<trkpt lat="43.13386102" lon="-2.50709688">
<ele>589.900</ele>
<time>2012-05-02T08:00:23Z</time>
</trkpt>
<trkpt lat="43.13400402" lon="-2.50733888">
<ele>587.500</ele>
<time>2012-05-02T08:00:46Z</time>
</trkpt>
<trkpt lat="43.13411202" lon="-2.50751188">
<ele>584.100</ele>
<time>2012-05-02T08:01:03Z</time>
</trkpt>
<trkpt lat="43.13420602" lon="-2.50766288">
<ele>581.300</ele>
<time>2012-05-02T08:01:21Z</time>
</trkpt>
<trkpt lat="43.13431902" lon="-2.50778788">
<ele>578.400</ele>
<time>2012-05-02T08:01:38Z</time>
</trkpt>
<trkpt lat="43.13433302" lon="-2.50781088">
<ele>577.400</ele>
<time>2012-05-02T08:01:42Z</time>
</trkpt>
<trkpt lat="43.13438702" lon="-2.50788588">
<ele>574.000</ele>
<time>2012-05-02T08:01:56Z</time>
</trkpt>
<trkpt lat="43.13444602" lon="-2.50795488">
<ele>571.600</ele>
<time>2012-05-02T08:02:11Z</time>
</trkpt>
<trkpt lat="43.13451802" lon="-2.50801188">
<ele>568.800</ele>
<time>2012-05-02T08:02:25Z</time>
</trkpt>
<trkpt lat="43.13465402" lon="-2.50801588">
<ele>565.400</ele>
<time>2012-05-02T08:02:41Z</time>
</trkpt>
<trkpt lat="43.13480902" lon="-2.50792788">
<ele>562.000</ele>
<time>2012-05-02T08:02:59Z</time>
</trkpt>
<trkpt lat="43.13491902" lon="-2.50786488">
<ele>560.100</ele>
<time>2012-05-02T08:03:13Z</time>
</trkpt>
<trkpt lat="43.13503402" lon="-2.50773788">
<ele>556.700</ele>
<time>2012-05-02T08:03:29Z</time>
</trkpt>
<trkpt lat="43.13512602" lon="-2.50760088">
<ele>554.800</ele>
<time>2012-05-02T08:03:44Z</time>
</trkpt>
<trkpt lat="43.13517502" lon="-2.50749888">
<ele>553.400</ele>
<time>2012-05-02T08:03:56Z</time>
</trkpt>
<trkpt lat="43.13525002" lon="-2.50735788">
<ele>551.000</ele>
<time>2012-05-02T08:04:12Z</time>
</trkpt>
<trkpt lat="43.13534402" lon="-2.50725088">
<ele>549.100</ele>
<time>2012-05-02T08:04:28Z</time>
</trkpt>
<trkpt lat="43.13543002" lon="-2.50714188">
<ele>546.600</ele>
<time>2012-05-02T08:04:43Z</time>
</trkpt>
<trkpt lat="43.13553802" lon="-2.50700188">
<ele>543.300</ele>
<time>2012-05-02T08:05:00Z</time>
</trkpt>
<trkpt lat="43.13567102" lon="-2.50689188">
<ele>540.400</ele>
<time>2012-05-02T08:05:17Z</time>
</trkpt>
<trkpt lat="43.13576202" lon="-2.50675888">
<ele>538.500</ele>
<time>2012-05-02T08:05:32Z</time>
</trkpt>
<trkpt lat="43.13588102" lon="-2.50663588">
<ele>535.100</ele>
<time>2012-05-02T08:05:49Z</time>
</trkpt>
<trkpt lat="43.13593802" lon="-2.50657288">
<ele>533.200</ele>
<time>2012-05-02T08:06:00Z</time>
</trkpt>
<trkpt lat="43.13599502" lon="-2.50650688">
<ele>531.700</ele>
<time>2012-05-02T08:06:15Z</time>
</trkpt>
<trkpt lat="43.13611202" lon="-2.50652388">
<ele>528.900</ele>
<time>2012-05-02T08:06:29Z</time>
</trkpt>
<trkpt lat="43.13621202" lon="-2.50658788">
<ele>527.400</ele>
<time>2012-05-02T08:06:49Z</time>
</trkpt>
<trkpt lat="43.13630402" lon="-2.50664388">
<ele>524.100</ele>
<time>2012-05-02T08:07:02Z</time>
</trkpt>
<trkpt lat="43.13636602" lon="-2.50669388">
<ele>522.600</ele>
<time>2012-05-02T08:07:16Z</time>
</trkpt>
<trkpt lat="43.13637802" lon="-2.50669988">
<ele>522.600</ele>
<time>2012-05-02T08:07:17Z</time>
</trkpt>
<trkpt lat="43.13648402" lon="-2.50674288">
<ele>520.700</ele>
<time>2012-05-02T08:07:29Z</time>
</trkpt>
<trkpt lat="43.13658402" lon="-2.50681588">
<ele>518.300</ele>
<time>2012-05-02T08:07:44Z</time>
</trkpt>
<trkpt lat="43.13668202" lon="-2.50687688">
<ele>514.900</ele>
<time>2012-05-02T08:07:59Z</time>
</trkpt>
<trkpt lat="43.13675102" lon="-2.50693688">
<ele>513.500</ele>
<time>2012-05-02T08:08:13Z</time>
</trkpt>
<trkpt lat="43.13692402" lon="-2.50701988">
<ele>510.100</ele>
<time>2012-05-02T08:08:29Z</time>
</trkpt>
<trkpt lat="43.13704702" lon="-2.50707788">
<ele>507.700</ele>
<time>2012-05-02T08:08:45Z</time>
</trkpt>
<trkpt lat="43.13713002" lon="-2.50711488">
<ele>505.800</ele>
<time>2012-05-02T08:08:59Z</time>
</trkpt>
<trkpt lat="43.13727102" lon="-2.50717088">
<ele>503.400</ele>
<time>2012-05-02T08:09:12Z</time>
</trkpt>
<trkpt lat="43.13737102" lon="-2.50721788">
<ele>501.900</ele>
<time>2012-05-02T08:09:24Z</time>
</trkpt>
<trkpt lat="43.13751302" lon="-2.50726988">
<ele>501.000</ele>
<time>2012-05-02T08:09:36Z</time>
</trkpt>
<trkpt lat="43.13763102" lon="-2.50730688">
<ele>498.600</ele>
<time>2012-05-02T08:09:47Z</time>
</trkpt>
<trkpt lat="43.13768202" lon="-2.50734088">
<ele>498.600</ele>
<time>2012-05-02T08:09:52Z</time>
</trkpt>
<trkpt lat="43.13785702" lon="-2.50745788">
<ele>497.100</ele>
<time>2012-05-02T08:10:09Z</time>
</trkpt>
<trkpt lat="43.13798402" lon="-2.50757788">
<ele>495.700</ele>
<time>2012-05-02T08:10:23Z</time>
</trkpt>
<trkpt lat="43.13817302" lon="-2.50771288">
<ele>494.700</ele>
<time>2012-05-02T08:10:35Z</time>
</trkpt>
<trkpt lat="43.13818202" lon="-2.50772188">
<ele>494.700</ele>
<time>2012-05-02T08:10:36Z</time>
</trkpt>
<trkpt lat="43.13827202" lon="-2.50790788">
<ele>493.300</ele>
<time>2012-05-02T08:10:52Z</time>
</trkpt>
<trkpt lat="43.13834302" lon="-2.50804388">
<ele>491.400</ele>
<time>2012-05-02T08:11:07Z</time>
</trkpt>
<trkpt lat="43.13844802" lon="-2.50821688">
<ele>489.900</ele>
<time>2012-05-02T08:11:22Z</time>
</trkpt>
<trkpt lat="43.13856502" lon="-2.50835188">
<ele>489.000</ele>
<time>2012-05-02T08:11:36Z</time>
</trkpt>
<trkpt lat="43.13875002" lon="-2.50852988">
<ele>488.000</ele>
<time>2012-05-02T08:11:56Z</time>
</trkpt>
<trkpt lat="43.13883102" lon="-2.50856788">
<ele>487.500</ele>
<time>2012-05-02T08:12:04Z</time>
</trkpt>
<trkpt lat="43.13893502" lon="-2.50862688">
<ele>488.000</ele>
<time>2012-05-02T08:12:16Z</time>
</trkpt>
<trkpt lat="43.13908302" lon="-2.50875788">
<ele>486.100</ele>
<time>2012-05-02T08:12:35Z</time>
</trkpt>
<trkpt lat="43.13924402" lon="-2.50881388">
<ele>484.200</ele>
<time>2012-05-02T08:12:52Z</time>
</trkpt>
<trkpt lat="43.13940202" lon="-2.50886288">
<ele>482.700</ele>
<time>2012-05-02T08:13:08Z</time>
</trkpt>
<trkpt lat="43.13957502" lon="-2.50891488">
<ele>480.800</ele>
<time>2012-05-02T08:13:28Z</time>
</trkpt>
<trkpt lat="43.13969702" lon="-2.50891688">
<ele>478.900</ele>
<time>2012-05-02T08:13:45Z</time>
</trkpt>
<trkpt lat="43.13977402" lon="-2.50890888">
<ele>477.000</ele>
<time>2012-05-02T08:13:53Z</time>
</trkpt>
<trkpt lat="43.13997602" lon="-2.50888788">
<ele>475.000</ele>
<time>2012-05-02T08:14:11Z</time>
</trkpt>
<trkpt lat="43.14017502" lon="-2.50885888">
<ele>473.100</ele>
<time>2012-05-02T08:14:28Z</time>
</trkpt>
<trkpt lat="43.14020002" lon="-2.50885188">
<ele>473.100</ele>
<time>2012-05-02T08:14:32Z</time>
</trkpt>
<trkpt lat="43.14022102" lon="-2.50884888">
<ele>472.100</ele>
<time>2012-05-02T08:14:34Z</time>
</trkpt>
<trkpt lat="43.14035802" lon="-2.50882788">
<ele>470.700</ele>
<time>2012-05-02T08:14:45Z</time>
</trkpt>
<trkpt lat="43.14045302" lon="-2.50880188">
<ele>469.700</ele>
<time>2012-05-02T08:14:55Z</time>
</trkpt>
<trkpt lat="43.14048402" lon="-2.50879788">
<ele>469.300</ele>
<time>2012-05-02T08:15:02Z</time>
</trkpt>
<trkpt lat="43.14057502" lon="-2.50876888">
<ele>468.800</ele>
<time>2012-05-02T08:15:14Z</time>
</trkpt>
<trkpt lat="43.14060302" lon="-2.50875988">
<ele>467.800</ele>
<time>2012-05-02T08:15:26Z</time>
</trkpt>
<trkpt lat="43.14072102" lon="-2.50875388">
<ele>467.300</ele>
<time>2012-05-02T08:15:37Z</time>
</trkpt>
<trkpt lat="43.14075602" lon="-2.50875288">
<ele>467.300</ele>
<time>2012-05-02T08:15:40Z</time>
</trkpt>
<trkpt lat="43.14078302" lon="-2.50874188">
<ele>466.900</ele>
<time>2012-05-02T08:15:43Z</time>
</trkpt>
<trkpt lat="43.14092002" lon="-2.50869788">
<ele>465.400</ele>
<time>2012-05-02T08:15:58Z</time>
</trkpt>
<trkpt lat="43.14094402" lon="-2.50867088">
<ele>466.900</ele>
<time>2012-05-02T08:16:01Z</time>
</trkpt>
<trkpt lat="43.14105202" lon="-2.50856788">
<ele>465.400</ele>
<time>2012-05-02T08:16:13Z</time>
</trkpt>
<trkpt lat="43.14120102" lon="-2.50849788">
<ele>464.900</ele>
<time>2012-05-02T08:16:31Z</time>
</trkpt>
<trkpt lat="43.14126902" lon="-2.50851488">
<ele>464.900</ele>
<time>2012-05-02T08:16:44Z</time>
</trkpt>
<trkpt lat="43.14130102" lon="-2.50851588">
<ele>464.500</ele>
<time>2012-05-02T08:16:58Z</time>
</trkpt>
<trkpt lat="43.14133002" lon="-2.50850288">
<ele>464.900</ele>
<time>2012-05-02T08:17:25Z</time>
</trkpt>
<trkpt lat="43.14140202" lon="-2.50842988">
<ele>465.400</ele>
<time>2012-05-02T08:17:41Z</time>
</trkpt>
<trkpt lat="43.14143402" lon="-2.50838988">
<ele>464.900</ele>
<time>2012-05-02T08:17:49Z</time>
</trkpt>
<trkpt lat="43.14152502" lon="-2.50832588">
<ele>465.400</ele>
<time>2012-05-02T08:18:05Z</time>
</trkpt>
<trkpt lat="43.14158602" lon="-2.50828188">
<ele>465.400</ele>
<time>2012-05-02T08:18:25Z</time>
</trkpt>
<trkpt lat="43.14163802" lon="-2.50826888">
<ele>465.900</ele>
<time>2012-05-02T08:18:30Z</time>
</trkpt>
<trkpt lat="43.14178502" lon="-2.50826788">
<ele>466.900</ele>
<time>2012-05-02T08:18:43Z</time>
</trkpt>
<trkpt lat="43.14181702" lon="-2.50826688">
<ele>465.900</ele>
<time>2012-05-02T08:18:46Z</time>
</trkpt>
<trkpt lat="43.14186302" lon="-2.50826888">
<ele>466.400</ele>
<time>2012-05-02T08:18:51Z</time>
</trkpt>
<trkpt lat="43.14203202" lon="-2.50827288">
<ele>467.300</ele>
<time>2012-05-02T08:19:08Z</time>
</trkpt>
<trkpt lat="43.14205502" lon="-2.50826588">
<ele>467.300</ele>
<time>2012-05-02T08:19:10Z</time>
</trkpt>
<trkpt lat="43.14215702" lon="-2.50825388">
<ele>467.800</ele>
<time>2012-05-02T08:19:17Z</time>
</trkpt>
<trkpt lat="43.14218302" lon="-2.50825488">
<ele>468.800</ele>
<time>2012-05-02T08:19:19Z</time>
</trkpt>
<trkpt lat="43.14222902" lon="-2.50824288">
<ele>469.700</ele>
<time>2012-05-02T08:19:27Z</time>
</trkpt>
<trkpt lat="43.14240402" lon="-2.50822188">
<ele>470.200</ele>
<time>2012-05-02T08:19:43Z</time>
</trkpt>
<trkpt lat="43.14242002" lon="-2.50818388">
<ele>470.200</ele>
<time>2012-05-02T08:20:04Z</time>
</trkpt>
<trkpt lat="43.14247302" lon="-2.50818988">
<ele>470.700</ele>
<time>2012-05-02T08:20:45Z</time>
</trkpt>
<trkpt lat="43.14249602" lon="-2.50826188">
<ele>470.700</ele>
<time>2012-05-02T08:21:01Z</time>
</trkpt>
<trkpt lat="43.14250702" lon="-2.50826988">
<ele>470.700</ele>
<time>2012-05-02T08:21:36Z</time>
</trkpt>
<trkpt lat="43.14257102" lon="-2.50824288">
<ele>470.200</ele>
<time>2012-05-02T08:22:32Z</time>
</trkpt>
<trkpt lat="43.14246202" lon="-2.50823188">
<ele>470.200</ele>
<time>2012-05-02T08:23:16Z</time>
</trkpt>
<trkpt lat="43.14239502" lon="-2.50827388">
<ele>470.200</ele>
<time>2012-05-02T08:23:23Z</time>
</trkpt>
<trkpt lat="43.14235602" lon="-2.50844388">
<ele>471.200</ele>
<time>2012-05-02T08:23:37Z</time>
</trkpt>
<trkpt lat="43.14235802" lon="-2.50864688">
<ele>473.600</ele>
<time>2012-05-02T08:23:54Z</time>
</trkpt>
<trkpt lat="43.14235602" lon="-2.50865888">
<ele>473.600</ele>
<time>2012-05-02T08:23:55Z</time>
</trkpt>
<trkpt lat="43.14236102" lon="-2.50870388">
<ele>473.600</ele>
<time>2012-05-02T08:23:59Z</time>
</trkpt>
<trkpt lat="43.14235602" lon="-2.50887788">
<ele>475.000</ele>
<time>2012-05-02T08:24:14Z</time>
</trkpt>
<trkpt lat="43.14236002" lon="-2.50902788">
<ele>477.000</ele>
<time>2012-05-02T08:24:26Z</time>
</trkpt>
<trkpt lat="43.14236902" lon="-2.50915088">
<ele>478.400</ele>
<time>2012-05-02T08:24:39Z</time>
</trkpt>
<trkpt lat="43.14243502" lon="-2.50923388">
<ele>479.800</ele>
<time>2012-05-02T08:24:56Z</time>
</trkpt>
<trkpt lat="43.14249702" lon="-2.50922488">
<ele>481.300</ele>
<time>2012-05-02T08:25:10Z</time>
</trkpt>
<trkpt lat="43.14259402" lon="-2.50922788">
<ele>483.700</ele>
<time>2012-05-02T08:25:24Z</time>
</trkpt>
<trkpt lat="43.14268502" lon="-2.50924588">
<ele>485.100</ele>
<time>2012-05-02T08:25:38Z</time>
</trkpt>
<trkpt lat="43.14277602" lon="-2.50923888">
<ele>487.500</ele>
<time>2012-05-02T08:25:51Z</time>
</trkpt>
<trkpt lat="43.14287002" lon="-2.50918488">
<ele>489.000</ele>
<time>2012-05-02T08:26:06Z</time>
</trkpt>
<trkpt lat="43.14297702" lon="-2.50915188">
<ele>491.900</ele>
<time>2012-05-02T08:26:22Z</time>
</trkpt>
<trkpt lat="43.14306202" lon="-2.50909788">
<ele>494.300</ele>
<time>2012-05-02T08:26:37Z</time>
</trkpt>
<trkpt lat="43.14316002" lon="-2.50905088">
<ele>496.700</ele>
<time>2012-05-02T08:26:52Z</time>
</trkpt>
<trkpt lat="43.14324302" lon="-2.50900288">
<ele>498.600</ele>
<time>2012-05-02T08:27:06Z</time>
</trkpt>
<trkpt lat="43.14332202" lon="-2.50892788">
<ele>501.000</ele>
<time>2012-05-02T08:27:21Z</time>
</trkpt>
<trkpt lat="43.14340602" lon="-2.50883488">
<ele>504.300</ele>
<time>2012-05-02T08:27:40Z</time>
</trkpt>
<trkpt lat="43.14348402" lon="-2.50879788">
<ele>506.300</ele>
<time>2012-05-02T08:27:53Z</time>
</trkpt>
<trkpt lat="43.14364304" lon="-2.50874476">
<ele>505.000</ele>
<time>2013-01-28T16:11:46Z</time>
</trkpt>
<trkpt lat="43.14394104" lon="-2.50851976">
<ele>517.000</ele>
<time>2013-01-28T16:12:06Z</time>
</trkpt>
<trkpt lat="43.14506604" lon="-2.50739276">
<ele>532.000</ele>
<time>2013-01-28T16:12:26Z</time>
</trkpt>
<trkpt lat="43.14592704" lon="-2.50655676">
<ele>536.000</ele>
<time>2013-01-28T16:12:46Z</time>
</trkpt>
<trkpt lat="43.14648304" lon="-2.50750076">
<ele>552.000</ele>
<time>2013-01-28T16:13:06Z</time>
</trkpt>
<trkpt lat="43.14670204" lon="-2.50848776">
<ele>580.000</ele>
<time>2013-01-28T16:13:26Z</time>
</trkpt>
<trkpt lat="43.14707704" lon="-2.50907776">
<ele>597.000</ele>
<time>2013-01-28T16:13:46Z</time>
</trkpt>
<trkpt lat="43.14759404" lon="-2.50982876">
<ele>608.000</ele>
<time>2013-01-28T16:14:06Z</time>
</trkpt>
<trkpt lat="43.14802504" lon="-2.50983976">
<ele>602.000</ele>
<time>2013-01-28T16:14:26Z</time>
</trkpt>
<trkpt lat="43.14858004" lon="-2.50996776">
<ele>606.000</ele>
<time>2013-01-28T16:14:46Z</time>
</trkpt>
<trkpt lat="43.14883904" lon="-2.51024676">
<ele>607.000</ele>
<time>2013-01-28T16:15:06Z</time>
</trkpt>
<trkpt lat="43.14932504" lon="-2.51076176">
<ele>595.000</ele>
<time>2013-01-28T16:15:26Z</time>
</trkpt>
<trkpt lat="43.14954404" lon="-2.51162076">
<ele>578.000</ele>
<time>2013-01-28T16:15:46Z</time>
</trkpt>
<trkpt lat="43.14929404" lon="-2.51243576">
<ele>563.000</ele>
<time>2013-01-28T16:16:06Z</time>
</trkpt>
<trkpt lat="43.14819804" lon="-2.51303676">
<ele>577.000</ele>
<time>2013-01-28T16:16:26Z</time>
</trkpt>
<trkpt lat="43.14713304" lon="-2.51187776">
<ele>659.000</ele>
<time>2013-01-28T16:16:46Z</time>
</trkpt>
<trkpt lat="43.14657602" lon="-2.51155788">
<ele>661.000</ele>
<time>2013-01-28T16:17:06Z</time>
</trkpt>
<trkpt lat="43.14664704" lon="-2.51225376">
<ele>659.000</ele>
<time>2013-01-28T16:17:26Z</time>
</trkpt>
<trkpt lat="43.14680304" lon="-2.51392676">
<ele>627.000</ele>
<time>2013-01-28T16:17:46Z</time>
</trkpt>
<trkpt lat="43.14694004" lon="-2.51533276">
<ele>607.000</ele>
<time>2013-01-28T16:18:06Z</time>
</trkpt>
<trkpt lat="43.14730004" lon="-2.51659876">
<ele>578.000</ele>
<time>2013-01-28T16:18:26Z</time>
</trkpt>
<trkpt lat="43.14755402" lon="-2.51741088">
<ele>589.900</ele>
<time>2012-05-02T09:31:06Z</time>
</trkpt>
<trkpt lat="43.14761702" lon="-2.51762388">
<ele>588.500</ele>
<time>2012-05-02T09:31:23Z</time>
</trkpt>
<trkpt lat="43.14773102" lon="-2.51776088">
<ele>588.500</ele>
<time>2012-05-02T09:31:39Z</time>
</trkpt>
<trkpt lat="43.14774402" lon="-2.51786188">
<ele>588.500</ele>
<time>2012-05-02T09:31:54Z</time>
</trkpt>
<trkpt lat="43.14779102" lon="-2.51794388">
<ele>588.900</ele>
<time>2012-05-02T09:32:07Z</time>
</trkpt>
<trkpt lat="43.14788402" lon="-2.51804988">
<ele>588.900</ele>
<time>2012-05-02T09:32:21Z</time>
</trkpt>
<trkpt lat="43.14800502" lon="-2.51822888">
<ele>588.900</ele>
<time>2012-05-02T09:32:36Z</time>
</trkpt>
<trkpt lat="43.14813802" lon="-2.51847688">
<ele>586.500</ele>
<time>2012-05-02T09:32:55Z</time>
</trkpt>
<trkpt lat="43.14825602" lon="-2.51876088">
<ele>584.100</ele>
<time>2012-05-02T09:33:15Z</time>
</trkpt>
<trkpt lat="43.14831402" lon="-2.51905088">
<ele>582.700</ele>
<time>2012-05-02T09:33:32Z</time>
</trkpt>
<trkpt lat="43.14836302" lon="-2.51928788">
<ele>580.300</ele>
<time>2012-05-02T09:33:48Z</time>
</trkpt>
<trkpt lat="43.14841202" lon="-2.51951288">
<ele>578.900</ele>
<time>2012-05-02T09:34:03Z</time>
</trkpt>
<trkpt lat="43.14842402" lon="-2.51974888">
<ele>576.900</ele>
<time>2012-05-02T09:34:18Z</time>
</trkpt>
<trkpt lat="43.14846702" lon="-2.51998688">
<ele>575.500</ele>
<time>2012-05-02T09:34:35Z</time>
</trkpt>
<trkpt lat="43.14854502" lon="-2.52017088">
<ele>576.000</ele>
<time>2012-05-02T09:34:51Z</time>
</trkpt>
<trkpt lat="43.14861902" lon="-2.52031788">
<ele>575.500</ele>
<time>2012-05-02T09:35:04Z</time>
</trkpt>
<trkpt lat="43.14870202" lon="-2.52048888">
<ele>575.000</ele>
<time>2012-05-02T09:35:19Z</time>
</trkpt>
<trkpt lat="43.14880102" lon="-2.52070288">
<ele>574.000</ele>
<time>2012-05-02T09:35:36Z</time>
</trkpt>
<trkpt lat="43.14886702" lon="-2.52095088">
<ele>575.000</ele>
<time>2012-05-02T09:35:56Z</time>
</trkpt>
<trkpt lat="43.14893602" lon="-2.52113488">
<ele>574.500</ele>
<time>2012-05-02T09:36:13Z</time>
</trkpt>
<trkpt lat="43.14902802" lon="-2.52131688">
<ele>573.100</ele>
<time>2012-05-02T09:36:33Z</time>
</trkpt>
<trkpt lat="43.14909902" lon="-2.52146888">
<ele>571.600</ele>
<time>2012-05-02T09:36:48Z</time>
</trkpt>
<trkpt lat="43.14914202" lon="-2.52169188">
<ele>571.200</ele>
<time>2012-05-02T09:37:04Z</time>
</trkpt>
<trkpt lat="43.14919202" lon="-2.52182388">
<ele>570.200</ele>
<time>2012-05-02T09:37:16Z</time>
</trkpt>
<trkpt lat="43.14929002" lon="-2.52191488">
<ele>570.700</ele>
<time>2012-05-02T09:37:28Z</time>
</trkpt>
<trkpt lat="43.14937002" lon="-2.52207188">
<ele>571.600</ele>
<time>2012-05-02T09:37:41Z</time>
</trkpt>
<trkpt lat="43.14944702" lon="-2.52224888">
<ele>570.200</ele>
<time>2012-05-02T09:37:55Z</time>
</trkpt>
<trkpt lat="43.14956402" lon="-2.52233288">
<ele>570.200</ele>
<time>2012-05-02T09:38:08Z</time>
</trkpt>
<trkpt lat="43.14964902" lon="-2.52247188">
<ele>570.200</ele>
<time>2012-05-02T09:38:21Z</time>
</trkpt>
<trkpt lat="43.14965702" lon="-2.52247888">
<ele>570.200</ele>
<time>2012-05-02T09:38:22Z</time>
</trkpt>
<trkpt lat="43.14973902" lon="-2.52253488">
<ele>569.200</ele>
<time>2012-05-02T09:38:38Z</time>
</trkpt>
<trkpt lat="43.14983402" lon="-2.52263288">
<ele>571.200</ele>
<time>2012-05-02T09:38:56Z</time>
</trkpt>
<trkpt lat="43.14993802" lon="-2.52275888">
<ele>572.100</ele>
<time>2012-05-02T09:39:11Z</time>
</trkpt>
<trkpt lat="43.15011202" lon="-2.52294988">
<ele>573.100</ele>
<time>2012-05-02T09:39:31Z</time>
</trkpt>
<trkpt lat="43.15026602" lon="-2.52310188">
<ele>573.600</ele>
<time>2012-05-02T09:39:49Z</time>
</trkpt>
<trkpt lat="43.15038902" lon="-2.52324688">
<ele>575.500</ele>
<time>2012-05-02T09:40:06Z</time>
</trkpt>
<trkpt lat="43.15046802" lon="-2.52340588">
<ele>578.400</ele>
<time>2012-05-02T09:40:24Z</time>
</trkpt>
<trkpt lat="43.15051502" lon="-2.52357888">
<ele>580.800</ele>
<time>2012-05-02T09:40:42Z</time>
</trkpt>
<trkpt lat="43.15056402" lon="-2.52375388">
<ele>583.700</ele>
<time>2012-05-02T09:41:01Z</time>
</trkpt>
<trkpt lat="43.15059002" lon="-2.52387888">
<ele>586.500</ele>
<time>2012-05-02T09:41:16Z</time>
</trkpt>
<trkpt lat="43.15064402" lon="-2.52396788">
<ele>588.000</ele>
<time>2012-05-02T09:41:36Z</time>
</trkpt>
<trkpt lat="43.15071102" lon="-2.52409888">
<ele>590.900</ele>
<time>2012-05-02T09:41:54Z</time>
</trkpt>
<trkpt lat="43.15078502" lon="-2.52422288">
<ele>592.800</ele>
<time>2012-05-02T09:42:09Z</time>
</trkpt>
<trkpt lat="43.15086902" lon="-2.52430288">
<ele>594.700</ele>
<time>2012-05-02T09:42:21Z</time>
</trkpt>
<trkpt lat="43.15099002" lon="-2.52437588">
<ele>596.200</ele>
<time>2012-05-02T09:42:38Z</time>
</trkpt>
<trkpt lat="43.15111602" lon="-2.52441388">
<ele>598.100</ele>
<time>2012-05-02T09:42:53Z</time>
</trkpt>
<trkpt lat="43.15125702" lon="-2.52442588">
<ele>600.500</ele>
<time>2012-05-02T09:43:10Z</time>
</trkpt>
<trkpt lat="43.15138302" lon="-2.52439288">
<ele>602.900</ele>
<time>2012-05-02T09:43:29Z</time>
</trkpt>
<trkpt lat="43.15148402" lon="-2.52432688">
<ele>603.800</ele>
<time>2012-05-02T09:43:44Z</time>
</trkpt>
<trkpt lat="43.15154702" lon="-2.52423788">
<ele>607.700</ele>
<time>2012-05-02T09:43:57Z</time>
</trkpt>
<trkpt lat="43.15164502" lon="-2.52416088">
<ele>610.100</ele>
<time>2012-05-02T09:44:14Z</time>
</trkpt>
<trkpt lat="43.15171702" lon="-2.52403888">
<ele>612.000</ele>
<time>2012-05-02T09:44:30Z</time>
</trkpt>
<trkpt lat="43.15178602" lon="-2.52392988">
<ele>613.500</ele>
<time>2012-05-02T09:44:48Z</time>
</trkpt>
<trkpt lat="43.15188702" lon="-2.52390488">
<ele>612.500</ele>
<time>2012-05-02T09:45:00Z</time>
</trkpt>
<trkpt lat="43.15209402" lon="-2.52388688">
<ele>611.100</ele>
<time>2012-05-02T09:45:19Z</time>
</trkpt>
<trkpt lat="43.15222902" lon="-2.52386788">
<ele>611.100</ele>
<time>2012-05-02T09:45:33Z</time>
</trkpt>
<trkpt lat="43.15233902" lon="-2.52384488">
<ele>613.000</ele>
<time>2012-05-02T09:45:47Z</time>
</trkpt>
<trkpt lat="43.15247402" lon="-2.52381788">
<ele>613.500</ele>
<time>2012-05-02T09:46:02Z</time>
</trkpt>
<trkpt lat="43.15255902" lon="-2.52386988">
<ele>617.300</ele>
<time>2012-05-02T09:46:14Z</time>
</trkpt>
<trkpt lat="43.15258402" lon="-2.52389088">
<ele>618.700</ele>
<time>2012-05-02T09:46:20Z</time>
</trkpt>
<trkpt lat="43.15268502" lon="-2.52400288">
<ele>620.700</ele>
<time>2012-05-02T09:46:37Z</time>
</trkpt>
<trkpt lat="43.15274702" lon="-2.52410088">
<ele>622.600</ele>
<time>2012-05-02T09:46:53Z</time>
</trkpt>
<trkpt lat="43.15284202" lon="-2.52421388">
<ele>624.000</ele>
<time>2012-05-02T09:47:10Z</time>
</trkpt>
<trkpt lat="43.15288702" lon="-2.52431688">
<ele>626.900</ele>
<time>2012-05-02T09:47:29Z</time>
</trkpt>
<trkpt lat="43.15296402" lon="-2.52443088">
<ele>628.800</ele>
<time>2012-05-02T09:47:44Z</time>
</trkpt>
<trkpt lat="43.15305502" lon="-2.52455588">
<ele>629.800</ele>
<time>2012-05-02T09:47:57Z</time>
</trkpt>
<trkpt lat="43.15319302" lon="-2.52474188">
<ele>630.300</ele>
<time>2012-05-02T09:48:13Z</time>
</trkpt>
<trkpt lat="43.15333102" lon="-2.52488988">
<ele>629.800</ele>
<time>2012-05-02T09:48:27Z</time>
</trkpt>
<trkpt lat="43.15346002" lon="-2.52504788">
<ele>630.300</ele>
<time>2012-05-02T09:48:43Z</time>
</trkpt>
<trkpt lat="43.15352102" lon="-2.52518688">
<ele>630.300</ele>
<time>2012-05-02T09:48:54Z</time>
</trkpt>
<trkpt lat="43.15361802" lon="-2.52533288">
<ele>630.300</ele>
<time>2012-05-02T09:49:08Z</time>
</trkpt>
<trkpt lat="43.15374102" lon="-2.52550188">
<ele>629.800</ele>
<time>2012-05-02T09:49:24Z</time>
</trkpt>
<trkpt lat="43.15376302" lon="-2.52555488">
<ele>629.800</ele>
<time>2012-05-02T09:49:28Z</time>
</trkpt>
<trkpt lat="43.15383602" lon="-2.52566488">
<ele>628.800</ele>
<time>2012-05-02T09:49:37Z</time>
</trkpt>
<trkpt lat="43.15392802" lon="-2.52589288">
<ele>628.400</ele>
<time>2012-05-02T09:49:54Z</time>
</trkpt>
<trkpt lat="43.15400102" lon="-2.52606488">
<ele>627.400</ele>
<time>2012-05-02T09:50:10Z</time>
</trkpt>
<trkpt lat="43.15404902" lon="-2.52618988">
<ele>626.900</ele>
<time>2012-05-02T09:50:22Z</time>
</trkpt>
<trkpt lat="43.15409102" lon="-2.52636888">
<ele>629.300</ele>
<time>2012-05-02T09:50:38Z</time>
</trkpt>
<trkpt lat="43.15415102" lon="-2.52656888">
<ele>631.200</ele>
<time>2012-05-02T09:50:56Z</time>
</trkpt>
<trkpt lat="43.15415302" lon="-2.52657688">
<ele>631.200</ele>
<time>2012-05-02T09:50:57Z</time>
</trkpt>
<trkpt lat="43.15418202" lon="-2.52673088">
<ele>631.200</ele>
<time>2012-05-02T09:51:13Z</time>
</trkpt>
<trkpt lat="43.15424902" lon="-2.52686188">
<ele>631.700</ele>
<time>2012-05-02T09:51:27Z</time>
</trkpt>
<trkpt lat="43.15434202" lon="-2.52699088">
<ele>633.200</ele>
<time>2012-05-02T09:51:42Z</time>
</trkpt>
<trkpt lat="43.15442102" lon="-2.52710688">
<ele>634.100</ele>
<time>2012-05-02T09:51:54Z</time>
</trkpt>
<trkpt lat="43.15454002" lon="-2.52727088">
<ele>637.000</ele>
<time>2012-05-02T09:52:12Z</time>
</trkpt>
<trkpt lat="43.15464202" lon="-2.52744688">
<ele>638.500</ele>
<time>2012-05-02T09:52:31Z</time>
</trkpt>
<trkpt lat="43.15469102" lon="-2.52758488">
<ele>640.900</ele>
<time>2012-05-02T09:52:44Z</time>
</trkpt>
<trkpt lat="43.15473702" lon="-2.52776988">
<ele>643.300</ele>
<time>2012-05-02T09:53:01Z</time>
</trkpt>
<trkpt lat="43.15485402" lon="-2.52786488">
<ele>644.200</ele>
<time>2012-05-02T09:53:20Z</time>
</trkpt>
<trkpt lat="43.15490802" lon="-2.52780788">
<ele>644.700</ele>
<time>2012-05-02T09:53:36Z</time>
</trkpt>
<trkpt lat="43.15490302" lon="-2.52770988">
<ele>646.600</ele>
<time>2012-05-02T09:53:53Z</time>
</trkpt>
<trkpt lat="43.15491402" lon="-2.52759588">
<ele>648.500</ele>
<time>2012-05-02T09:54:10Z</time>
</trkpt>
<trkpt lat="43.15489602" lon="-2.52755288">
<ele>648.100</ele>
<time>2012-05-02T09:54:30Z</time>
</trkpt>
<trkpt lat="43.15490302" lon="-2.52755288">
<ele>648.500</ele>
<time>2012-05-02T09:54:34Z</time>
</trkpt>
<trkpt lat="43.15498002" lon="-2.52745988">
<ele>650.000</ele>
<time>2012-05-02T09:54:46Z</time>
</trkpt>
<trkpt lat="43.15500402" lon="-2.52742988">
<ele>649.500</ele>
<time>2012-05-02T09:54:49Z</time>
</trkpt>
<trkpt lat="43.15511702" lon="-2.52729088">
<ele>648.500</ele>
<time>2012-05-02T09:55:04Z</time>
</trkpt>
<trkpt lat="43.15522602" lon="-2.52721588">
<ele>649.000</ele>
<time>2012-05-02T09:55:18Z</time>
</trkpt>
<trkpt lat="43.15529102" lon="-2.52711988">
<ele>648.100</ele>
<time>2012-05-02T09:55:31Z</time>
</trkpt>
<trkpt lat="43.15540702" lon="-2.52702888">
<ele>647.600</ele>
<time>2012-05-02T09:55:45Z</time>
</trkpt>
<trkpt lat="43.15553502" lon="-2.52697588">
<ele>647.100</ele>
<time>2012-05-02T09:56:00Z</time>
</trkpt>
<trkpt lat="43.15567302" lon="-2.52689688">
<ele>647.600</ele>
<time>2012-05-02T09:56:15Z</time>
</trkpt>
<trkpt lat="43.15580502" lon="-2.52684388">
<ele>647.600</ele>
<time>2012-05-02T09:56:28Z</time>
</trkpt>
<trkpt lat="43.15590402" lon="-2.52678988">
<ele>649.000</ele>
<time>2012-05-02T09:56:40Z</time>
</trkpt>
<trkpt lat="43.15599802" lon="-2.52673388">
<ele>650.000</ele>
<time>2012-05-02T09:56:52Z</time>
</trkpt>
<trkpt lat="43.15616902" lon="-2.52667788">
<ele>649.500</ele>
<time>2012-05-02T09:57:08Z</time>
</trkpt>
<trkpt lat="43.15633002" lon="-2.52663488">
<ele>650.000</ele>
<time>2012-05-02T09:57:25Z</time>
</trkpt>
<trkpt lat="43.15646402" lon="-2.52658188">
<ele>650.000</ele>
<time>2012-05-02T09:57:42Z</time>
</trkpt>
<trkpt lat="43.15666702" lon="-2.52651388">
<ele>650.500</ele>
<time>2012-05-02T09:58:02Z</time>
</trkpt>
<trkpt lat="43.15674302" lon="-2.52646388">
<ele>651.400</ele>
<time>2012-05-02T09:58:11Z</time>
</trkpt>
<trkpt lat="43.15691802" lon="-2.52639788">
<ele>650.900</ele>
<time>2012-05-02T09:58:28Z</time>
</trkpt>
<trkpt lat="43.15709202" lon="-2.52641288">
<ele>653.400</ele>
<time>2012-05-02T09:58:47Z</time>
</trkpt>
<trkpt lat="43.15730202" lon="-2.52640888">
<ele>655.300</ele>
<time>2012-05-02T09:59:08Z</time>
</trkpt>
<trkpt lat="43.15748302" lon="-2.52637488">
<ele>656.200</ele>
<time>2012-05-02T09:59:28Z</time>
</trkpt>
<trkpt lat="43.15749202" lon="-2.52637688">
<ele>655.800</ele>
<time>2012-05-02T10:00:08Z</time>
</trkpt>
<trkpt lat="43.15759502" lon="-2.52634588">
<ele>657.200</ele>
<time>2012-05-02T10:00:36Z</time>
</trkpt>
<trkpt lat="43.15772002" lon="-2.52633788">
<ele>660.100</ele>
<time>2012-05-02T10:00:57Z</time>
</trkpt>
<trkpt lat="43.15784002" lon="-2.52631888">
<ele>661.500</ele>
<time>2012-05-02T10:01:13Z</time>
</trkpt>
<trkpt lat="43.15792202" lon="-2.52630488">
<ele>664.900</ele>
<time>2012-05-02T10:01:27Z</time>
</trkpt>
<trkpt lat="43.15798902" lon="-2.52630688">
<ele>667.800</ele>
<time>2012-05-02T10:01:41Z</time>
</trkpt>
<trkpt lat="43.15810202" lon="-2.52635488">
<ele>669.200</ele>
<time>2012-05-02T10:01:58Z</time>
</trkpt>
<trkpt lat="43.15822802" lon="-2.52639188">
<ele>668.300</ele>
<time>2012-05-02T10:02:16Z</time>
</trkpt>
<trkpt lat="43.15831602" lon="-2.52641388">
<ele>668.700</ele>
<time>2012-05-02T10:02:47Z</time>
</trkpt>
<trkpt lat="43.15836002" lon="-2.52645788">
<ele>668.300</ele>
<time>2012-05-02T10:03:02Z</time>
</trkpt>
<trkpt lat="43.15836602" lon="-2.52645188">
<ele>669.200</ele>
<time>2012-05-02T10:03:21Z</time>
</trkpt>
<trkpt lat="43.15836702" lon="-2.52647388">
<ele>665.400</ele>
<time>2012-05-02T10:03:29Z</time>
</trkpt>
<trkpt lat="43.15836702" lon="-2.52647488">
<ele>668.700</ele>
<time>2012-05-02T10:03:30Z</time>
</trkpt>
<trkpt lat="43.15836702" lon="-2.52647588">
<ele>670.700</ele>
<time>2012-05-02T10:03:36Z</time>
</trkpt>
<trkpt lat="43.15836702" lon="-2.52647588">
<ele>667.300</ele>
<time>2012-05-02T10:03:37Z</time>
</trkpt>
<trkpt lat="43.15836702" lon="-2.52647588">
<ele>668.300</ele>
<time>2012-05-02T10:03:38Z</time>
</trkpt>
<trkpt lat="43.15837502" lon="-2.52644088">
<ele>669.700</ele>
<time>2012-05-02T10:04:49Z</time>
</trkpt>
<trkpt lat="43.15836602" lon="-2.52642788">
<ele>669.700</ele>
<time>2012-05-02T10:05:12Z</time>
</trkpt>
<trkpt lat="43.15833402" lon="-2.52643988">
<ele>669.700</ele>
<time>2012-05-02T10:05:29Z</time>
</trkpt>
<trkpt lat="43.15832102" lon="-2.52641088">
<ele>669.200</ele>
<time>2012-05-02T10:05:46Z</time>
</trkpt>
<trkpt lat="43.15836002" lon="-2.52646688">
<ele>668.700</ele>
<time>2012-05-02T10:06:02Z</time>
</trkpt>
<trkpt lat="43.15836302" lon="-2.52647588">
<ele>669.200</ele>
<time>2012-05-02T10:06:48Z</time>
</trkpt>
<trkpt lat="43.15834802" lon="-2.52648788">
<ele>669.200</ele>
<time>2012-05-02T10:08:12Z</time>
</trkpt>
<trkpt lat="43.15835202" lon="-2.52647388">
<ele>668.700</ele>
<time>2012-05-02T10:09:32Z</time>
</trkpt>
<trkpt lat="43.15835902" lon="-2.52644688">
<ele>670.200</ele>
<time>2012-05-02T10:09:58Z</time>
</trkpt>
<trkpt lat="43.15836802" lon="-2.52644588">
<ele>669.200</ele>
<time>2012-05-02T10:10:16Z</time>
</trkpt>
<trkpt lat="43.15842802" lon="-2.52646888">
<ele>668.300</ele>
<time>2012-05-02T10:10:36Z</time>
</trkpt>
<trkpt lat="43.15841902" lon="-2.52645288">
<ele>668.700</ele>
<time>2012-05-02T10:10:38Z</time>
</trkpt>
<trkpt lat="43.15841402" lon="-2.52646388">
<ele>669.200</ele>
<time>2012-05-02T10:10:54Z</time>
</trkpt>
<trkpt lat="43.15846902" lon="-2.52652688">
<ele>668.300</ele>
<time>2012-05-02T10:11:03Z</time>
</trkpt>
<trkpt lat="43.15861002" lon="-2.52662388">
<ele>665.400</ele>
<time>2012-05-02T10:11:18Z</time>
</trkpt>
<trkpt lat="43.15878702" lon="-2.52668488">
<ele>662.000</ele>
<time>2012-05-02T10:11:38Z</time>
</trkpt>
<trkpt lat="43.15883702" lon="-2.52685788">
<ele>658.600</ele>
<time>2012-05-02T10:11:51Z</time>
</trkpt>
<trkpt lat="43.15888402" lon="-2.52696788">
<ele>655.300</ele>
<time>2012-05-02T10:12:00Z</time>
</trkpt>
<trkpt lat="43.15896102" lon="-2.52708888">
<ele>651.900</ele>
<time>2012-05-02T10:12:13Z</time>
</trkpt>
<trkpt lat="43.15898202" lon="-2.52712188">
<ele>650.500</ele>
<time>2012-05-02T10:12:16Z</time>
</trkpt>
<trkpt lat="43.15904702" lon="-2.52723788">
<ele>647.600</ele>
<time>2012-05-02T10:12:30Z</time>
</trkpt>
<trkpt lat="43.15904402" lon="-2.52725188">
<ele>647.100</ele>
<time>2012-05-02T10:12:32Z</time>
</trkpt>
<trkpt lat="43.15904102" lon="-2.52728488">
<ele>646.100</ele>
<time>2012-05-02T10:12:35Z</time>
</trkpt>
<trkpt lat="43.15907502" lon="-2.52730788">
<ele>645.200</ele>
<time>2012-05-02T10:12:39Z</time>
</trkpt>
<trkpt lat="43.15909402" lon="-2.52730288">
<ele>644.200</ele>
<time>2012-05-02T10:12:41Z</time>
</trkpt>
<trkpt lat="43.15921102" lon="-2.52722088">
<ele>641.800</ele>
<time>2012-05-02T10:12:56Z</time>
</trkpt>
<trkpt lat="43.15930602" lon="-2.52710788">
<ele>638.000</ele>
<time>2012-05-02T10:13:09Z</time>
</trkpt>
<trkpt lat="43.15942202" lon="-2.52691188">
<ele>635.100</ele>
<time>2012-05-02T10:13:27Z</time>
</trkpt>
<trkpt lat="43.15951102" lon="-2.52675188">
<ele>632.200</ele>
<time>2012-05-02T10:13:41Z</time>
</trkpt>
<trkpt lat="43.15957502" lon="-2.52661688">
<ele>630.800</ele>
<time>2012-05-02T10:13:54Z</time>
</trkpt>
<trkpt lat="43.15960702" lon="-2.52643388">
<ele>628.400</ele>
<time>2012-05-02T10:14:08Z</time>
</trkpt>
<trkpt lat="43.15964302" lon="-2.52625888">
<ele>625.000</ele>
<time>2012-05-02T10:14:19Z</time>
</trkpt>
<trkpt lat="43.15964202" lon="-2.52606188">
<ele>623.100</ele>
<time>2012-05-02T10:14:31Z</time>
</trkpt>
<trkpt lat="43.15964402" lon="-2.52584788">
<ele>620.700</ele>
<time>2012-05-02T10:14:45Z</time>
</trkpt>
<trkpt lat="43.15967802" lon="-2.52560888">
<ele>618.300</ele>
<time>2012-05-02T10:15:01Z</time>
</trkpt>
<trkpt lat="43.15970102" lon="-2.52541988">
<ele>616.800</ele>
<time>2012-05-02T10:15:13Z</time>
</trkpt>
<trkpt lat="43.15976802" lon="-2.52528788">
<ele>613.500</ele>
<time>2012-05-02T10:15:24Z</time>
</trkpt>
<trkpt lat="43.15985402" lon="-2.52517088">
<ele>610.600</ele>
<time>2012-05-02T10:15:38Z</time>
</trkpt>
<trkpt lat="43.15992802" lon="-2.52507388">
<ele>607.200</ele>
<time>2012-05-02T10:15:49Z</time>
</trkpt>
<trkpt lat="43.15998602" lon="-2.52496788">
<ele>605.300</ele>
<time>2012-05-02T10:16:02Z</time>
</trkpt>
<trkpt lat="43.16003202" lon="-2.52484288">
<ele>602.400</ele>
<time>2012-05-02T10:16:16Z</time>
</trkpt>
<trkpt lat="43.16009402" lon="-2.52472888">
<ele>598.600</ele>
<time>2012-05-02T10:16:30Z</time>
</trkpt>
<trkpt lat="43.16010002" lon="-2.52471888">
<ele>598.600</ele>
<time>2012-05-02T10:16:31Z</time>
</trkpt>
<trkpt lat="43.16018702" lon="-2.52461388">
<ele>596.200</ele>
<time>2012-05-02T10:16:44Z</time>
</trkpt>
<trkpt lat="43.16027902" lon="-2.52451888">
<ele>593.800</ele>
<time>2012-05-02T10:16:55Z</time>
</trkpt>
<trkpt lat="43.16035102" lon="-2.52436588">
<ele>590.900</ele>
<time>2012-05-02T10:17:09Z</time>
</trkpt>
<trkpt lat="43.16047402" lon="-2.52417688">
<ele>589.400</ele>
<time>2012-05-02T10:17:24Z</time>
</trkpt>
<trkpt lat="43.16066602" lon="-2.52401288">
<ele>587.000</ele>
<time>2012-05-02T10:17:42Z</time>
</trkpt>
<trkpt lat="43.16074302" lon="-2.52398188">
<ele>585.600</ele>
<time>2012-05-02T10:17:56Z</time>
</trkpt>
<trkpt lat="43.16082202" lon="-2.52395488">
<ele>582.700</ele>
<time>2012-05-02T10:18:09Z</time>
</trkpt>
<trkpt lat="43.16094502" lon="-2.52391788">
<ele>579.300</ele>
<time>2012-05-02T10:18:24Z</time>
</trkpt>
<trkpt lat="43.16103902" lon="-2.52392488">
<ele>576.400</ele>
<time>2012-05-02T10:18:38Z</time>
</trkpt>
<trkpt lat="43.16116402" lon="-2.52393288">
<ele>573.100</ele>
<time>2012-05-02T10:18:51Z</time>
</trkpt>
<trkpt lat="43.16128502" lon="-2.52394688">
<ele>570.200</ele>
<time>2012-05-02T10:19:04Z</time>
</trkpt>
<trkpt lat="43.16137002" lon="-2.52402288">
<ele>567.800</ele>
<time>2012-05-02T10:19:19Z</time>
</trkpt>
<trkpt lat="43.16144502" lon="-2.52407488">
<ele>566.800</ele>
<time>2012-05-02T10:19:36Z</time>
</trkpt>
<trkpt lat="43.16145102" lon="-2.52414788">
<ele>566.400</ele>
<time>2012-05-02T10:19:49Z</time>
</trkpt>
<trkpt lat="43.16142002" lon="-2.52428088">
<ele>565.400</ele>
<time>2012-05-02T10:20:03Z</time>
</trkpt>
<trkpt lat="43.16135902" lon="-2.52442288">
<ele>564.900</ele>
<time>2012-05-02T10:20:17Z</time>
</trkpt>
<trkpt lat="43.16135002" lon="-2.52446288">
<ele>564.400</ele>
<time>2012-05-02T10:20:20Z</time>
</trkpt>
<trkpt lat="43.16125402" lon="-2.52476488">
<ele>563.500</ele>
<time>2012-05-02T10:20:38Z</time>
</trkpt>
<trkpt lat="43.16118102" lon="-2.52493888">
<ele>562.500</ele>
<time>2012-05-02T10:20:51Z</time>
</trkpt>
<trkpt lat="43.16111002" lon="-2.52506188">
<ele>562.500</ele>
<time>2012-05-02T10:21:06Z</time>
</trkpt>
<trkpt lat="43.16106602" lon="-2.52522488">
<ele>562.500</ele>
<time>2012-05-02T10:21:21Z</time>
</trkpt>
<trkpt lat="43.16104402" lon="-2.52526088">
<ele>562.000</ele>
<time>2012-05-02T10:21:27Z</time>
</trkpt>
<trkpt lat="43.16099102" lon="-2.52540788">
<ele>562.500</ele>
<time>2012-05-02T10:21:41Z</time>
</trkpt>
<trkpt lat="43.16092902" lon="-2.52562788">
<ele>563.000</ele>
<time>2012-05-02T10:21:56Z</time>
</trkpt>
<trkpt lat="43.16090702" lon="-2.52576988">
<ele>563.000</ele>
<time>2012-05-02T10:22:04Z</time>
</trkpt>
<trkpt lat="43.16089202" lon="-2.52589688">
<ele>563.000</ele>
<time>2012-05-02T10:22:11Z</time>
</trkpt>
<trkpt lat="43.16086502" lon="-2.52609388">
<ele>562.500</ele>
<time>2012-05-02T10:22:26Z</time>
</trkpt>
<trkpt lat="43.16087102" lon="-2.52618088">
<ele>562.500</ele>
<time>2012-05-02T10:22:40Z</time>
</trkpt>
<trkpt lat="43.16089302" lon="-2.52636188">
<ele>562.500</ele>
<time>2012-05-02T10:22:55Z</time>
</trkpt>
<trkpt lat="43.16096802" lon="-2.52649588">
<ele>563.000</ele>
<time>2012-05-02T10:23:07Z</time>
</trkpt>
<trkpt lat="43.16107002" lon="-2.52660888">
<ele>564.400</ele>
<time>2012-05-02T10:23:20Z</time>
</trkpt>
<trkpt lat="43.16111502" lon="-2.52666288">
<ele>564.900</ele>
<time>2012-05-02T10:23:26Z</time>
</trkpt>
<trkpt lat="43.16122302" lon="-2.52678488">
<ele>567.300</ele>
<time>2012-05-02T10:23:41Z</time>
</trkpt>
<trkpt lat="43.16131802" lon="-2.52692188">
<ele>569.200</ele>
<time>2012-05-02T10:23:56Z</time>
</trkpt>
<trkpt lat="43.16138902" lon="-2.52704288">
<ele>570.200</ele>
<time>2012-05-02T10:24:10Z</time>
</trkpt>
<trkpt lat="43.16148602" lon="-2.52718688">
<ele>572.100</ele>
<time>2012-05-02T10:24:27Z</time>
</trkpt>
<trkpt lat="43.16159102" lon="-2.52722488">
<ele>571.200</ele>
<time>2012-05-02T10:24:42Z</time>
</trkpt>
<trkpt lat="43.16170702" lon="-2.52725188">
<ele>570.700</ele>
<time>2012-05-02T10:24:53Z</time>
</trkpt>
<trkpt lat="43.16182702" lon="-2.52728688">
<ele>570.200</ele>
<time>2012-05-02T10:25:06Z</time>
</trkpt>
<trkpt lat="43.16196102" lon="-2.52734288">
<ele>569.700</ele>
<time>2012-05-02T10:25:18Z</time>
</trkpt>
<trkpt lat="43.16197202" lon="-2.52734588">
<ele>569.700</ele>
<time>2012-05-02T10:25:19Z</time>
</trkpt>
<trkpt lat="43.16218202" lon="-2.52739688">
<ele>570.200</ele>
<time>2012-05-02T10:25:36Z</time>
</trkpt>
<trkpt lat="43.16234102" lon="-2.52745188">
<ele>568.800</ele>
<time>2012-05-02T10:25:52Z</time>
</trkpt>
<trkpt lat="43.16250002" lon="-2.52748588">
<ele>569.700</ele>
<time>2012-05-02T10:26:06Z</time>
</trkpt>
<trkpt lat="43.16256802" lon="-2.52752388">
<ele>569.700</ele>
<time>2012-05-02T10:26:15Z</time>
</trkpt>
<trkpt lat="43.16270102" lon="-2.52754188">
<ele>569.200</ele>
<time>2012-05-02T10:26:27Z</time>
</trkpt>
<trkpt lat="43.16275702" lon="-2.52756188">
<ele>569.200</ele>
<time>2012-05-02T10:26:32Z</time>
</trkpt>
<trkpt lat="43.16288302" lon="-2.52763188">
<ele>564.900</ele>
<time>2012-05-02T10:26:46Z</time>
</trkpt>
<trkpt lat="43.16298402" lon="-2.52768488">
<ele>562.500</ele>
<time>2012-05-02T10:26:57Z</time>
</trkpt>
<trkpt lat="43.16301202" lon="-2.52768488">
<ele>562.000</ele>
<time>2012-05-02T10:27:00Z</time>
</trkpt>
<trkpt lat="43.16315002" lon="-2.52767788">
<ele>559.600</ele>
<time>2012-05-02T10:27:13Z</time>
</trkpt>
<trkpt lat="43.16322102" lon="-2.52767888">
<ele>558.200</ele>
<time>2012-05-02T10:27:22Z</time>
</trkpt>
<trkpt lat="43.16332202" lon="-2.52770988">
<ele>554.300</ele>
<time>2012-05-02T10:27:33Z</time>
</trkpt>
<trkpt lat="43.16343902" lon="-2.52775888">
<ele>551.500</ele>
<time>2012-05-02T10:27:46Z</time>
</trkpt>
<trkpt lat="43.16356802" lon="-2.52780488">
<ele>548.100</ele>
<time>2012-05-02T10:27:57Z</time>
</trkpt>
<trkpt lat="43.16367102" lon="-2.52788388">
<ele>545.200</ele>
<time>2012-05-02T10:28:10Z</time>
</trkpt>
<trkpt lat="43.16375602" lon="-2.52790388">
<ele>541.800</ele>
<time>2012-05-02T10:28:21Z</time>
</trkpt>
<trkpt lat="43.16384602" lon="-2.52789988">
<ele>538.500</ele>
<time>2012-05-02T10:28:36Z</time>
</trkpt>
<trkpt lat="43.16399002" lon="-2.52789688">
<ele>535.100</ele>
<time>2012-05-02T10:28:51Z</time>
</trkpt>
<trkpt lat="43.16410702" lon="-2.52790688">
<ele>533.200</ele>
<time>2012-05-02T10:29:02Z</time>
</trkpt>
<trkpt lat="43.16418202" lon="-2.52785088">
<ele>530.300</ele>
<time>2012-05-02T10:29:14Z</time>
</trkpt>
<trkpt lat="43.16435302" lon="-2.52771588">
<ele>526.900</ele>
<time>2012-05-02T10:29:28Z</time>
</trkpt>
<trkpt lat="43.16445302" lon="-2.52760088">
<ele>524.100</ele>
<time>2012-05-02T10:29:43Z</time>
</trkpt>
<trkpt lat="43.16455502" lon="-2.52751488">
<ele>521.700</ele>
<time>2012-05-02T10:29:57Z</time>
</trkpt>
<trkpt lat="43.16464202" lon="-2.52743888">
<ele>519.200</ele>
<time>2012-05-02T10:30:08Z</time>
</trkpt>
<trkpt lat="43.16475502" lon="-2.52734988">
<ele>516.400</ele>
<time>2012-05-02T10:30:20Z</time>
</trkpt>
<trkpt lat="43.16486402" lon="-2.52726988">
<ele>514.000</ele>
<time>2012-05-02T10:30:34Z</time>
</trkpt>
<trkpt lat="43.16498302" lon="-2.52715888">
<ele>512.000</ele>
<time>2012-05-02T10:30:50Z</time>
</trkpt>
<trkpt lat="43.16511902" lon="-2.52703988">
<ele>509.600</ele>
<time>2012-05-02T10:31:07Z</time>
</trkpt>
<trkpt lat="43.16514902" lon="-2.52702988">
<ele>509.600</ele>
<time>2012-05-02T10:31:10Z</time>
</trkpt>
<trkpt lat="43.16520902" lon="-2.52706688">
<ele>508.700</ele>
<time>2012-05-02T10:31:16Z</time>
</trkpt>
<trkpt lat="43.16524702" lon="-2.52719888">
<ele>507.200</ele>
<time>2012-05-02T10:31:29Z</time>
</trkpt>
<trkpt lat="43.16524102" lon="-2.52733088">
<ele>505.800</ele>
<time>2012-05-02T10:31:45Z</time>
</trkpt>
<trkpt lat="43.16523802" lon="-2.52742388">
<ele>504.800</ele>
<time>2012-05-02T10:32:01Z</time>
</trkpt>
<trkpt lat="43.16526502" lon="-2.52721888">
<ele>506.800</ele>
<time>2012-05-02T10:32:22Z</time>
</trkpt>
<trkpt lat="43.16541302" lon="-2.52732788">
<ele>504.800</ele>
<time>2012-05-02T10:32:40Z</time>
</trkpt>
<trkpt lat="43.16553602" lon="-2.52736888">
<ele>502.400</ele>
<time>2012-05-02T10:32:52Z</time>
</trkpt>
<trkpt lat="43.16568502" lon="-2.52741888">
<ele>500.500</ele>
<time>2012-05-02T10:33:05Z</time>
</trkpt>
<trkpt lat="43.16569702" lon="-2.52742188">
<ele>500.000</ele>
<time>2012-05-02T10:33:07Z</time>
</trkpt>
<trkpt lat="43.16578302" lon="-2.52746688">
<ele>499.100</ele>
<time>2012-05-02T10:33:14Z</time>
</trkpt>
<trkpt lat="43.16592002" lon="-2.52750188">
<ele>497.100</ele>
<time>2012-05-02T10:33:27Z</time>
</trkpt>
<trkpt lat="43.16604602" lon="-2.52751388">
<ele>496.200</ele>
<time>2012-05-02T10:33:38Z</time>
</trkpt>
<trkpt lat="43.16607502" lon="-2.52751788">
<ele>496.200</ele>
<time>2012-05-02T10:33:40Z</time>
</trkpt>
<trkpt lat="43.16611102" lon="-2.52754488">
<ele>495.200</ele>
<time>2012-05-02T10:33:44Z</time>
</trkpt>
<trkpt lat="43.16631902" lon="-2.52767588">
<ele>494.700</ele>
<time>2012-05-02T10:34:02Z</time>
</trkpt>
<trkpt lat="43.16645602" lon="-2.52778188">
<ele>494.300</ele>
<time>2012-05-02T10:34:15Z</time>
</trkpt>
<trkpt lat="43.16653102" lon="-2.52778988">
<ele>494.300</ele>
<time>2012-05-02T10:34:24Z</time>
</trkpt>
<trkpt lat="43.16661302" lon="-2.52770388">
<ele>493.300</ele>
<time>2012-05-02T10:34:33Z</time>
</trkpt>
<trkpt lat="43.16662702" lon="-2.52767788">
<ele>492.300</ele>
<time>2012-05-02T10:34:36Z</time>
</trkpt>
<trkpt lat="43.16674702" lon="-2.52748188">
<ele>489.400</ele>
<time>2012-05-02T10:34:53Z</time>
</trkpt>
<trkpt lat="43.16681002" lon="-2.52738888">
<ele>489.000</ele>
<time>2012-05-02T10:35:05Z</time>
</trkpt>
<trkpt lat="43.16682902" lon="-2.52734588">
<ele>489.000</ele>
<time>2012-05-02T10:35:09Z</time>
</trkpt>
<trkpt lat="43.16688602" lon="-2.52718588">
<ele>488.000</ele>
<time>2012-05-02T10:35:24Z</time>
</trkpt>
<trkpt lat="43.16696702" lon="-2.52695888">
<ele>487.500</ele>
<time>2012-05-02T10:35:41Z</time>
</trkpt>
<trkpt lat="43.16700302" lon="-2.52673088">
<ele>485.100</ele>
<time>2012-05-02T10:35:58Z</time>
</trkpt>
<trkpt lat="43.16701802" lon="-2.52651988">
<ele>483.700</ele>
<time>2012-05-02T10:36:12Z</time>
</trkpt>
<trkpt lat="43.16704202" lon="-2.52635288">
<ele>481.300</ele>
<time>2012-05-02T10:36:26Z</time>
</trkpt>
<trkpt lat="43.16704202" lon="-2.52633288">
<ele>481.300</ele>
<time>2012-05-02T10:36:28Z</time>
</trkpt>
<trkpt lat="43.16703502" lon="-2.52616988">
<ele>479.400</ele>
<time>2012-05-02T10:36:39Z</time>
</trkpt>
<trkpt lat="43.16704702" lon="-2.52599988">
<ele>478.400</ele>
<time>2012-05-02T10:36:51Z</time>
</trkpt>
<trkpt lat="43.16706402" lon="-2.52592188">
<ele>477.900</ele>
<time>2012-05-02T10:36:56Z</time>
</trkpt>
<trkpt lat="43.16705402" lon="-2.52575788">
<ele>476.500</ele>
<time>2012-05-02T10:37:08Z</time>
</trkpt>
<trkpt lat="43.16703302" lon="-2.52562888">
<ele>475.500</ele>
<time>2012-05-02T10:37:18Z</time>
</trkpt>
<trkpt lat="43.16698602" lon="-2.52546788">
<ele>474.100</ele>
<time>2012-05-02T10:37:32Z</time>
</trkpt>
<trkpt lat="43.16698102" lon="-2.52539588">
<ele>473.100</ele>
<time>2012-05-02T10:37:37Z</time>
</trkpt>
<trkpt lat="43.16699802" lon="-2.52534788">
<ele>472.600</ele>
<time>2012-05-02T10:37:40Z</time>
</trkpt>
<trkpt lat="43.16701702" lon="-2.52533388">
<ele>472.100</ele>
<time>2012-05-02T10:37:42Z</time>
</trkpt>
<trkpt lat="43.16716202" lon="-2.52539688">
<ele>469.700</ele>
<time>2012-05-02T10:37:58Z</time>
</trkpt>
<trkpt lat="43.16724602" lon="-2.52548388">
<ele>467.300</ele>
<time>2012-05-02T10:38:12Z</time>
</trkpt>
<trkpt lat="43.16735602" lon="-2.52548488">
<ele>465.900</ele>
<time>2012-05-02T10:38:24Z</time>
</trkpt>
<trkpt lat="43.16748002" lon="-2.52553088">
<ele>464.500</ele>
<time>2012-05-02T10:38:36Z</time>
</trkpt>
<trkpt lat="43.16764902" lon="-2.52565188">
<ele>462.100</ele>
<time>2012-05-02T10:38:53Z</time>
</trkpt>
<trkpt lat="43.16774802" lon="-2.52577488">
<ele>459.600</ele>
<time>2012-05-02T10:39:08Z</time>
</trkpt>
<trkpt lat="43.16782602" lon="-2.52589388">
<ele>456.300</ele>
<time>2012-05-02T10:39:24Z</time>
</trkpt>
<trkpt lat="43.16791302" lon="-2.52589688">
<ele>454.800</ele>
<time>2012-05-02T10:39:36Z</time>
</trkpt>
<trkpt lat="43.16797502" lon="-2.52579888">
<ele>453.400</ele>
<time>2012-05-02T10:39:49Z</time>
</trkpt>
<trkpt lat="43.16800502" lon="-2.52567888">
<ele>451.000</ele>
<time>2012-05-02T10:40:01Z</time>
</trkpt>
<trkpt lat="43.16802902" lon="-2.52561388">
<ele>450.000</ele>
<time>2012-05-02T10:40:05Z</time>
</trkpt>
<trkpt lat="43.16809102" lon="-2.52540588">
<ele>449.600</ele>
<time>2012-05-02T10:40:19Z</time>
</trkpt>
<trkpt lat="43.16819602" lon="-2.52530488">
<ele>449.100</ele>
<time>2012-05-02T10:40:32Z</time>
</trkpt>
<trkpt lat="43.16823502" lon="-2.52520188">
<ele>449.100</ele>
<time>2012-05-02T10:40:50Z</time>
</trkpt>
<trkpt lat="43.16831102" lon="-2.52509488">
<ele>448.600</ele>
<time>2012-05-02T10:41:03Z</time>
</trkpt>
<trkpt lat="43.16841602" lon="-2.52500788">
<ele>448.100</ele>
<time>2012-05-02T10:41:18Z</time>
</trkpt>
<trkpt lat="43.16847902" lon="-2.52488788">
<ele>446.200</ele>
<time>2012-05-02T10:41:35Z</time>
</trkpt>
<trkpt lat="43.16848502" lon="-2.52487388">
<ele>445.200</ele>
<time>2012-05-02T10:41:37Z</time>
</trkpt>
<trkpt lat="43.16852502" lon="-2.52473788">
<ele>442.300</ele>
<time>2012-05-02T10:41:53Z</time>
</trkpt>
<trkpt lat="43.16857902" lon="-2.52457688">
<ele>441.400</ele>
<time>2012-05-02T10:42:09Z</time>
</trkpt>
<trkpt lat="43.16855202" lon="-2.52454888">
<ele>442.300</ele>
<time>2012-05-02T10:42:41Z</time>
</trkpt>
<trkpt lat="43.16843602" lon="-2.52445588">
<ele>441.900</ele>
<time>2012-05-02T10:42:57Z</time>
</trkpt>
<trkpt lat="43.16835602" lon="-2.52433988">
<ele>443.300</ele>
<time>2012-05-02T10:43:09Z</time>
</trkpt>
<trkpt lat="43.16828502" lon="-2.52419988">
<ele>443.300</ele>
<time>2012-05-02T10:43:22Z</time>
</trkpt>
<trkpt lat="43.16823502" lon="-2.52411788">
<ele>443.300</ele>
<time>2012-05-02T10:43:30Z</time>
</trkpt>
<trkpt lat="43.16813802" lon="-2.52407788">
<ele>440.900</ele>
<time>2012-05-02T10:43:43Z</time>
</trkpt>
<trkpt lat="43.16812102" lon="-2.52407988">
<ele>440.400</ele>
<time>2012-05-02T10:43:45Z</time>
</trkpt>
<trkpt lat="43.16797702" lon="-2.52418488">
<ele>439.000</ele>
<time>2012-05-02T10:43:58Z</time>
</trkpt>
<trkpt lat="43.16781702" lon="-2.52422688">
<ele>438.000</ele>
<time>2012-05-02T10:44:13Z</time>
</trkpt>
<trkpt lat="43.16770002" lon="-2.52419988">
<ele>437.500</ele>
<time>2012-05-02T10:44:25Z</time>
</trkpt>
<trkpt lat="43.16768102" lon="-2.52396988">
<ele>435.100</ele>
<time>2012-05-02T10:44:42Z</time>
</trkpt>
<trkpt lat="43.16769802" lon="-2.52393488">
<ele>434.700</ele>
<time>2012-05-02T10:44:45Z</time>
</trkpt>
<trkpt lat="43.16773702" lon="-2.52372588">
<ele>431.800</ele>
<time>2012-05-02T10:45:02Z</time>
</trkpt>
<trkpt lat="43.16773402" lon="-2.52363988">
<ele>431.800</ele>
<time>2012-05-02T10:45:09Z</time>
</trkpt>
<trkpt lat="43.16769902" lon="-2.52347088">
<ele>430.300</ele>
<time>2012-05-02T10:45:21Z</time>
</trkpt>
<trkpt lat="43.16756902" lon="-2.52326188">
<ele>428.900</ele>
<time>2012-05-02T10:45:39Z</time>
</trkpt>
<trkpt lat="43.16742602" lon="-2.52314288">
<ele>427.900</ele>
<time>2012-05-02T10:45:54Z</time>
</trkpt>
<trkpt lat="43.16731502" lon="-2.52294988">
<ele>427.000</ele>
<time>2012-05-02T10:46:09Z</time>
</trkpt>
<trkpt lat="43.16719602" lon="-2.52277488">
<ele>426.000</ele>
<time>2012-05-02T10:46:27Z</time>
</trkpt>
<trkpt lat="43.16704302" lon="-2.52260088">
<ele>425.000</ele>
<time>2012-05-02T10:46:47Z</time>
</trkpt>
<trkpt lat="43.16693802" lon="-2.52249588">
<ele>424.100</ele>
<time>2012-05-02T10:46:58Z</time>
</trkpt>
<trkpt lat="43.16684302" lon="-2.52242588">
<ele>423.600</ele>
<time>2012-05-02T10:47:06Z</time>
</trkpt>
<trkpt lat="43.16672502" lon="-2.52224188">
<ele>422.600</ele>
<time>2012-05-02T10:47:22Z</time>
</trkpt>
<trkpt lat="43.16670902" lon="-2.52221488">
<ele>422.600</ele>
<time>2012-05-02T10:47:24Z</time>
</trkpt>
<trkpt lat="43.16666102" lon="-2.52217588">
<ele>422.200</ele>
<time>2012-05-02T10:47:29Z</time>
</trkpt>
<trkpt lat="43.16664202" lon="-2.52213888">
<ele>421.200</ele>
<time>2012-05-02T10:47:32Z</time>
</trkpt>
<trkpt lat="43.16661702" lon="-2.52209188">
<ele>421.700</ele>
<time>2012-05-02T10:47:37Z</time>
</trkpt>
<trkpt lat="43.16654902" lon="-2.52196388">
<ele>419.300</ele>
<time>2012-05-02T10:47:49Z</time>
</trkpt>
<trkpt lat="43.16648402" lon="-2.52182888">
<ele>417.800</ele>
<time>2012-05-02T10:48:00Z</time>
</trkpt>
<trkpt lat="43.16645902" lon="-2.52164288">
<ele>416.900</ele>
<time>2012-05-02T10:48:12Z</time>
</trkpt>
<trkpt lat="43.16644502" lon="-2.52155588">
<ele>416.900</ele>
<time>2012-05-02T10:48:18Z</time>
</trkpt>
<trkpt lat="43.16645802" lon="-2.52140588">
<ele>416.400</ele>
<time>2012-05-02T10:48:29Z</time>
</trkpt>
<trkpt lat="43.16643502" lon="-2.52126588">
<ele>415.400</ele>
<time>2012-05-02T10:48:38Z</time>
</trkpt>
<trkpt lat="43.16642902" lon="-2.52110088">
<ele>414.900</ele>
<time>2012-05-02T10:48:51Z</time>
</trkpt>
<trkpt lat="43.16640202" lon="-2.52093288">
<ele>413.500</ele>
<time>2012-05-02T10:49:02Z</time>
</trkpt>
<trkpt lat="43.16634402" lon="-2.52074988">
<ele>412.100</ele>
<time>2012-05-02T10:49:15Z</time>
</trkpt>
<trkpt lat="43.16634402" lon="-2.52060688">
<ele>409.700</ele>
<time>2012-05-02T10:49:27Z</time>
</trkpt>
<trkpt lat="43.16633502" lon="-2.52038788">
<ele>409.200</ele>
<time>2012-05-02T10:49:39Z</time>
</trkpt>
<trkpt lat="43.16635302" lon="-2.52024588">
<ele>409.200</ele>
<time>2012-05-02T10:49:51Z</time>
</trkpt>
<trkpt lat="43.16640002" lon="-2.52001088">
<ele>409.700</ele>
<time>2012-05-02T10:50:08Z</time>
</trkpt>
<trkpt lat="43.16642202" lon="-2.51996888">
<ele>410.100</ele>
<time>2012-05-02T10:50:12Z</time>
</trkpt>
<trkpt lat="43.16646202" lon="-2.51988688">
<ele>409.700</ele>
<time>2012-05-02T10:50:18Z</time>
</trkpt>
<trkpt lat="43.16655502" lon="-2.51975188">
<ele>409.200</ele>
<time>2012-05-02T10:50:32Z</time>
</trkpt>
<trkpt lat="43.16661102" lon="-2.51960488">
<ele>408.200</ele>
<time>2012-05-02T10:50:46Z</time>
</trkpt>
<trkpt lat="43.16667802" lon="-2.51936588">
<ele>407.300</ele>
<time>2012-05-02T10:51:03Z</time>
</trkpt>
<trkpt lat="43.16668202" lon="-2.51931688">
<ele>406.800</ele>
<time>2012-05-02T10:51:09Z</time>
</trkpt>
<trkpt lat="43.16669102" lon="-2.51915988">
<ele>407.300</ele>
<time>2012-05-02T10:51:24Z</time>
</trkpt>
<trkpt lat="43.16674802" lon="-2.51894288">
<ele>407.300</ele>
<time>2012-05-02T10:51:42Z</time>
</trkpt>
<trkpt lat="43.16675302" lon="-2.51879188">
<ele>406.800</ele>
<time>2012-05-02T10:51:53Z</time>
</trkpt>
<trkpt lat="43.16681602" lon="-2.51868188">
<ele>407.300</ele>
<time>2012-05-02T10:52:02Z</time>
</trkpt>
<trkpt lat="43.16683302" lon="-2.51865688">
<ele>406.800</ele>
<time>2012-05-02T10:52:04Z</time>
</trkpt>
<trkpt lat="43.16692902" lon="-2.51851488">
<ele>406.300</ele>
<time>2012-05-02T10:52:16Z</time>
</trkpt>
<trkpt lat="43.16696802" lon="-2.51845588">
<ele>405.800</ele>
<time>2012-05-02T10:52:20Z</time>
</trkpt>
<trkpt lat="43.16704102" lon="-2.51838988">
<ele>404.900</ele>
<time>2012-05-02T10:52:28Z</time>
</trkpt>
<trkpt lat="43.16703702" lon="-2.51834288">
<ele>404.900</ele>
<time>2012-05-02T10:52:32Z</time>
</trkpt>
<trkpt lat="43.16704202" lon="-2.51827088">
<ele>404.900</ele>
<time>2012-05-02T10:52:45Z</time>
</trkpt>
<trkpt lat="43.16711302" lon="-2.51811588">
<ele>406.300</ele>
<time>2012-05-02T10:53:00Z</time>
</trkpt>
<trkpt lat="43.16717702" lon="-2.51794788">
<ele>407.300</ele>
<time>2012-05-02T10:53:13Z</time>
</trkpt>
<trkpt lat="43.16720502" lon="-2.51787588">
<ele>406.800</ele>
<time>2012-05-02T10:53:18Z</time>
</trkpt>
<trkpt lat="43.16725902" lon="-2.51763088">
<ele>408.200</ele>
<time>2012-05-02T10:53:32Z</time>
</trkpt>
<trkpt lat="43.16738802" lon="-2.51740288">
<ele>408.200</ele>
<time>2012-05-02T10:53:51Z</time>
</trkpt>
<trkpt lat="43.16750002" lon="-2.51727888">
<ele>408.700</ele>
<time>2012-05-02T10:54:02Z</time>
</trkpt>
<trkpt lat="43.16756402" lon="-2.51720188">
<ele>409.200</ele>
<time>2012-05-02T10:54:09Z</time>
</trkpt>
<trkpt lat="43.16758902" lon="-2.51713388">
<ele>409.200</ele>
<time>2012-05-02T10:54:14Z</time>
</trkpt>
<trkpt lat="43.16768102" lon="-2.51704688">
<ele>409.200</ele>
<time>2012-05-02T10:54:23Z</time>
</trkpt>
<trkpt lat="43.16780702" lon="-2.51689188">
<ele>409.700</ele>
<time>2012-05-02T10:54:37Z</time>
</trkpt>
<trkpt lat="43.16789002" lon="-2.51669588">
<ele>409.200</ele>
<time>2012-05-02T10:54:50Z</time>
</trkpt>
<trkpt lat="43.16790902" lon="-2.51658388">
<ele>409.200</ele>
<time>2012-05-02T10:54:55Z</time>
</trkpt>
<trkpt lat="43.16800302" lon="-2.51629688">
<ele>409.200</ele>
<time>2012-05-02T10:55:09Z</time>
</trkpt>
<trkpt lat="43.16805902" lon="-2.51605488">
<ele>409.700</ele>
<time>2012-05-02T10:55:23Z</time>
</trkpt>
<trkpt lat="43.16806702" lon="-2.51586788">
<ele>410.600</ele>
<time>2012-05-02T10:55:37Z</time>
</trkpt>
<trkpt lat="43.16808002" lon="-2.51566888">
<ele>412.100</ele>
<time>2012-05-02T10:55:51Z</time>
</trkpt>
<trkpt lat="43.16809102" lon="-2.51547988">
<ele>414.000</ele>
<time>2012-05-02T10:56:04Z</time>
</trkpt>
<trkpt lat="43.16809402" lon="-2.51527988">
<ele>414.900</ele>
<time>2012-05-02T10:56:15Z</time>
</trkpt>
<trkpt lat="43.16811602" lon="-2.51503388">
<ele>414.900</ele>
<time>2012-05-02T10:56:28Z</time>
</trkpt>
<trkpt lat="43.16814702" lon="-2.51491388">
<ele>414.500</ele>
<time>2012-05-02T10:56:36Z</time>
</trkpt>
<trkpt lat="43.16816802" lon="-2.51485888">
<ele>414.500</ele>
<time>2012-05-02T10:56:40Z</time>
</trkpt>
<trkpt lat="43.16816202" lon="-2.51463588">
<ele>414.900</ele>
<time>2012-05-02T10:56:51Z</time>
</trkpt>
<trkpt lat="43.16819302" lon="-2.51438288">
<ele>414.900</ele>
<time>2012-05-02T10:57:05Z</time>
</trkpt>
<trkpt lat="43.16824702" lon="-2.51413188">
<ele>414.000</ele>
<time>2012-05-02T10:57:20Z</time>
</trkpt>
<trkpt lat="43.16832202" lon="-2.51377888">
<ele>413.500</ele>
<time>2012-05-02T10:57:39Z</time>
</trkpt>
<trkpt lat="43.16832802" lon="-2.51349188">
<ele>413.500</ele>
<time>2012-05-02T10:57:57Z</time>
</trkpt>
<trkpt lat="43.16831502" lon="-2.51331688">
<ele>414.000</ele>
<time>2012-05-02T10:58:10Z</time>
</trkpt>
<trkpt lat="43.16829702" lon="-2.51315188">
<ele>414.900</ele>
<time>2012-05-02T10:58:21Z</time>
</trkpt>
<trkpt lat="43.16827602" lon="-2.51294988">
<ele>415.400</ele>
<time>2012-05-02T10:58:32Z</time>
</trkpt>
<trkpt lat="43.16819502" lon="-2.51269088">
<ele>417.800</ele>
<time>2012-05-02T10:58:51Z</time>
</trkpt>
<trkpt lat="43.16814002" lon="-2.51246588">
<ele>418.800</ele>
<time>2012-05-02T10:59:05Z</time>
</trkpt>
<trkpt lat="43.16809602" lon="-2.51220188">
<ele>420.200</ele>
<time>2012-05-02T10:59:21Z</time>
</trkpt>
<trkpt lat="43.16803202" lon="-2.51191588">
<ele>420.200</ele>
<time>2012-05-02T10:59:39Z</time>
</trkpt>
<trkpt lat="43.16794302" lon="-2.51169688">
<ele>420.700</ele>
<time>2012-05-02T10:59:56Z</time>
</trkpt>
<trkpt lat="43.16789302" lon="-2.51160188">
<ele>420.700</ele>
<time>2012-05-02T11:00:03Z</time>
</trkpt>
<trkpt lat="43.16771802" lon="-2.51145888">
<ele>422.600</ele>
<time>2012-05-02T11:00:20Z</time>
</trkpt>
<trkpt lat="43.16755002" lon="-2.51144088">
<ele>423.600</ele>
<time>2012-05-02T11:00:35Z</time>
</trkpt>
<trkpt lat="43.16739402" lon="-2.51133288">
<ele>425.500</ele>
<time>2012-05-02T11:00:51Z</time>
</trkpt>
<trkpt lat="43.16738602" lon="-2.51132088">
<ele>426.000</ele>
<time>2012-05-02T11:00:52Z</time>
</trkpt>
<trkpt lat="43.16722702" lon="-2.51115788">
<ele>427.400</ele>
<time>2012-05-02T11:01:09Z</time>
</trkpt>
<trkpt lat="43.16701702" lon="-2.51112788">
<ele>429.800</ele>
<time>2012-05-02T11:01:25Z</time>
</trkpt>
<trkpt lat="43.16686302" lon="-2.51109288">
<ele>429.800</ele>
<time>2012-05-02T11:01:41Z</time>
</trkpt>
<trkpt lat="43.16661902" lon="-2.51108288">
<ele>429.400</ele>
<time>2012-05-02T11:01:59Z</time>
</trkpt>
<trkpt lat="43.16644402" lon="-2.51112588">
<ele>428.400</ele>
<time>2012-05-02T11:02:15Z</time>
</trkpt>
<trkpt lat="43.16618602" lon="-2.51126788">
<ele>427.400</ele>
<time>2012-05-02T11:02:31Z</time>
</trkpt>
<trkpt lat="43.16599302" lon="-2.51130888">
<ele>427.000</ele>
<time>2012-05-02T11:02:44Z</time>
</trkpt>
<trkpt lat="43.16597502" lon="-2.51129888">
<ele>427.000</ele>
<time>2012-05-02T11:02:46Z</time>
</trkpt>
<trkpt lat="43.16584002" lon="-2.51117688">
<ele>428.400</ele>
<time>2012-05-02T11:03:05Z</time>
</trkpt>
<trkpt lat="43.16562102" lon="-2.51112588">
<ele>427.900</ele>
<time>2012-05-02T11:03:26Z</time>
</trkpt>
<trkpt lat="43.16534402" lon="-2.51120388">
<ele>428.400</ele>
<time>2012-05-02T11:03:45Z</time>
</trkpt>
<trkpt lat="43.16507002" lon="-2.51137488">
<ele>427.900</ele>
<time>2012-05-02T11:04:05Z</time>
</trkpt>
<trkpt lat="43.16490502" lon="-2.51151188">
<ele>427.400</ele>
<time>2012-05-02T11:04:23Z</time>
</trkpt>
<trkpt lat="43.16478402" lon="-2.51159588">
<ele>427.000</ele>
<time>2012-05-02T11:04:40Z</time>
</trkpt>
<trkpt lat="43.16461002" lon="-2.51162288">
<ele>427.000</ele>
<time>2012-05-02T11:04:56Z</time>
</trkpt>
<trkpt lat="43.16455202" lon="-2.51162188">
<ele>426.500</ele>
<time>2012-05-02T11:04:59Z</time>
</trkpt>
<trkpt lat="43.16436002" lon="-2.51145888">
<ele>423.600</ele>
<time>2012-05-02T11:05:18Z</time>
</trkpt>
<trkpt lat="43.16414502" lon="-2.51152188">
<ele>423.600</ele>
<time>2012-05-02T11:05:33Z</time>
</trkpt>
<trkpt lat="43.16392102" lon="-2.51170588">
<ele>423.100</ele>
<time>2012-05-02T11:05:53Z</time>
</trkpt>
<trkpt lat="43.16380402" lon="-2.51179988">
<ele>419.800</ele>
<time>2012-05-02T11:06:02Z</time>
</trkpt>
<trkpt lat="43.16360502" lon="-2.51200288">
<ele>419.800</ele>
<time>2012-05-02T11:06:22Z</time>
</trkpt>
<trkpt lat="43.16352902" lon="-2.51212688">
<ele>418.800</ele>
<time>2012-05-02T11:06:40Z</time>
</trkpt>
<trkpt lat="43.16351102" lon="-2.51211788">
<ele>419.300</ele>
<time>2012-05-02T11:07:43Z</time>
</trkpt>
<trkpt lat="43.16347202" lon="-2.51212988">
<ele>418.800</ele>
<time>2012-05-02T11:08:02Z</time>
</trkpt>
<trkpt lat="43.16334802" lon="-2.51229488">
<ele>418.300</ele>
<time>2012-05-02T11:08:20Z</time>
</trkpt>
<trkpt lat="43.16323302" lon="-2.51240488">
<ele>417.800</ele>
<time>2012-05-02T11:08:32Z</time>
</trkpt>
<trkpt lat="43.16299302" lon="-2.51260788">
<ele>416.400</ele>
<time>2012-05-02T11:08:55Z</time>
</trkpt>
<trkpt lat="43.16279502" lon="-2.51275488">
<ele>414.000</ele>
<time>2012-05-02T11:09:15Z</time>
</trkpt>
<trkpt lat="43.16258202" lon="-2.51293888">
<ele>411.100</ele>
<time>2012-05-02T11:09:39Z</time>
</trkpt>
<trkpt lat="43.16239902" lon="-2.51305388">
<ele>411.100</ele>
<time>2012-05-02T11:09:57Z</time>
</trkpt>
<trkpt lat="43.16232402" lon="-2.51306588">
<ele>408.700</ele>
<time>2012-05-02T11:10:07Z</time>
</trkpt>
<trkpt lat="43.16220502" lon="-2.51307088">
<ele>405.800</ele>
<time>2012-05-02T11:10:22Z</time>
</trkpt>
<trkpt lat="43.16213302" lon="-2.51308588">
<ele>405.800</ele>
<time>2012-05-02T11:10:35Z</time>
</trkpt>
<trkpt lat="43.16210202" lon="-2.51308388">
<ele>404.900</ele>
<time>2012-05-02T11:10:38Z</time>
</trkpt>
<trkpt lat="43.16203502" lon="-2.51307188">
<ele>402.400</ele>
<time>2012-05-02T11:10:49Z</time>
</trkpt>
<trkpt lat="43.16194602" lon="-2.51308188">
<ele>401.500</ele>
<time>2012-05-02T11:10:59Z</time>
</trkpt>
<trkpt lat="43.16181702" lon="-2.51309888">
<ele>398.600</ele>
<time>2012-05-02T11:11:16Z</time>
</trkpt>
<trkpt lat="43.16175002" lon="-2.51308088">
<ele>397.200</ele>
<time>2012-05-02T11:11:30Z</time>
</trkpt>
<trkpt lat="43.16162202" lon="-2.51309388">
<ele>395.700</ele>
<time>2012-05-02T11:11:43Z</time>
</trkpt>
<trkpt lat="43.16155102" lon="-2.51312488">
<ele>392.800</ele>
<time>2012-05-02T11:11:58Z</time>
</trkpt>
<trkpt lat="43.16145502" lon="-2.51312488">
<ele>390.000</ele>
<time>2012-05-02T11:12:12Z</time>
</trkpt>
<trkpt lat="43.16136202" lon="-2.51305988">
<ele>389.000</ele>
<time>2012-05-02T11:12:24Z</time>
</trkpt>
<trkpt lat="43.16138202" lon="-2.51291088">
<ele>388.500</ele>
<time>2012-05-02T11:12:37Z</time>
</trkpt>
<trkpt lat="43.16142402" lon="-2.51276888">
<ele>386.100</ele>
<time>2012-05-02T11:12:50Z</time>
</trkpt>
<trkpt lat="43.16147102" lon="-2.51265688">
<ele>383.700</ele>
<time>2012-05-02T11:13:01Z</time>
</trkpt>
<trkpt lat="43.16154602" lon="-2.51253388">
<ele>381.300</ele>
<time>2012-05-02T11:13:15Z</time>
</trkpt>
<trkpt lat="43.16161502" lon="-2.51248088">
<ele>378.900</ele>
<time>2012-05-02T11:13:24Z</time>
</trkpt>
<trkpt lat="43.16167602" lon="-2.51231388">
<ele>377.000</ele>
<time>2012-05-02T11:13:38Z</time>
</trkpt>
<trkpt lat="43.16172902" lon="-2.51215288">
<ele>374.600</ele>
<time>2012-05-02T11:13:53Z</time>
</trkpt>
<trkpt lat="43.16173102" lon="-2.51214488">
<ele>374.600</ele>
<time>2012-05-02T11:13:54Z</time>
</trkpt>
<trkpt lat="43.16174402" lon="-2.51198488">
<ele>372.600</ele>
<time>2012-05-02T11:14:06Z</time>
</trkpt>
<trkpt lat="43.16177302" lon="-2.51183488">
<ele>370.200</ele>
<time>2012-05-02T11:14:21Z</time>
</trkpt>
<trkpt lat="43.16181202" lon="-2.51172188">
<ele>368.800</ele>
<time>2012-05-02T11:14:34Z</time>
</trkpt>
<trkpt lat="43.16191202" lon="-2.51161888">
<ele>367.400</ele>
<time>2012-05-02T11:14:50Z</time>
</trkpt>
<trkpt lat="43.16198302" lon="-2.51153488">
<ele>365.400</ele>
<time>2012-05-02T11:15:05Z</time>
</trkpt>
<trkpt lat="43.16207402" lon="-2.51152188">
<ele>364.000</ele>
<time>2012-05-02T11:15:16Z</time>
</trkpt>
<trkpt lat="43.16219802" lon="-2.51146588">
<ele>362.100</ele>
<time>2012-05-02T11:15:33Z</time>
</trkpt>
<trkpt lat="43.16210702" lon="-2.51147488">
<ele>360.200</ele>
<time>2012-05-02T11:15:46Z</time>
</trkpt>
<trkpt lat="43.16201702" lon="-2.51144288">
<ele>358.700</ele>
<time>2012-05-02T11:16:00Z</time>
</trkpt>
<trkpt lat="43.16194402" lon="-2.51142288">
<ele>357.300</ele>
<time>2012-05-02T11:16:15Z</time>
</trkpt>
<trkpt lat="43.16182302" lon="-2.51139788">
<ele>356.300</ele>
<time>2012-05-02T11:16:27Z</time>
</trkpt>
<trkpt lat="43.16172902" lon="-2.51141788">
<ele>356.300</ele>
<time>2012-05-02T11:16:38Z</time>
</trkpt>
<trkpt lat="43.16159502" lon="-2.51145488">
<ele>354.900</ele>
<time>2012-05-02T11:16:53Z</time>
</trkpt>
<trkpt lat="43.16145302" lon="-2.51151788">
<ele>353.900</ele>
<time>2012-05-02T11:17:07Z</time>
</trkpt>
<trkpt lat="43.16138302" lon="-2.51159488">
<ele>352.000</ele>
<time>2012-05-02T11:17:20Z</time>
</trkpt>
<trkpt lat="43.16130602" lon="-2.51164988">
<ele>350.100</ele>
<time>2012-05-02T11:17:33Z</time>
</trkpt>
<trkpt lat="43.16120002" lon="-2.51167788">
<ele>348.600</ele>
<time>2012-05-02T11:17:45Z</time>
</trkpt>
<trkpt lat="43.16110002" lon="-2.51177988">
<ele>345.300</ele>
<time>2012-05-02T11:18:05Z</time>
</trkpt>
<trkpt lat="43.16102302" lon="-2.51190788">
<ele>343.800</ele>
<time>2012-05-02T11:18:19Z</time>
</trkpt>
<trkpt lat="43.16098302" lon="-2.51186888">
<ele>342.400</ele>
<time>2012-05-02T11:18:32Z</time>
</trkpt>
<trkpt lat="43.16102902" lon="-2.51169388">
<ele>342.400</ele>
<time>2012-05-02T11:18:45Z</time>
</trkpt>
<trkpt lat="43.16104702" lon="-2.51155488">
<ele>340.400</ele>
<time>2012-05-02T11:18:56Z</time>
</trkpt>
<trkpt lat="43.16109002" lon="-2.51141388">
<ele>337.600</ele>
<time>2012-05-02T11:19:11Z</time>
</trkpt>
<trkpt lat="43.16111102" lon="-2.51137488">
<ele>335.600</ele>
<time>2012-05-02T11:19:17Z</time>
</trkpt>
<trkpt lat="43.16118302" lon="-2.51128288">
<ele>332.800</ele>
<time>2012-05-02T11:19:30Z</time>
</trkpt>
<trkpt lat="43.16125902" lon="-2.51114288">
<ele>329.900</ele>
<time>2012-05-02T11:19:44Z</time>
</trkpt>
<trkpt lat="43.16134202" lon="-2.51105088">
<ele>330.400</ele>
<time>2012-05-02T11:19:58Z</time>
</trkpt>
<trkpt lat="43.16144202" lon="-2.51104788">
<ele>332.300</ele>
<time>2012-05-02T11:20:10Z</time>
</trkpt>
<trkpt lat="43.16155102" lon="-2.51099788">
<ele>334.200</ele>
<time>2012-05-02T11:20:22Z</time>
</trkpt>
<trkpt lat="43.16160502" lon="-2.51097088">
<ele>334.700</ele>
<time>2012-05-02T11:20:28Z</time>
</trkpt>
<trkpt lat="43.16166502" lon="-2.51095388">
<ele>334.200</ele>
<time>2012-05-02T11:20:33Z</time>
</trkpt>
<trkpt lat="43.16173902" lon="-2.51092788">
<ele>334.200</ele>
<time>2012-05-02T11:20:40Z</time>
</trkpt>
<trkpt lat="43.16186502" lon="-2.51089288">
<ele>333.200</ele>
<time>2012-05-02T11:20:51Z</time>
</trkpt>
<trkpt lat="43.16199302" lon="-2.51083688">
<ele>331.800</ele>
<time>2012-05-02T11:21:04Z</time>
</trkpt>
<trkpt lat="43.16211802" lon="-2.51071088">
<ele>330.400</ele>
<time>2012-05-02T11:21:18Z</time>
</trkpt>
<trkpt lat="43.16228102" lon="-2.51052088">
<ele>328.400</ele>
<time>2012-05-02T11:21:35Z</time>
</trkpt>
<trkpt lat="43.16233302" lon="-2.51050488">
<ele>328.400</ele>
<time>2012-05-02T11:21:40Z</time>
</trkpt>
<trkpt lat="43.16246202" lon="-2.51059488">
<ele>327.000</ele>
<time>2012-05-02T11:21:54Z</time>
</trkpt>
<trkpt lat="43.16251802" lon="-2.51053888">
<ele>325.100</ele>
<time>2012-05-02T11:22:02Z</time>
</trkpt>
<trkpt lat="43.16248502" lon="-2.51051188">
<ele>324.600</ele>
<time>2012-05-02T11:22:06Z</time>
</trkpt>
<trkpt lat="43.16233302" lon="-2.51041688">
<ele>323.600</ele>
<time>2012-05-02T11:22:20Z</time>
</trkpt>
<trkpt lat="43.16218702" lon="-2.51040188">
<ele>321.200</ele>
<time>2012-05-02T11:22:32Z</time>
</trkpt>
<trkpt lat="43.16204402" lon="-2.51047288">
<ele>320.700</ele>
<time>2012-05-02T11:22:47Z</time>
</trkpt>
<trkpt lat="43.16198102" lon="-2.51046188">
<ele>321.200</ele>
<time>2012-05-02T11:22:51Z</time>
</trkpt>
<trkpt lat="43.16187002" lon="-2.51038488">
<ele>322.200</ele>
<time>2012-05-02T11:23:01Z</time>
</trkpt>
<trkpt lat="43.16185702" lon="-2.51035388">
<ele>322.200</ele>
<time>2012-05-02T11:23:22Z</time>
</trkpt>
<trkpt lat="43.16185302" lon="-2.51025188">
<ele>323.100</ele>
<time>2012-05-02T11:23:33Z</time>
</trkpt>
<trkpt lat="43.16182802" lon="-2.50986888">
<ele>321.700</ele>
<time>2012-05-02T11:23:59Z</time>
</trkpt>
<trkpt lat="43.16183302" lon="-2.50975788">
<ele>321.700</ele>
<time>2012-05-02T11:24:06Z</time>
</trkpt>
<trkpt lat="43.16181302" lon="-2.50971488">
<ele>322.200</ele>
<time>2012-05-02T11:24:17Z</time>
</trkpt>
<trkpt lat="43.16180402" lon="-2.50968988">
<ele>321.700</ele>
<time>2012-05-02T11:24:48Z</time>
</trkpt>
<trkpt lat="43.16181202" lon="-2.50961388">
<ele>322.200</ele>
<time>2012-05-02T11:24:53Z</time>
</trkpt>
<trkpt lat="43.16179002" lon="-2.50922388">
<ele>321.200</ele>
<time>2012-05-02T11:25:17Z</time>
</trkpt>
<trkpt lat="43.16176402" lon="-2.50891288">
<ele>321.200</ele>
<time>2012-05-02T11:25:36Z</time>
</trkpt>
<trkpt lat="43.16175102" lon="-2.50874688">
<ele>321.200</ele>
<time>2012-05-02T11:25:47Z</time>
</trkpt>
<trkpt lat="43.16174202" lon="-2.50846588">
<ele>320.700</ele>
<time>2012-05-02T11:26:04Z</time>
</trkpt>
<trkpt lat="43.16173702" lon="-2.50832788">
<ele>320.700</ele>
<time>2012-05-02T11:26:13Z</time>
</trkpt>
<trkpt lat="43.16177902" lon="-2.50829688">
<ele>320.700</ele>
<time>2012-05-02T11:26:31Z</time>
</trkpt>
<trkpt lat="43.16179402" lon="-2.50828188">
<ele>321.200</ele>
<time>2012-05-02T11:27:03Z</time>
</trkpt>
<trkpt lat="43.16177802" lon="-2.50827988">
<ele>321.200</ele>
<time>2012-05-02T11:27:26Z</time>
</trkpt>
<trkpt lat="43.16179102" lon="-2.50830088">
<ele>320.300</ele>
<time>2012-05-02T11:28:15Z</time>
</trkpt>
<trkpt lat="43.16177102" lon="-2.50827188">
<ele>320.300</ele>
<time>2012-05-02T11:28:38Z</time>
</trkpt>
<trkpt lat="43.16177502" lon="-2.50817188">
<ele>319.800</ele>
<time>2012-05-02T11:28:51Z</time>
</trkpt>
<trkpt lat="43.16171002" lon="-2.50814088">
<ele>319.800</ele>
<time>2012-05-02T11:29:01Z</time>
</trkpt>
<trkpt lat="43.16151002" lon="-2.50833188">
<ele>320.700</ele>
<time>2012-05-02T11:29:22Z</time>
</trkpt>
<trkpt lat="43.16144502" lon="-2.50839288">
<ele>320.700</ele>
<time>2012-05-02T11:29:29Z</time>
</trkpt>
<trkpt lat="43.16123502" lon="-2.50854288">
<ele>321.200</ele>
<time>2012-05-02T11:29:48Z</time>
</trkpt>
<trkpt lat="43.16111602" lon="-2.50855988">
<ele>321.700</ele>
<time>2012-05-02T11:30:06Z</time>
</trkpt>
<trkpt lat="43.16105802" lon="-2.50852488">
<ele>322.200</ele>
<time>2012-05-02T11:30:20Z</time>
</trkpt>
<trkpt lat="43.16092202" lon="-2.50845788">
<ele>322.200</ele>
<time>2012-05-02T11:30:36Z</time>
</trkpt>
<trkpt lat="43.16081502" lon="-2.50837788">
<ele>323.100</ele>
<time>2012-05-02T11:30:48Z</time>
</trkpt>
<trkpt lat="43.16065402" lon="-2.50827388">
<ele>326.000</ele>
<time>2012-05-02T11:31:09Z</time>
</trkpt>
<trkpt lat="43.16055802" lon="-2.50814688">
<ele>328.900</ele>
<time>2012-05-02T11:31:26Z</time>
</trkpt>
<trkpt lat="43.16047502" lon="-2.50803888">
<ele>329.900</ele>
<time>2012-05-02T11:31:39Z</time>
</trkpt>
<trkpt lat="43.16044102" lon="-2.50801388">
<ele>330.800</ele>
<time>2012-05-02T11:31:55Z</time>
</trkpt>
<trkpt lat="43.16041602" lon="-2.50796888">
<ele>331.300</ele>
<time>2012-05-02T11:32:00Z</time>
</trkpt>
<trkpt lat="43.16028002" lon="-2.50781188">
<ele>334.200</ele>
<time>2012-05-02T11:32:19Z</time>
</trkpt>
<trkpt lat="43.16017902" lon="-2.50768588">
<ele>336.600</ele>
<time>2012-05-02T11:32:35Z</time>
</trkpt>
<trkpt lat="43.16006302" lon="-2.50755088">
<ele>337.600</ele>
<time>2012-05-02T11:32:51Z</time>
</trkpt>
<trkpt lat="43.15992102" lon="-2.50736188">
<ele>338.500</ele>
<time>2012-05-02T11:33:11Z</time>
</trkpt>
<trkpt lat="43.15985502" lon="-2.50723688">
<ele>340.400</ele>
<time>2012-05-02T11:33:24Z</time>
</trkpt>
<trkpt lat="43.15983302" lon="-2.50710488">
<ele>343.300</ele>
<time>2012-05-02T11:33:39Z</time>
</trkpt>
<trkpt lat="43.15980202" lon="-2.50700288">
<ele>344.800</ele>
<time>2012-05-02T11:33:50Z</time>
</trkpt>
<trkpt lat="43.15974802" lon="-2.50690888">
<ele>345.700</ele>
<time>2012-05-02T11:33:59Z</time>
</trkpt>
<trkpt lat="43.15965602" lon="-2.50680788">
<ele>345.700</ele>
<time>2012-05-02T11:34:11Z</time>
</trkpt>
<trkpt lat="43.15953402" lon="-2.50670888">
<ele>347.700</ele>
<time>2012-05-02T11:34:26Z</time>
</trkpt>
<trkpt lat="43.15942302" lon="-2.50658488">
<ele>350.100</ele>
<time>2012-05-02T11:34:44Z</time>
</trkpt>
<trkpt lat="43.15937102" lon="-2.50649388">
<ele>352.500</ele>
<time>2012-05-02T11:34:56Z</time>
</trkpt>
<trkpt lat="43.15927702" lon="-2.50631688">
<ele>353.900</ele>
<time>2012-05-02T11:35:10Z</time>
</trkpt>
<trkpt lat="43.15921002" lon="-2.50619788">
<ele>356.800</ele>
<time>2012-05-02T11:35:25Z</time>
</trkpt>
<trkpt lat="43.15917202" lon="-2.50609588">
<ele>359.700</ele>
<time>2012-05-02T11:35:38Z</time>
</trkpt>
<trkpt lat="43.15912202" lon="-2.50597188">
<ele>361.600</ele>
<time>2012-05-02T11:35:52Z</time>
</trkpt>
<trkpt lat="43.15905702" lon="-2.50583688">
<ele>363.500</ele>
<time>2012-05-02T11:36:08Z</time>
</trkpt>
<trkpt lat="43.15897302" lon="-2.50569488">
<ele>364.500</ele>
<time>2012-05-02T11:36:23Z</time>
</trkpt>
<trkpt lat="43.15888002" lon="-2.50555888">
<ele>365.900</ele>
<time>2012-05-02T11:36:37Z</time>
</trkpt>
<trkpt lat="43.15878202" lon="-2.50542188">
<ele>366.900</ele>
<time>2012-05-02T11:36:49Z</time>
</trkpt>
<trkpt lat="43.15873402" lon="-2.50533088">
<ele>367.400</ele>
<time>2012-05-02T11:36:59Z</time>
</trkpt>
<trkpt lat="43.15869102" lon="-2.50521688">
<ele>367.800</ele>
<time>2012-05-02T11:37:12Z</time>
</trkpt>
<trkpt lat="43.15866402" lon="-2.50510688">
<ele>369.800</ele>
<time>2012-05-02T11:37:39Z</time>
</trkpt>
<trkpt lat="43.15865602" lon="-2.50497788">
<ele>370.700</ele>
<time>2012-05-02T11:37:54Z</time>
</trkpt>
<trkpt lat="43.15866202" lon="-2.50487188">
<ele>373.600</ele>
<time>2012-05-02T11:38:10Z</time>
</trkpt>
<trkpt lat="43.15863902" lon="-2.50470888">
<ele>376.500</ele>
<time>2012-05-02T11:38:26Z</time>
</trkpt>
<trkpt lat="43.15861602" lon="-2.50457488">
<ele>378.900</ele>
<time>2012-05-02T11:38:44Z</time>
</trkpt>
<trkpt lat="43.15860602" lon="-2.50445188">
<ele>381.800</ele>
<time>2012-05-02T11:38:59Z</time>
</trkpt>
<trkpt lat="43.15861202" lon="-2.50436788">
<ele>383.200</ele>
<time>2012-05-02T11:39:10Z</time>
</trkpt>
<trkpt lat="43.15859402" lon="-2.50428088">
<ele>385.100</ele>
<time>2012-05-02T11:39:23Z</time>
</trkpt>
<trkpt lat="43.15860202" lon="-2.50425788">
<ele>384.700</ele>
<time>2012-05-02T11:39:52Z</time>
</trkpt>
<trkpt lat="43.15861802" lon="-2.50411688">
<ele>388.000</ele>
<time>2012-05-02T11:40:05Z</time>
</trkpt>
<trkpt lat="43.15864402" lon="-2.50397988">
<ele>389.500</ele>
<time>2012-05-02T11:40:21Z</time>
</trkpt>
<trkpt lat="43.15864102" lon="-2.50386688">
<ele>391.900</ele>
<time>2012-05-02T11:40:34Z</time>
</trkpt>
<trkpt lat="43.15863802" lon="-2.50370888">
<ele>393.300</ele>
<time>2012-05-02T11:40:49Z</time>
</trkpt>
<trkpt lat="43.15864902" lon="-2.50361588">
<ele>395.200</ele>
<time>2012-05-02T11:41:01Z</time>
</trkpt>
<trkpt lat="43.15865202" lon="-2.50344988">
<ele>397.200</ele>
<time>2012-05-02T11:41:18Z</time>
</trkpt>
<trkpt lat="43.15863602" lon="-2.50329688">
<ele>397.600</ele>
<time>2012-05-02T11:41:29Z</time>
</trkpt>
<trkpt lat="43.15867902" lon="-2.50320888">
<ele>400.000</ele>
<time>2012-05-02T11:41:43Z</time>
</trkpt>
<trkpt lat="43.15874302" lon="-2.50311088">
<ele>402.000</ele>
<time>2012-05-02T11:42:00Z</time>
</trkpt>
<trkpt lat="43.15877202" lon="-2.50304188">
<ele>404.400</ele>
<time>2012-05-02T11:42:15Z</time>
</trkpt>
<trkpt lat="43.15878802" lon="-2.50299888">
<ele>404.400</ele>
<time>2012-05-02T11:42:36Z</time>
</trkpt>
<trkpt lat="43.15881702" lon="-2.50304988">
<ele>404.900</ele>
<time>2012-05-02T11:42:49Z</time>
</trkpt>
<trkpt lat="43.15879602" lon="-2.50298388">
<ele>404.400</ele>
<time>2012-05-02T11:43:15Z</time>
</trkpt>
<trkpt lat="43.15881502" lon="-2.50297288">
<ele>404.900</ele>
<time>2012-05-02T11:43:34Z</time>
</trkpt>
<trkpt lat="43.15876302" lon="-2.50293688">
<ele>405.800</ele>
<time>2012-05-02T11:43:50Z</time>
</trkpt>
<trkpt lat="43.15870502" lon="-2.50284888">
<ele>408.200</ele>
<time>2012-05-02T11:44:05Z</time>
</trkpt>
<trkpt lat="43.15860302" lon="-2.50279788">
<ele>410.600</ele>
<time>2012-05-02T11:44:21Z</time>
</trkpt>
<trkpt lat="43.15848702" lon="-2.50270788">
<ele>413.000</ele>
<time>2012-05-02T11:44:39Z</time>
</trkpt>
<trkpt lat="43.15843402" lon="-2.50258988">
<ele>416.400</ele>
<time>2012-05-02T11:44:56Z</time>
</trkpt>
<trkpt lat="43.15840902" lon="-2.50250188">
<ele>418.300</ele>
<time>2012-05-02T11:45:11Z</time>
</trkpt>
<trkpt lat="43.15838002" lon="-2.50239688">
<ele>421.200</ele>
<time>2012-05-02T11:45:28Z</time>
</trkpt>
<trkpt lat="43.15835202" lon="-2.50228488">
<ele>423.100</ele>
<time>2012-05-02T11:45:44Z</time>
</trkpt>
<trkpt lat="43.15833002" lon="-2.50219088">
<ele>425.500</ele>
<time>2012-05-02T11:45:58Z</time>
</trkpt>
<trkpt lat="43.15830102" lon="-2.50208288">
<ele>427.400</ele>
<time>2012-05-02T11:46:15Z</time>
</trkpt>
<trkpt lat="43.15829702" lon="-2.50197588">
<ele>428.900</ele>
<time>2012-05-02T11:46:31Z</time>
</trkpt>
<trkpt lat="43.15829602" lon="-2.50196188">
<ele>430.800</ele>
<time>2012-05-02T11:46:33Z</time>
</trkpt>
<trkpt lat="43.15828802" lon="-2.50185488">
<ele>432.700</ele>
<time>2012-05-02T11:46:50Z</time>
</trkpt>
<trkpt lat="43.15827602" lon="-2.50178088">
<ele>434.200</ele>
<time>2012-05-02T11:47:04Z</time>
</trkpt>
<trkpt lat="43.15828902" lon="-2.50167288">
<ele>435.600</ele>
<time>2012-05-02T11:47:20Z</time>
</trkpt>
<trkpt lat="43.15830102" lon="-2.50156588">
<ele>438.000</ele>
<time>2012-05-02T11:47:36Z</time>
</trkpt>
<trkpt lat="43.15829402" lon="-2.50143688">
<ele>439.900</ele>
<time>2012-05-02T11:48:09Z</time>
</trkpt>
<trkpt lat="43.15829602" lon="-2.50129288">
<ele>442.800</ele>
<time>2012-05-02T11:48:26Z</time>
</trkpt>
<trkpt lat="43.15828102" lon="-2.50117788">
<ele>443.300</ele>
<time>2012-05-02T11:48:37Z</time>
</trkpt>
<trkpt lat="43.15827602" lon="-2.50095588">
<ele>443.300</ele>
<time>2012-05-02T11:48:58Z</time>
</trkpt>
<trkpt lat="43.15826702" lon="-2.50094288">
<ele>443.300</ele>
<time>2012-05-02T11:49:20Z</time>
</trkpt>
<trkpt lat="43.15828302" lon="-2.50079488">
<ele>444.300</ele>
<time>2012-05-02T11:49:39Z</time>
</trkpt>
<trkpt lat="43.15829602" lon="-2.50066988">
<ele>446.200</ele>
<time>2012-05-02T11:49:55Z</time>
</trkpt>
<trkpt lat="43.15829102" lon="-2.50057388">
<ele>448.100</ele>
<time>2012-05-02T11:50:08Z</time>
</trkpt>
<trkpt lat="43.15830602" lon="-2.50045888">
<ele>451.000</ele>
<time>2012-05-02T11:50:22Z</time>
</trkpt>
<trkpt lat="43.15831502" lon="-2.50035388">
<ele>453.400</ele>
<time>2012-05-02T11:50:37Z</time>
</trkpt>
<trkpt lat="43.15834402" lon="-2.50020688">
<ele>454.800</ele>
<time>2012-05-02T11:50:53Z</time>
</trkpt>
<trkpt lat="43.15837002" lon="-2.50011288">
<ele>456.300</ele>
<time>2012-05-02T11:51:09Z</time>
</trkpt>
<trkpt lat="43.15842102" lon="-2.50010488">
<ele>457.700</ele>
<time>2012-05-02T11:51:24Z</time>
</trkpt>
<trkpt lat="43.15844402" lon="-2.50019688">
<ele>458.700</ele>
<time>2012-05-02T11:51:45Z</time>
</trkpt>
<trkpt lat="43.15846202" lon="-2.50026088">
<ele>461.600</ele>
<time>2012-05-02T11:51:56Z</time>
</trkpt>
<trkpt lat="43.15849002" lon="-2.50035088">
<ele>464.000</ele>
<time>2012-05-02T11:52:12Z</time>
</trkpt>
<trkpt lat="43.15852202" lon="-2.50041988">
<ele>465.400</ele>
<time>2012-05-02T11:52:24Z</time>
</trkpt>
<trkpt lat="43.15852802" lon="-2.50047988">
<ele>467.300</ele>
<time>2012-05-02T11:52:40Z</time>
</trkpt>
<trkpt lat="43.15857302" lon="-2.50051888">
<ele>468.800</ele>
<time>2012-05-02T11:53:41Z</time>
</trkpt>
<trkpt lat="43.15865402" lon="-2.50061588">
<ele>471.200</ele>
<time>2012-05-02T11:53:57Z</time>
</trkpt>
<trkpt lat="43.15872802" lon="-2.50071788">
<ele>473.100</ele>
<time>2012-05-02T11:54:13Z</time>
</trkpt>
<trkpt lat="43.15877702" lon="-2.50083388">
<ele>474.500</ele>
<time>2012-05-02T11:54:30Z</time>
</trkpt>
<trkpt lat="43.15881002" lon="-2.50093488">
<ele>477.400</ele>
<time>2012-05-02T11:54:46Z</time>
</trkpt>
<trkpt lat="43.15885902" lon="-2.50101388">
<ele>478.900</ele>
<time>2012-05-02T11:55:01Z</time>
</trkpt>
<trkpt lat="43.15888302" lon="-2.50102788">
<ele>480.300</ele>
<time>2012-05-02T11:55:07Z</time>
</trkpt>
<trkpt lat="43.15894902" lon="-2.50108488">
<ele>482.700</ele>
<time>2012-05-02T11:55:23Z</time>
</trkpt>
<trkpt lat="43.15902002" lon="-2.50112488">
<ele>484.200</ele>
<time>2012-05-02T11:55:39Z</time>
</trkpt>
<trkpt lat="43.15909802" lon="-2.50117488">
<ele>486.100</ele>
<time>2012-05-02T11:55:56Z</time>
</trkpt>
<trkpt lat="43.15918202" lon="-2.50122388">
<ele>487.500</ele>
<time>2012-05-02T11:56:12Z</time>
</trkpt>
<trkpt lat="43.15926502" lon="-2.50129188">
<ele>489.000</ele>
<time>2012-05-02T11:56:29Z</time>
</trkpt>
<trkpt lat="43.15932902" lon="-2.50133788">
<ele>490.400</ele>
<time>2012-05-02T11:56:40Z</time>
</trkpt>
<trkpt lat="43.15943202" lon="-2.50139688">
<ele>492.300</ele>
<time>2012-05-02T11:56:55Z</time>
</trkpt>
<trkpt lat="43.15953102" lon="-2.50148088">
<ele>493.800</ele>
<time>2012-05-02T11:57:12Z</time>
</trkpt>
<trkpt lat="43.15964302" lon="-2.50158588">
<ele>495.200</ele>
<time>2012-05-02T11:57:33Z</time>
</trkpt>
<trkpt lat="43.15973002" lon="-2.50167588">
<ele>497.100</ele>
<time>2012-05-02T11:57:49Z</time>
</trkpt>
<trkpt lat="43.15983202" lon="-2.50179688">
<ele>498.600</ele>
<time>2012-05-02T11:58:08Z</time>
</trkpt>
<trkpt lat="43.15990602" lon="-2.50187388">
<ele>501.900</ele>
<time>2012-05-02T11:58:23Z</time>
</trkpt>
<trkpt lat="43.15998302" lon="-2.50194788">
<ele>502.900</ele>
<time>2012-05-02T11:58:38Z</time>
</trkpt>
<trkpt lat="43.16009102" lon="-2.50200588">
<ele>504.800</ele>
<time>2012-05-02T11:58:55Z</time>
</trkpt>
<trkpt lat="43.16017302" lon="-2.50198988">
<ele>506.300</ele>
<time>2012-05-02T11:59:15Z</time>
</trkpt>
<trkpt lat="43.16018902" lon="-2.50189988">
<ele>507.200</ele>
<time>2012-05-02T11:59:35Z</time>
</trkpt>
<trkpt lat="43.16016102" lon="-2.50186488">
<ele>508.700</ele>
<time>2012-05-02T11:59:41Z</time>
</trkpt>
<trkpt lat="43.16013102" lon="-2.50182388">
<ele>509.600</ele>
<time>2012-05-02T11:59:59Z</time>
</trkpt>
<trkpt lat="43.16007802" lon="-2.50167988">
<ele>510.100</ele>
<time>2012-05-02T12:00:31Z</time>
</trkpt>
<trkpt lat="43.16003102" lon="-2.50150588">
<ele>513.000</ele>
<time>2012-05-02T12:00:50Z</time>
</trkpt>
<trkpt lat="43.15996802" lon="-2.50135088">
<ele>514.900</ele>
<time>2012-05-02T12:01:08Z</time>
</trkpt>
<trkpt lat="43.15992002" lon="-2.50120888">
<ele>516.800</ele>
<time>2012-05-02T12:01:25Z</time>
</trkpt>
<trkpt lat="43.15985402" lon="-2.50107188">
<ele>519.200</ele>
<time>2012-05-02T12:01:43Z</time>
</trkpt>
<trkpt lat="43.15979502" lon="-2.50094088">
<ele>521.200</ele>
<time>2012-05-02T12:02:00Z</time>
</trkpt>
<trkpt lat="43.15972402" lon="-2.50077488">
<ele>524.100</ele>
<time>2012-05-02T12:02:19Z</time>
</trkpt>
<trkpt lat="43.15966002" lon="-2.50060588">
<ele>525.000</ele>
<time>2012-05-02T12:02:38Z</time>
</trkpt>
<trkpt lat="43.15961802" lon="-2.50049088">
<ele>525.500</ele>
<time>2012-05-02T12:02:50Z</time>
</trkpt>
<trkpt lat="43.15957502" lon="-2.50032888">
<ele>526.500</ele>
<time>2012-05-02T12:03:06Z</time>
</trkpt>
<trkpt lat="43.15955102" lon="-2.50017988">
<ele>529.300</ele>
<time>2012-05-02T12:03:23Z</time>
</trkpt>
<trkpt lat="43.15952902" lon="-2.50000688">
<ele>529.800</ele>
<time>2012-05-02T12:03:41Z</time>
</trkpt>
<trkpt lat="43.15950602" lon="-2.49982588">
<ele>531.300</ele>
<time>2012-05-02T12:04:00Z</time>
</trkpt>
<trkpt lat="43.15949402" lon="-2.49970288">
<ele>533.700</ele>
<time>2012-05-02T12:04:16Z</time>
</trkpt>
<trkpt lat="43.15949402" lon="-2.49958688">
<ele>536.100</ele>
<time>2012-05-02T12:04:31Z</time>
</trkpt>
<trkpt lat="43.15941602" lon="-2.49932888">
<ele>537.000</ele>
<time>2012-05-02T12:04:51Z</time>
</trkpt>
<trkpt lat="43.15932502" lon="-2.49915488">
<ele>538.000</ele>
<time>2012-05-02T12:05:07Z</time>
</trkpt>
<trkpt lat="43.15918102" lon="-2.49890488">
<ele>537.000</ele>
<time>2012-05-02T12:05:29Z</time>
</trkpt>
<trkpt lat="43.15905402" lon="-2.49863188">
<ele>537.000</ele>
<time>2012-05-02T12:05:51Z</time>
</trkpt>
<trkpt lat="43.15900102" lon="-2.49855488">
<ele>536.600</ele>
<time>2012-05-02T12:06:03Z</time>
</trkpt>
<trkpt lat="43.15903502" lon="-2.49854888">
<ele>535.600</ele>
<time>2012-05-02T12:06:34Z</time>
</trkpt>
<trkpt lat="43.15895002" lon="-2.49840488">
<ele>537.500</ele>
<time>2012-05-02T12:06:56Z</time>
</trkpt>
<trkpt lat="43.15875602" lon="-2.49823388">
<ele>536.600</ele>
<time>2012-05-02T12:07:16Z</time>
</trkpt>
<trkpt lat="43.15857802" lon="-2.49820788">
<ele>537.500</ele>
<time>2012-05-02T12:07:33Z</time>
</trkpt>
<trkpt lat="43.15837002" lon="-2.49816588">
<ele>539.400</ele>
<time>2012-05-02T12:07:52Z</time>
</trkpt>
<trkpt lat="43.15818902" lon="-2.49809188">
<ele>540.900</ele>
<time>2012-05-02T12:08:11Z</time>
</trkpt>
<trkpt lat="43.15808102" lon="-2.49802688">
<ele>541.400</ele>
<time>2012-05-02T12:08:28Z</time>
</trkpt>
<trkpt lat="43.15807502" lon="-2.49802288">
<ele>541.400</ele>
<time>2012-05-02T12:08:30Z</time>
</trkpt>
<trkpt lat="43.15806902" lon="-2.49801088">
<ele>541.400</ele>
<time>2012-05-02T12:08:49Z</time>
</trkpt>
<trkpt lat="43.15805902" lon="-2.49798788">
<ele>540.900</ele>
<time>2012-05-02T12:09:16Z</time>
</trkpt>
<trkpt lat="43.15806402" lon="-2.49797188">
<ele>541.400</ele>
<time>2012-05-02T12:10:06Z</time>
</trkpt>
<trkpt lat="43.15808702" lon="-2.49796188">
<ele>541.400</ele>
<time>2012-05-02T12:10:24Z</time>
</trkpt>
<trkpt lat="43.15810802" lon="-2.49796188">
<ele>541.400</ele>
<time>2012-05-02T12:10:51Z</time>
</trkpt>
<trkpt lat="43.15812302" lon="-2.49795288">
<ele>541.400</ele>
<time>2012-05-02T12:11:05Z</time>
</trkpt>
<trkpt lat="43.15816202" lon="-2.49794988">
<ele>542.800</ele>
<time>2012-05-02T12:11:13Z</time>
</trkpt>
<trkpt lat="43.15824502" lon="-2.49793788">
<ele>545.200</ele>
<time>2012-05-02T12:11:30Z</time>
</trkpt>
<trkpt lat="43.15831702" lon="-2.49792288">
<ele>547.100</ele>
<time>2012-05-02T12:11:47Z</time>
</trkpt>
<trkpt lat="43.15838402" lon="-2.49790688">
<ele>549.100</ele>
<time>2012-05-02T12:12:00Z</time>
</trkpt>
<trkpt lat="43.15846702" lon="-2.49786888">
<ele>550.500</ele>
<time>2012-05-02T12:12:14Z</time>
</trkpt>
<trkpt lat="43.15855102" lon="-2.49785488">
<ele>552.400</ele>
<time>2012-05-02T12:12:28Z</time>
</trkpt>
<trkpt lat="43.15864202" lon="-2.49782488">
<ele>553.400</ele>
<time>2012-05-02T12:12:47Z</time>
</trkpt>
<trkpt lat="43.15871702" lon="-2.49781388">
<ele>554.800</ele>
<time>2012-05-02T12:13:21Z</time>
</trkpt>
<trkpt lat="43.15880302" lon="-2.49781988">
<ele>556.300</ele>
<time>2012-05-02T12:13:36Z</time>
</trkpt>
<trkpt lat="43.15893202" lon="-2.49784988">
<ele>558.700</ele>
<time>2012-05-02T12:13:53Z</time>
</trkpt>
<trkpt lat="43.15906002" lon="-2.49789088">
<ele>560.100</ele>
<time>2012-05-02T12:14:07Z</time>
</trkpt>
<trkpt lat="43.15915102" lon="-2.49793788">
<ele>560.600</ele>
<time>2012-05-02T12:14:19Z</time>
</trkpt>
<trkpt lat="43.15924802" lon="-2.49800488">
<ele>562.500</ele>
<time>2012-05-02T12:14:34Z</time>
</trkpt>
<trkpt lat="43.15936502" lon="-2.49808688">
<ele>564.900</ele>
<time>2012-05-02T12:14:54Z</time>
</trkpt>
<trkpt lat="43.15944102" lon="-2.49816788">
<ele>567.300</ele>
<time>2012-05-02T12:15:10Z</time>
</trkpt>
<trkpt lat="43.15951002" lon="-2.49821588">
<ele>569.200</ele>
<time>2012-05-02T12:15:26Z</time>
</trkpt>
<trkpt lat="43.15960302" lon="-2.49831188">
<ele>572.100</ele>
<time>2012-05-02T12:15:45Z</time>
</trkpt>
<trkpt lat="43.15968102" lon="-2.49837388">
<ele>574.500</ele>
<time>2012-05-02T12:16:02Z</time>
</trkpt>
<trkpt lat="43.15972002" lon="-2.49840888">
<ele>574.500</ele>
<time>2012-05-02T12:16:34Z</time>
</trkpt>
<trkpt lat="43.15981402" lon="-2.49849188">
<ele>576.900</ele>
<time>2012-05-02T12:16:52Z</time>
</trkpt>
<trkpt lat="43.15982002" lon="-2.49851188">
<ele>578.400</ele>
<time>2012-05-02T12:17:11Z</time>
</trkpt>
<trkpt lat="43.15982902" lon="-2.49852388">
<ele>579.300</ele>
<time>2012-05-02T12:17:47Z</time>
</trkpt>
<trkpt lat="43.15992702" lon="-2.49851888">
<ele>581.300</ele>
<time>2012-05-02T12:18:02Z</time>
</trkpt>
<trkpt lat="43.15996402" lon="-2.49846588">
<ele>584.100</ele>
<time>2012-05-02T12:18:21Z</time>
</trkpt>
<trkpt lat="43.15999102" lon="-2.49837688">
<ele>586.100</ele>
<time>2012-05-02T12:18:36Z</time>
</trkpt>
<trkpt lat="43.16000902" lon="-2.49826588">
<ele>588.500</ele>
<time>2012-05-02T12:18:53Z</time>
</trkpt>
<trkpt lat="43.16001802" lon="-2.49813588">
<ele>590.400</ele>
<time>2012-05-02T12:19:09Z</time>
</trkpt>
<trkpt lat="43.16004402" lon="-2.49804788">
<ele>593.300</ele>
<time>2012-05-02T12:19:30Z</time>
</trkpt>
<trkpt lat="43.16004702" lon="-2.49799288">
<ele>594.700</ele>
<time>2012-05-02T12:19:43Z</time>
</trkpt>
<trkpt lat="43.16006402" lon="-2.49793088">
<ele>597.100</ele>
<time>2012-05-02T12:19:56Z</time>
</trkpt>
<trkpt lat="43.16007802" lon="-2.49786288">
<ele>599.500</ele>
<time>2012-05-02T12:20:11Z</time>
</trkpt>
<trkpt lat="43.16008302" lon="-2.49777388">
<ele>601.000</ele>
<time>2012-05-02T12:20:27Z</time>
</trkpt>
<trkpt lat="43.16009502" lon="-2.49772688">
<ele>601.900</ele>
<time>2012-05-02T12:20:49Z</time>
</trkpt>
<trkpt lat="43.16010802" lon="-2.49774388">
<ele>601.400</ele>
<time>2012-05-02T12:21:22Z</time>
</trkpt>
<trkpt lat="43.16013102" lon="-2.49769788">
<ele>602.400</ele>
<time>2012-05-02T12:21:45Z</time>
</trkpt>
<trkpt lat="43.16009202" lon="-2.49761388">
<ele>604.800</ele>
<time>2012-05-02T12:22:00Z</time>
</trkpt>
<trkpt lat="43.16004802" lon="-2.49751388">
<ele>606.700</ele>
<time>2012-05-02T12:22:16Z</time>
</trkpt>
<trkpt lat="43.16006902" lon="-2.49739888">
<ele>609.100</ele>
<time>2012-05-02T12:22:36Z</time>
</trkpt>
<trkpt lat="43.16005702" lon="-2.49730588">
<ele>611.500</ele>
<time>2012-05-02T12:22:51Z</time>
</trkpt>
<trkpt lat="43.16006402" lon="-2.49722288">
<ele>613.500</ele>
<time>2012-05-02T12:23:08Z</time>
</trkpt>
<trkpt lat="43.16004502" lon="-2.49717188">
<ele>614.900</ele>
<time>2012-05-02T12:23:25Z</time>
</trkpt>
<trkpt lat="43.16002502" lon="-2.49706488">
<ele>617.300</ele>
<time>2012-05-02T12:23:40Z</time>
</trkpt>
<trkpt lat="43.16002002" lon="-2.49698888">
<ele>618.700</ele>
<time>2012-05-02T12:24:01Z</time>
</trkpt>
<trkpt lat="43.16000002" lon="-2.49694288">
<ele>620.700</ele>
<time>2012-05-02T12:24:41Z</time>
</trkpt>
<trkpt lat="43.15998402" lon="-2.49684688">
<ele>623.600</ele>
<time>2012-05-02T12:24:59Z</time>
</trkpt>
<trkpt lat="43.15997202" lon="-2.49675488">
<ele>626.000</ele>
<time>2012-05-02T12:25:15Z</time>
</trkpt>
<trkpt lat="43.15996402" lon="-2.49664588">
<ele>628.400</ele>
<time>2012-05-02T12:25:33Z</time>
</trkpt>
<trkpt lat="43.15997102" lon="-2.49655188">
<ele>630.300</ele>
<time>2012-05-02T12:25:51Z</time>
</trkpt>
<trkpt lat="43.15996102" lon="-2.49651388">
<ele>632.200</ele>
<time>2012-05-02T12:26:45Z</time>
</trkpt>
<trkpt lat="43.15992102" lon="-2.49642488">
<ele>635.600</ele>
<time>2012-05-02T12:27:02Z</time>
</trkpt>
<trkpt lat="43.15991502" lon="-2.49631888">
<ele>638.000</ele>
<time>2012-05-02T12:27:19Z</time>
</trkpt>
<trkpt lat="43.15992902" lon="-2.49630988">
<ele>638.500</ele>
<time>2012-05-02T12:27:48Z</time>
</trkpt>
<trkpt lat="43.15989902" lon="-2.49617088">
<ele>641.300</ele>
<time>2012-05-02T12:28:06Z</time>
</trkpt>
<trkpt lat="43.15985802" lon="-2.49605088">
<ele>644.200</ele>
<time>2012-05-02T12:28:27Z</time>
</trkpt>
<trkpt lat="43.15986702" lon="-2.49594388">
<ele>646.600</ele>
<time>2012-05-02T12:28:42Z</time>
</trkpt>
<trkpt lat="43.15986702" lon="-2.49583888">
<ele>648.500</ele>
<time>2012-05-02T12:29:02Z</time>
</trkpt>
<trkpt lat="43.15983802" lon="-2.49578888">
<ele>649.500</ele>
<time>2012-05-02T12:29:40Z</time>
</trkpt>
<trkpt lat="43.15983902" lon="-2.49567788">
<ele>651.900</ele>
<time>2012-05-02T12:29:56Z</time>
</trkpt>
<trkpt lat="43.15984602" lon="-2.49560388">
<ele>653.400</ele>
<time>2012-05-02T12:30:13Z</time>
</trkpt>
<trkpt lat="43.15984002" lon="-2.49548888">
<ele>654.300</ele>
<time>2012-05-02T12:30:27Z</time>
</trkpt>
<trkpt lat="43.15986002" lon="-2.49531888">
<ele>656.200</ele>
<time>2012-05-02T12:30:44Z</time>
</trkpt>
<trkpt lat="43.15987002" lon="-2.49523088">
<ele>656.700</ele>
<time>2012-05-02T12:30:53Z</time>
</trkpt>
<trkpt lat="43.15988802" lon="-2.49501288">
<ele>656.700</ele>
<time>2012-05-02T12:31:10Z</time>
</trkpt>
<trkpt lat="43.15991302" lon="-2.49477188">
<ele>657.700</ele>
<time>2012-05-02T12:31:29Z</time>
</trkpt>
<trkpt lat="43.15992502" lon="-2.49465888">
<ele>657.700</ele>
<time>2012-05-02T12:31:37Z</time>
</trkpt>
<trkpt lat="43.15997902" lon="-2.49446988">
<ele>657.700</ele>
<time>2012-05-02T12:31:52Z</time>
</trkpt>
<trkpt lat="43.16000802" lon="-2.49426788">
<ele>658.600</ele>
<time>2012-05-02T12:32:10Z</time>
</trkpt>
<trkpt lat="43.16010002" lon="-2.49408388">
<ele>658.200</ele>
<time>2012-05-02T12:32:29Z</time>
</trkpt>
<trkpt lat="43.16018902" lon="-2.49389088">
<ele>656.700</ele>
<time>2012-05-02T12:32:47Z</time>
</trkpt>
<trkpt lat="43.16025902" lon="-2.49374888">
<ele>656.700</ele>
<time>2012-05-02T12:33:05Z</time>
</trkpt>
<trkpt lat="43.16031402" lon="-2.49368488">
<ele>657.700</ele>
<time>2010-08-07T11:41:02Z</time>
</trkpt>
<trkpt lat="43.16036302" lon="-2.49377988">
<ele>660.600</ele>
<time>2010-08-07T11:40:49Z</time>
</trkpt>
<trkpt lat="43.16038802" lon="-2.49385288">
<ele>662.000</ele>
<time>2010-08-07T11:40:44Z</time>
</trkpt>
<trkpt lat="43.16039902" lon="-2.49393588">
<ele>663.000</ele>
<time>2010-08-07T11:40:38Z</time>
</trkpt>
<trkpt lat="43.16044302" lon="-2.49406188">
<ele>666.800</ele>
<time>2010-08-07T11:40:23Z</time>
</trkpt>
<trkpt lat="43.16045402" lon="-2.49426388">
<ele>669.200</ele>
<time>2010-08-07T11:40:09Z</time>
</trkpt>
<trkpt lat="43.16051202" lon="-2.49443488">
<ele>664.900</ele>
<time>2010-08-07T11:39:56Z</time>
</trkpt>
<trkpt lat="43.16053602" lon="-2.49462888">
<ele>662.000</ele>
<time>2010-08-07T11:39:44Z</time>
</trkpt>
<trkpt lat="43.16053302" lon="-2.49476688">
<ele>658.200</ele>
<time>2010-08-07T11:39:34Z</time>
</trkpt>
<trkpt lat="43.16054902" lon="-2.49483188">
<ele>655.800</ele>
<time>2010-08-07T11:39:28Z</time>
</trkpt>
<trkpt lat="43.16057202" lon="-2.49491288">
<ele>653.400</ele>
<time>2010-08-07T11:39:21Z</time>
</trkpt>
<trkpt lat="43.16064502" lon="-2.49510088">
<ele>650.500</ele>
<time>2010-08-07T11:39:06Z</time>
</trkpt>
<trkpt lat="43.16066302" lon="-2.49515788">
<ele>650.500</ele>
<time>2010-08-07T11:39:02Z</time>
</trkpt>
<trkpt lat="43.16073902" lon="-2.49530488">
<ele>645.200</ele>
<time>2010-08-07T11:38:48Z</time>
</trkpt>
<trkpt lat="43.16087702" lon="-2.49549588">
<ele>638.000</ele>
<time>2010-08-07T11:38:33Z</time>
</trkpt>
<trkpt lat="43.16101702" lon="-2.49564088">
<ele>633.200</ele>
<time>2010-08-07T11:38:20Z</time>
</trkpt>
<trkpt lat="43.16113102" lon="-2.49573888">
<ele>632.200</ele>
<time>2010-08-07T11:38:08Z</time>
</trkpt>
<trkpt lat="43.16120702" lon="-2.49577988">
<ele>630.300</ele>
<time>2010-08-07T11:38:00Z</time>
</trkpt>
<trkpt lat="43.16133202" lon="-2.49588988">
<ele>632.700</ele>
<time>2010-08-07T11:37:48Z</time>
</trkpt>
<trkpt lat="43.16136702" lon="-2.49594088">
<ele>633.600</ele>
<time>2010-08-07T11:37:45Z</time>
</trkpt>
<trkpt lat="43.16148002" lon="-2.49602988">
<ele>636.000</ele>
<time>2010-08-07T11:37:34Z</time>
</trkpt>
<trkpt lat="43.16164002" lon="-2.49616788">
<ele>638.900</ele>
<time>2010-08-07T11:37:21Z</time>
</trkpt>
<trkpt lat="43.16181402" lon="-2.49629888">
<ele>641.300</ele>
<time>2010-08-07T11:37:04Z</time>
</trkpt>
<trkpt lat="43.16191102" lon="-2.49640488">
<ele>643.700</ele>
<time>2010-08-07T11:36:53Z</time>
</trkpt>
<trkpt lat="43.16200502" lon="-2.49645688">
<ele>646.100</ele>
<time>2010-08-07T11:36:42Z</time>
</trkpt>
<trkpt lat="43.16212302" lon="-2.49652088">
<ele>649.500</ele>
<time>2010-08-07T11:36:27Z</time>
</trkpt>
<trkpt lat="43.16218702" lon="-2.49663388">
<ele>647.100</ele>
<time>2011-01-30T12:14:21Z</time>
</trkpt>
<trkpt lat="43.16222402" lon="-2.49666088">
<ele>650.000</ele>
<time>2011-01-30T12:14:18Z</time>
</trkpt>
<trkpt lat="43.16227902" lon="-2.49669988">
<ele>651.400</ele>
<time>2011-01-30T12:14:12Z</time>
</trkpt>
<trkpt lat="43.16241402" lon="-2.49677188">
<ele>658.200</ele>
<time>2011-01-30T12:13:55Z</time>
</trkpt>
<trkpt lat="43.16254802" lon="-2.49689888">
<ele>663.400</ele>
<time>2011-01-30T12:13:40Z</time>
</trkpt>
<trkpt lat="43.16259902" lon="-2.49688088">
<ele>665.400</ele>
<time>2011-01-30T12:13:36Z</time>
</trkpt>
<trkpt lat="43.16267602" lon="-2.49684688">
<ele>667.300</ele>
<time>2011-01-30T12:13:30Z</time>
</trkpt>
<trkpt lat="43.16276802" lon="-2.49682188">
<ele>672.600</ele>
<time>2011-01-30T12:13:19Z</time>
</trkpt>
<trkpt lat="43.16286002" lon="-2.49669088">
<ele>673.500</ele>
<time>2011-01-30T12:13:05Z</time>
</trkpt>
<trkpt lat="43.16289302" lon="-2.49656088">
<ele>674.500</ele>
<time>2011-01-30T12:12:50Z</time>
</trkpt>
<trkpt lat="43.16292702" lon="-2.49649988">
<ele>674.500</ele>
<time>2011-01-30T12:12:45Z</time>
</trkpt>
<trkpt lat="43.16309502" lon="-2.49630788">
<ele>675.900</ele>
<time>2011-01-30T12:12:25Z</time>
</trkpt>
<trkpt lat="43.16314302" lon="-2.49628888">
<ele>676.400</ele>
<time>2011-01-30T12:12:20Z</time>
</trkpt>
<trkpt lat="43.16320102" lon="-2.49615788">
<ele>677.400</ele>
<time>2011-01-30T12:12:05Z</time>
</trkpt>
<trkpt lat="43.16312202" lon="-2.49608688">
<ele>678.300</ele>
<time>2011-01-30T12:11:51Z</time>
</trkpt>
<trkpt lat="43.16309202" lon="-2.49601988">
<ele>678.800</ele>
<time>2011-01-30T12:11:36Z</time>
</trkpt>
<trkpt lat="43.16308502" lon="-2.49595188">
<ele>678.800</ele>
<time>2011-01-30T12:11:20Z</time>
</trkpt>
<trkpt lat="43.16306602" lon="-2.49583788">
<ele>681.200</ele>
<time>2011-01-30T12:11:03Z</time>
</trkpt>
<trkpt lat="43.16301602" lon="-2.49578388">
<ele>685.100</ele>
<time>2011-01-30T12:10:50Z</time>
</trkpt>
<trkpt lat="43.16300802" lon="-2.49577888">
<ele>685.600</ele>
<time>2011-01-30T12:10:49Z</time>
</trkpt>
<trkpt lat="43.16292402" lon="-2.49571688">
<ele>690.800</ele>
<time>2011-01-30T12:10:35Z</time>
</trkpt>
<trkpt lat="43.16290602" lon="-2.49552688">
<ele>701.400</ele>
<time>2011-01-30T12:10:11Z</time>
</trkpt>
<trkpt lat="43.16289402" lon="-2.49550488">
<ele>701.900</ele>
<time>2011-01-30T12:10:09Z</time>
</trkpt>
<trkpt lat="43.16287402" lon="-2.49547488">
<ele>702.400</ele>
<time>2011-01-30T12:10:06Z</time>
</trkpt>
<trkpt lat="43.16284802" lon="-2.49538588">
<ele>705.300</ele>
<time>2011-01-30T12:09:58Z</time>
</trkpt>
<trkpt lat="43.16284702" lon="-2.49537588">
<ele>712.500</ele>
<time>2011-01-30T11:55:43Z</time>
</trkpt>
<trkpt lat="43.16274002" lon="-2.49532688">
<ele>716.800</ele>
<time>2011-01-30T11:55:22Z</time>
</trkpt>
<trkpt lat="43.16262402" lon="-2.49527288">
<ele>720.200</ele>
<time>2011-01-30T11:55:07Z</time>
</trkpt>
<trkpt lat="43.16251602" lon="-2.49521388">
<ele>722.100</ele>
<time>2011-01-30T11:54:53Z</time>
</trkpt>
<trkpt lat="43.16244202" lon="-2.49514888">
<ele>722.600</ele>
<time>2011-01-30T11:54:38Z</time>
</trkpt>
<trkpt lat="43.16238802" lon="-2.49503688">
<ele>721.600</ele>
<time>2011-01-30T11:54:19Z</time>
</trkpt>
<trkpt lat="43.16233702" lon="-2.49497988">
<ele>720.600</ele>
<time>2011-01-30T11:54:04Z</time>
</trkpt>
<trkpt lat="43.16231302" lon="-2.49494388">
<ele>719.200</ele>
<time>2011-01-30T11:53:58Z</time>
</trkpt>
<trkpt lat="43.16230002" lon="-2.49490888">
<ele>715.800</ele>
<time>2011-01-30T11:53:42Z</time>
</trkpt>
<trkpt lat="43.16228502" lon="-2.49490488">
<ele>734.600</ele>
<time>2010-08-07T11:17:34Z</time>
</trkpt>
<trkpt lat="43.16228702" lon="-2.49489988">
<ele>733.100</ele>
<time>2010-08-07T11:14:01Z</time>
</trkpt>
<trkpt lat="43.16227702" lon="-2.49486188">
<ele>730.700</ele>
<time>2010-08-07T11:13:45Z</time>
</trkpt>
<trkpt lat="43.16224602" lon="-2.49479888">
<ele>723.500</ele>
<time>2010-08-07T11:13:31Z</time>
</trkpt>
<trkpt lat="43.16216402" lon="-2.49469388">
<ele>721.600</ele>
<time>2010-08-07T11:13:17Z</time>
</trkpt>
<trkpt lat="43.16216102" lon="-2.49468388">
<ele>721.100</ele>
<time>2010-08-07T11:12:30Z</time>
</trkpt>
<trkpt lat="43.16214002" lon="-2.49458388">
<ele>719.200</ele>
<time>2010-08-07T11:12:16Z</time>
</trkpt>
<trkpt lat="43.16212302" lon="-2.49456888">
<ele>718.700</ele>
<time>2010-08-07T11:12:14Z</time>
</trkpt>
<trkpt lat="43.16218102" lon="-2.49455288">
<ele>713.400</ele>
<time>2010-08-07T11:11:56Z</time>
</trkpt>
<trkpt lat="43.16228802" lon="-2.49461588">
<ele>709.100</ele>
<time>2010-08-07T11:11:38Z</time>
</trkpt>
<trkpt lat="43.16238102" lon="-2.49461888">
<ele>706.700</ele>
<time>2010-08-07T11:11:19Z</time>
</trkpt>
<trkpt lat="43.16240302" lon="-2.49467388">
<ele>703.800</ele>
<time>2010-08-07T11:10:58Z</time>
</trkpt>
<trkpt lat="43.16247502" lon="-2.49468688">
<ele>701.400</ele>
<time>2010-08-07T11:10:41Z</time>
</trkpt>
<trkpt lat="43.16255202" lon="-2.49470388">
<ele>698.100</ele>
<time>2010-08-07T11:08:44Z</time>
</trkpt>
<trkpt lat="43.16260902" lon="-2.49474588">
<ele>694.200</ele>
<time>2010-08-07T11:08:29Z</time>
</trkpt>
<trkpt lat="43.16265102" lon="-2.49478188">
<ele>691.300</ele>
<time>2010-08-07T11:08:12Z</time>
</trkpt>
<trkpt lat="43.16263202" lon="-2.49458088">
<ele>685.100</ele>
<time>2010-08-07T11:07:22Z</time>
</trkpt>
<trkpt lat="43.16261402" lon="-2.49446888">
<ele>684.600</ele>
<time>2010-08-07T11:06:49Z</time>
</trkpt>
<trkpt lat="43.16252302" lon="-2.49427688">
<ele>682.700</ele>
<time>2010-08-07T11:05:41Z</time>
</trkpt>
<trkpt lat="43.16244902" lon="-2.49407988">
<ele>682.200</ele>
<time>2010-08-07T11:05:15Z</time>
</trkpt>
<trkpt lat="43.16240102" lon="-2.49401988">
<ele>681.700</ele>
<time>2010-08-07T11:04:58Z</time>
</trkpt>
<trkpt lat="43.16225202" lon="-2.49387288">
<ele>682.200</ele>
<time>2010-08-07T11:04:29Z</time>
</trkpt>
<trkpt lat="43.16220602" lon="-2.49383288">
<ele>682.700</ele>
<time>2010-08-07T11:03:19Z</time>
</trkpt>
<trkpt lat="43.16202902" lon="-2.49374488">
<ele>680.300</ele>
<time>2010-08-07T11:02:58Z</time>
</trkpt>
<trkpt lat="43.16190802" lon="-2.49378488">
<ele>677.900</ele>
<time>2010-08-07T11:02:40Z</time>
</trkpt>
<trkpt lat="43.16174802" lon="-2.49372888">
<ele>675.000</ele>
<time>2010-08-07T11:02:22Z</time>
</trkpt>
<trkpt lat="43.16159502" lon="-2.49372888">
<ele>670.700</ele>
<time>2010-08-07T11:02:00Z</time>
</trkpt>
<trkpt lat="43.16132702" lon="-2.49361588">
<ele>665.900</ele>
<time>2010-08-07T11:01:38Z</time>
</trkpt>
<trkpt lat="43.16110702" lon="-2.49361188">
<ele>660.100</ele>
<time>2010-08-07T11:01:20Z</time>
</trkpt>
<trkpt lat="43.16094102" lon="-2.49354388">
<ele>660.100</ele>
<time>2010-08-07T11:01:05Z</time>
</trkpt>
<trkpt lat="43.16089202" lon="-2.49351588">
<ele>659.100</ele>
<time>2010-08-07T11:01:01Z</time>
</trkpt>
<trkpt lat="43.16081802" lon="-2.49352688">
<ele>658.600</ele>
<time>2010-08-07T11:00:55Z</time>
</trkpt>
<trkpt lat="43.16077002" lon="-2.49354688">
<ele>658.600</ele>
<time>2010-08-07T11:00:49Z</time>
</trkpt>
<trkpt lat="43.16061902" lon="-2.49363488">
<ele>657.700</ele>
<time>2010-08-07T11:00:36Z</time>
</trkpt>
<trkpt lat="43.16058602" lon="-2.49366988">
<ele>657.200</ele>
<time>2010-08-07T11:00:01Z</time>
</trkpt>
<trkpt lat="43.16041902" lon="-2.49373288">
<ele>653.800</ele>
<time>2010-08-07T10:59:46Z</time>
</trkpt>
<trkpt lat="43.16041902" lon="-2.49373088">
<ele>653.800</ele>
<time>2010-08-07T10:59:40Z</time>
</trkpt>
<trkpt lat="43.16035102" lon="-2.49365788">
<ele>652.900</ele>
<time>2010-08-07T10:59:27Z</time>
</trkpt>
<trkpt lat="43.16028702" lon="-2.49362988">
<ele>652.400</ele>
<time>2010-08-07T10:59:19Z</time>
</trkpt>
<trkpt lat="43.16019402" lon="-2.49357188">
<ele>651.900</ele>
<time>2010-08-07T10:58:50Z</time>
</trkpt>
<trkpt lat="43.16009702" lon="-2.49330888">
<ele>651.900</ele>
<time>2012-05-02T13:32:15Z</time>
</trkpt>
<trkpt lat="43.16008902" lon="-2.49311388">
<ele>650.500</ele>
<time>2012-05-02T13:32:34Z</time>
</trkpt>
<trkpt lat="43.16004702" lon="-2.49300888">
<ele>650.500</ele>
<time>2012-05-02T13:32:41Z</time>
</trkpt>
<trkpt lat="43.16000402" lon="-2.49291688">
<ele>650.500</ele>
<time>2012-05-02T13:32:47Z</time>
</trkpt>
<trkpt lat="43.15988202" lon="-2.49271588">
<ele>649.500</ele>
<time>2012-05-02T13:33:04Z</time>
</trkpt>
<trkpt lat="43.15985002" lon="-2.49261688">
<ele>649.000</ele>
<time>2012-05-02T13:33:11Z</time>
</trkpt>
<trkpt lat="43.15977702" lon="-2.49252788">
<ele>648.500</ele>
<time>2012-05-02T13:33:21Z</time>
</trkpt>
<trkpt lat="43.15969402" lon="-2.49244788">
<ele>648.500</ele>
<time>2012-05-02T13:33:32Z</time>
</trkpt>
<trkpt lat="43.15964802" lon="-2.49241688">
<ele>648.100</ele>
<time>2012-05-02T13:33:38Z</time>
</trkpt>
<trkpt lat="43.15954602" lon="-2.49228488">
<ele>648.100</ele>
<time>2012-05-02T13:33:54Z</time>
</trkpt>
<trkpt lat="43.15953002" lon="-2.49225988">
<ele>647.600</ele>
<time>2012-05-02T13:33:57Z</time>
</trkpt>
<trkpt lat="43.15948202" lon="-2.49224788">
<ele>648.100</ele>
<time>2012-05-02T13:34:03Z</time>
</trkpt>
<trkpt lat="43.15939802" lon="-2.49217488">
<ele>648.500</ele>
<time>2012-05-02T13:34:11Z</time>
</trkpt>
<trkpt lat="43.15935902" lon="-2.49210588">
<ele>648.100</ele>
<time>2012-05-02T13:34:24Z</time>
</trkpt>
<trkpt lat="43.15934402" lon="-2.49210488">
<ele>648.100</ele>
<time>2012-05-02T13:34:30Z</time>
</trkpt>
<trkpt lat="43.15932802" lon="-2.49209288">
<ele>648.100</ele>
<time>2012-05-02T13:34:32Z</time>
</trkpt>
<trkpt lat="43.15929802" lon="-2.49201688">
<ele>647.600</ele>
<time>2012-05-02T13:34:39Z</time>
</trkpt>
<trkpt lat="43.15926802" lon="-2.49184788">
<ele>646.600</ele>
<time>2012-05-02T13:34:53Z</time>
</trkpt>
<trkpt lat="43.15922902" lon="-2.49169388">
<ele>645.200</ele>
<time>2012-05-02T13:35:07Z</time>
</trkpt>
<trkpt lat="43.15914702" lon="-2.49149988">
<ele>642.800</ele>
<time>2012-05-02T13:35:24Z</time>
</trkpt>
<trkpt lat="43.15909502" lon="-2.49137788">
<ele>639.900</ele>
<time>2012-05-02T13:35:34Z</time>
</trkpt>
<trkpt lat="43.15893602" lon="-2.49116488">
<ele>637.500</ele>
<time>2012-05-02T13:35:53Z</time>
</trkpt>
<trkpt lat="43.15883502" lon="-2.49099488">
<ele>634.600</ele>
<time>2012-05-02T13:36:08Z</time>
</trkpt>
<trkpt lat="43.15876502" lon="-2.49085288">
<ele>631.200</ele>
<time>2012-05-02T13:36:20Z</time>
</trkpt>
<trkpt lat="43.15865902" lon="-2.49072188">
<ele>628.400</ele>
<time>2012-05-02T13:36:34Z</time>
</trkpt>
<trkpt lat="43.15851902" lon="-2.49061288">
<ele>625.500</ele>
<time>2012-05-02T13:36:49Z</time>
</trkpt>
<trkpt lat="43.15846802" lon="-2.49058188">
<ele>625.000</ele>
<time>2012-05-02T13:36:54Z</time>
</trkpt>
<trkpt lat="43.15828502" lon="-2.49047188">
<ele>621.600</ele>
<time>2012-05-02T13:37:12Z</time>
</trkpt>
<trkpt lat="43.15813402" lon="-2.49037688">
<ele>620.200</ele>
<time>2012-05-02T13:37:28Z</time>
</trkpt>
<trkpt lat="43.15801702" lon="-2.49024888">
<ele>618.300</ele>
<time>2012-05-02T13:37:42Z</time>
</trkpt>
<trkpt lat="43.15791402" lon="-2.49008188">
<ele>616.300</ele>
<time>2012-05-02T13:37:58Z</time>
</trkpt>
<trkpt lat="43.15785102" lon="-2.48991688">
<ele>614.900</ele>
<time>2012-05-02T13:38:11Z</time>
</trkpt>
<trkpt lat="43.15771402" lon="-2.48966688">
<ele>613.500</ele>
<time>2012-05-02T13:38:29Z</time>
</trkpt>
<trkpt lat="43.15758502" lon="-2.48950388">
<ele>610.600</ele>
<time>2012-05-02T13:38:45Z</time>
</trkpt>
<trkpt lat="43.15747202" lon="-2.48939388">
<ele>608.700</ele>
<time>2012-05-02T13:38:59Z</time>
</trkpt>
<trkpt lat="43.15728902" lon="-2.48927488">
<ele>605.800</ele>
<time>2012-05-02T13:39:17Z</time>
</trkpt>
<trkpt lat="43.15711702" lon="-2.48918388">
<ele>602.400</ele>
<time>2012-05-02T13:39:33Z</time>
</trkpt>
<trkpt lat="43.15697602" lon="-2.48914188">
<ele>599.000</ele>
<time>2012-05-02T13:39:47Z</time>
</trkpt>
<trkpt lat="43.15683402" lon="-2.48910788">
<ele>596.200</ele>
<time>2012-05-02T13:40:02Z</time>
</trkpt>
<trkpt lat="43.15672102" lon="-2.48903988">
<ele>592.800</ele>
<time>2012-05-02T13:40:16Z</time>
</trkpt>
<trkpt lat="43.15664102" lon="-2.48898788">
<ele>591.300</ele>
<time>2012-05-02T13:40:23Z</time>
</trkpt>
<trkpt lat="43.15651402" lon="-2.48888588">
<ele>589.400</ele>
<time>2012-05-02T13:40:36Z</time>
</trkpt>
<trkpt lat="43.15639502" lon="-2.48876788">
<ele>587.500</ele>
<time>2012-05-02T13:40:50Z</time>
</trkpt>
<trkpt lat="43.15628902" lon="-2.48866888">
<ele>585.600</ele>
<time>2012-05-02T13:41:02Z</time>
</trkpt>
<trkpt lat="43.15619802" lon="-2.48858488">
<ele>583.200</ele>
<time>2012-05-02T13:41:13Z</time>
</trkpt>
<trkpt lat="43.15605902" lon="-2.48840088">
<ele>580.800</ele>
<time>2012-05-02T13:41:28Z</time>
</trkpt>
<trkpt lat="43.15592102" lon="-2.48821388">
<ele>577.400</ele>
<time>2012-05-02T13:41:43Z</time>
</trkpt>
<trkpt lat="43.15582002" lon="-2.48801688">
<ele>576.400</ele>
<time>2012-05-02T13:41:58Z</time>
</trkpt>
<trkpt lat="43.15560802" lon="-2.48783188">
<ele>575.500</ele>
<time>2012-05-02T13:42:18Z</time>
</trkpt>
<trkpt lat="43.15551502" lon="-2.48773288">
<ele>575.000</ele>
<time>2012-05-02T13:42:27Z</time>
</trkpt>
<trkpt lat="43.15541102" lon="-2.48754488">
<ele>575.000</ele>
<time>2012-05-02T13:42:41Z</time>
</trkpt>
<trkpt lat="43.15534502" lon="-2.48736088">
<ele>575.000</ele>
<time>2012-05-02T13:42:53Z</time>
</trkpt>
<trkpt lat="43.15521202" lon="-2.48714388">
<ele>574.500</ele>
<time>2012-05-02T13:43:10Z</time>
</trkpt>
<trkpt lat="43.15507302" lon="-2.48700188">
<ele>574.000</ele>
<time>2012-05-02T13:43:25Z</time>
</trkpt>
<trkpt lat="43.15501402" lon="-2.48693688">
<ele>573.100</ele>
<time>2012-05-02T13:43:31Z</time>
</trkpt>
<trkpt lat="43.15482102" lon="-2.48675288">
<ele>570.700</ele>
<time>2012-05-02T13:43:51Z</time>
</trkpt>
<trkpt lat="43.15461902" lon="-2.48657588">
<ele>567.800</ele>
<time>2012-05-02T13:44:12Z</time>
</trkpt>
<trkpt lat="43.15437702" lon="-2.48646088">
<ele>566.400</ele>
<time>2012-05-02T13:44:33Z</time>
</trkpt>
<trkpt lat="43.15408702" lon="-2.48633188">
<ele>564.000</ele>
<time>2012-05-02T13:44:57Z</time>
</trkpt>
<trkpt lat="43.15385002" lon="-2.48617588">
<ele>562.000</ele>
<time>2012-05-02T13:45:19Z</time>
</trkpt>
<trkpt lat="43.15363702" lon="-2.48604888">
<ele>561.500</ele>
<time>2012-05-02T13:45:39Z</time>
</trkpt>
<trkpt lat="43.15337702" lon="-2.48593388">
<ele>560.600</ele>
<time>2012-05-02T13:46:01Z</time>
</trkpt>
<trkpt lat="43.15318702" lon="-2.48581988">
<ele>561.100</ele>
<time>2012-05-02T13:46:18Z</time>
</trkpt>
<trkpt lat="43.15299902" lon="-2.48572788">
<ele>561.500</ele>
<time>2012-05-02T13:46:35Z</time>
</trkpt>
<trkpt lat="43.15279702" lon="-2.48567888">
<ele>560.100</ele>
<time>2012-05-02T13:46:53Z</time>
</trkpt>
<trkpt lat="43.15264202" lon="-2.48564688">
<ele>562.500</ele>
<time>2012-05-02T13:47:07Z</time>
</trkpt>
<trkpt lat="43.15244002" lon="-2.48560188">
<ele>563.500</ele>
<time>2012-05-02T13:47:25Z</time>
</trkpt>
<trkpt lat="43.15215102" lon="-2.48535988">
<ele>558.700</ele>
<time>2005-06-11T11:25:03Z</time>
</trkpt>
<trkpt lat="43.15188002" lon="-2.48505488">
<ele>558.700</ele>
<time>2005-06-11T11:24:39Z</time>
</trkpt>
<trkpt lat="43.15156302" lon="-2.48474988">
<ele>557.700</ele>
<time>2005-06-11T11:24:14Z</time>
</trkpt>
<trkpt lat="43.15127002" lon="-2.48456788">
<ele>557.200</ele>
<time>2005-06-11T11:23:53Z</time>
</trkpt>
<trkpt lat="43.15093202" lon="-2.48447788">
<ele>556.700</ele>
<time>2005-06-11T11:23:29Z</time>
</trkpt>
<trkpt lat="43.15048002" lon="-2.48420488">
<ele>556.700</ele>
<time>2005-06-11T11:23:00Z</time>
</trkpt>
<trkpt lat="43.15007402" lon="-2.48402388">
<ele>556.700</ele>
<time>2005-06-11T11:22:33Z</time>
</trkpt>
<trkpt lat="43.14944102" lon="-2.48326088">
<ele>558.200</ele>
<time>2005-06-11T11:22:05Z</time>
</trkpt>
<trkpt lat="43.14939202" lon="-2.48258488">
<ele>556.700</ele>
<time>2005-06-11T11:21:06Z</time>
</trkpt>
<trkpt lat="43.14929902" lon="-2.48190988">
<ele>556.700</ele>
<time>2005-06-11T11:20:34Z</time>
</trkpt>
<trkpt lat="43.14913902" lon="-2.48138788">
<ele>556.300</ele>
<time>2005-06-11T11:20:07Z</time>
</trkpt>
<trkpt lat="43.14875402" lon="-2.48089988">
<ele>555.800</ele>
<time>2005-06-11T11:19:34Z</time>
</trkpt>
<trkpt lat="43.14834702" lon="-2.48037988">
<ele>553.400</ele>
<time>2005-06-11T11:18:58Z</time>
</trkpt>
<trkpt lat="43.14830202" lon="-2.48031888">
<ele>552.900</ele>
<time>2005-06-11T11:18:54Z</time>
</trkpt>
<trkpt lat="43.14827802" lon="-2.48016588">
<ele>552.400</ele>
<time>2005-06-11T11:18:47Z</time>
</trkpt>
<trkpt lat="43.14830102" lon="-2.48010388">
<ele>551.900</ele>
<time>2005-06-11T11:18:43Z</time>
</trkpt>
<trkpt lat="43.14843402" lon="-2.47979488">
<ele>549.500</ele>
<time>2005-06-11T11:18:23Z</time>
</trkpt>
<trkpt lat="43.14879302" lon="-2.47942388">
<ele>547.100</ele>
<time>2005-06-11T11:17:53Z</time>
</trkpt>
<trkpt lat="43.14937702" lon="-2.47917288">
<ele>547.600</ele>
<time>2005-06-11T11:17:11Z</time>
</trkpt>
<trkpt lat="43.14969102" lon="-2.47895488">
<ele>544.300</ele>
<time>2005-06-11T11:16:48Z</time>
</trkpt>
<trkpt lat="43.15011602" lon="-2.47830488">
<ele>541.800</ele>
<time>2005-06-11T11:16:07Z</time>
</trkpt>
<trkpt lat="43.15027202" lon="-2.47793488">
<ele>539.400</ele>
<time>2005-06-11T11:15:45Z</time>
</trkpt>
<trkpt lat="43.15027202" lon="-2.47793488">
<ele>539.400</ele>
<time>2005-06-11T11:15:44Z</time>
</trkpt>
<trkpt lat="43.15054102" lon="-2.47771788">
<ele>538.000</ele>
<time>2005-06-11T11:15:25Z</time>
</trkpt>
<trkpt lat="43.15085502" lon="-2.47756088">
<ele>535.100</ele>
<time>2005-06-11T11:15:01Z</time>
</trkpt>
<trkpt lat="43.15143902" lon="-2.47724888">
<ele>532.700</ele>
<time>2005-06-11T11:14:22Z</time>
</trkpt>
<trkpt lat="43.15193202" lon="-2.47662988">
<ele>529.800</ele>
<time>2005-06-11T11:13:36Z</time>
</trkpt>
<trkpt lat="43.15224502" lon="-2.47628888">
<ele>529.800</ele>
<time>2005-06-11T11:13:11Z</time>
</trkpt>
<trkpt lat="43.15237902" lon="-2.47607188">
<ele>528.400</ele>
<time>2005-06-11T11:12:59Z</time>
</trkpt>
<trkpt lat="43.15273902" lon="-2.47594588">
<ele>526.900</ele>
<time>2005-06-11T11:12:35Z</time>
</trkpt>
<trkpt lat="43.15312102" lon="-2.47585088">
<ele>526.500</ele>
<time>2005-06-11T11:12:08Z</time>
</trkpt>
<trkpt lat="43.15323402" lon="-2.47581888">
<ele>525.500</ele>
<time>2005-06-11T11:11:52Z</time>
</trkpt>
<trkpt lat="43.15345802" lon="-2.47575588">
<ele>524.500</ele>
<time>2005-06-11T11:11:31Z</time>
</trkpt>
<trkpt lat="43.15377302" lon="-2.47562988">
<ele>522.600</ele>
<time>2005-06-11T11:11:09Z</time>
</trkpt>
<trkpt lat="43.15404102" lon="-2.47522788">
<ele>521.200</ele>
<time>2005-06-11T11:10:42Z</time>
</trkpt>
<trkpt lat="43.15419702" lon="-2.47476488">
<ele>530.300</ele>
<time>2005-06-11T11:10:27Z</time>
</trkpt>
<trkpt lat="43.15421902" lon="-2.47464188">
<ele>525.000</ele>
<time>2005-06-11T11:09:45Z</time>
</trkpt>
<trkpt lat="43.15412602" lon="-2.47405888">
<ele>524.500</ele>
<time>2005-06-11T11:09:27Z</time>
</trkpt>
<trkpt lat="43.15419202" lon="-2.47371988">
<ele>524.500</ele>
<time>2005-06-11T11:09:11Z</time>
</trkpt>
<trkpt lat="43.15450502" lon="-2.47328688">
<ele>524.000</ele>
<time>2005-06-11T11:08:35Z</time>
</trkpt>
<trkpt lat="43.15497702" lon="-2.47319088">
<ele>523.600</ele>
<time>2005-06-11T11:07:52Z</time>
</trkpt>
<trkpt lat="43.15558802" lon="-2.47376988">
<ele>523.600</ele>
<time>2005-06-11T11:06:50Z</time>
</trkpt>
<trkpt lat="43.15597202" lon="-2.47419688">
<ele>522.600</ele>
<time>2005-06-11T11:06:14Z</time>
</trkpt>
<trkpt lat="43.15633402" lon="-2.47456288">
<ele>524.000</ele>
<time>2005-06-11T11:05:39Z</time>
</trkpt>
<trkpt lat="43.15665102" lon="-2.47480588">
<ele>524.000</ele>
<time>2005-06-11T11:05:15Z</time>
</trkpt>
<trkpt lat="43.15678602" lon="-2.47477388">
<ele>525.000</ele>
<time>2005-06-11T11:04:41Z</time>
</trkpt>
<trkpt lat="43.15676302" lon="-2.47477388">
<ele>527.400</ele>
<time>2005-06-11T11:04:22Z</time>
</trkpt>
<trkpt lat="43.15710102" lon="-2.47480188">
<ele>527.900</ele>
<time>2005-06-11T11:03:44Z</time>
</trkpt>
<trkpt lat="43.15743802" lon="-2.47473788">
<ele>534.200</ele>
<time>2005-06-11T11:03:23Z</time>
</trkpt>
<trkpt lat="43.15752802" lon="-2.47470588">
<ele>537.000</ele>
<time>2005-06-11T11:03:13Z</time>
</trkpt>
<trkpt lat="43.15773002" lon="-2.47451988">
<ele>540.400</ele>
<time>2005-06-11T11:02:55Z</time>
</trkpt>
<trkpt lat="43.15802002" lon="-2.47393288">
<ele>541.400</ele>
<time>2005-06-11T11:02:21Z</time>
</trkpt>
<trkpt lat="43.15835502" lon="-2.47349988">
<ele>540.900</ele>
<time>2005-06-11T11:01:47Z</time>
</trkpt>
<trkpt lat="43.15858002" lon="-2.47328288">
<ele>541.400</ele>
<time>2005-06-11T11:01:28Z</time>
</trkpt>
<trkpt lat="43.15898402" lon="-2.47318688">
<ele>546.700</ele>
<time>2005-06-11T11:01:06Z</time>
</trkpt>
<trkpt lat="43.15936702" lon="-2.47318288">
<ele>553.400</ele>
<time>2005-06-11T11:00:44Z</time>
</trkpt>
<trkpt lat="43.15968202" lon="-2.47318088">
<ele>559.200</ele>
<time>2005-06-11T11:00:27Z</time>
</trkpt>
<trkpt lat="43.15979302" lon="-2.47284188">
<ele>565.400</ele>
<time>2005-06-11T11:00:08Z</time>
</trkpt>
<trkpt lat="43.15974302" lon="-2.47182688">
<ele>566.300</ele>
<time>2005-06-11T10:59:12Z</time>
</trkpt>
<trkpt lat="43.15969602" lon="-2.47121288">
<ele>566.300</ele>
<time>2005-06-11T10:58:43Z</time>
</trkpt>
<trkpt lat="43.15962502" lon="-2.47056688">
<ele>566.300</ele>
<time>2005-06-11T10:58:14Z</time>
</trkpt>
<trkpt lat="43.15942102" lon="-2.47023088">
<ele>565.900</ele>
<time>2005-06-11T10:57:54Z</time>
</trkpt>
<trkpt lat="43.15923902" lon="-2.46992488">
<ele>568.300</ele>
<time>2005-06-11T10:57:46Z</time>
</trkpt>
<trkpt lat="43.15923902" lon="-2.46992488">
<ele>568.300</ele>
<time>2005-06-11T10:57:44Z</time>
</trkpt>
<trkpt lat="43.15923902" lon="-2.46992488">
<ele>566.300</ele>
<time>2005-06-11T10:56:42Z</time>
</trkpt>
<trkpt lat="43.15840302" lon="-2.46925588">
<ele>566.300</ele>
<time>2005-06-11T10:56:12Z</time>
</trkpt>
<trkpt lat="43.15851502" lon="-2.46900888">
<ele>566.300</ele>
<time>2005-06-11T10:55:09Z</time>
</trkpt>
<trkpt lat="43.15864902" lon="-2.46873088">
<ele>566.800</ele>
<time>2005-06-11T10:54:52Z</time>
</trkpt>
<trkpt lat="43.15896102" lon="-2.46808288">
<ele>566.300</ele>
<time>2005-06-11T10:54:16Z</time>
</trkpt>
<trkpt lat="43.15934202" lon="-2.46770988">
<ele>567.300</ele>
<time>2005-06-11T10:53:47Z</time>
</trkpt>
<trkpt lat="43.15949802" lon="-2.46752388">
<ele>569.700</ele>
<time>2005-06-11T10:53:22Z</time>
</trkpt>
<trkpt lat="43.15949802" lon="-2.46752388">
<ele>569.200</ele>
<time>2005-06-11T10:52:50Z</time>
</trkpt>
<trkpt lat="43.15983502" lon="-2.46724488">
<ele>570.700</ele>
<time>2005-06-11T10:52:23Z</time>
</trkpt>
<trkpt lat="43.16021602" lon="-2.46696488">
<ele>574.000</ele>
<time>2005-06-11T10:51:54Z</time>
</trkpt>
<trkpt lat="43.16044002" lon="-2.46665488">
<ele>574.000</ele>
<time>2005-06-11T10:51:31Z</time>
</trkpt>
<trkpt lat="43.16066302" lon="-2.46619188">
<ele>576.000</ele>
<time>2005-06-11T10:51:04Z</time>
</trkpt>
<trkpt lat="43.16093002" lon="-2.46560488">
<ele>593.800</ele>
<time>2005-06-11T10:14:44Z</time>
</trkpt>
<trkpt lat="43.16083902" lon="-2.46539088">
<ele>593.800</ele>
<time>2005-06-11T10:14:32Z</time>
</trkpt>
<trkpt lat="43.16079402" lon="-2.46535988">
<ele>594.200</ele>
<time>2005-06-11T10:14:29Z</time>
</trkpt>
<trkpt lat="43.16079402" lon="-2.46532988">
<ele>593.800</ele>
<time>2005-06-11T10:14:27Z</time>
</trkpt>
<trkpt lat="43.16079402" lon="-2.46532988">
<ele>593.800</ele>
<time>2005-06-11T10:14:26Z</time>
</trkpt>
<trkpt lat="43.16057002" lon="-2.46554688">
<ele>598.600</ele>
<time>2005-06-11T10:14:08Z</time>
</trkpt>
<trkpt lat="43.16048002" lon="-2.46563988">
<ele>601.900</ele>
<time>2005-06-11T10:13:57Z</time>
</trkpt>
<trkpt lat="43.16034602" lon="-2.46576388">
<ele>607.200</ele>
<time>2005-06-11T10:13:41Z</time>
</trkpt>
<trkpt lat="43.16005402" lon="-2.46591988">
<ele>611.600</ele>
<time>2005-06-11T10:13:19Z</time>
</trkpt>
<trkpt lat="43.15967102" lon="-2.46601588">
<ele>614.400</ele>
<time>2005-06-11T10:12:50Z</time>
</trkpt>
<trkpt lat="43.15935702" lon="-2.46611088">
<ele>617.800</ele>
<time>2005-06-11T10:12:25Z</time>
</trkpt>
<trkpt lat="43.15913202" lon="-2.46623588">
<ele>620.700</ele>
<time>2005-06-11T10:12:07Z</time>
</trkpt>
<trkpt lat="43.15890802" lon="-2.46639188">
<ele>625.000</ele>
<time>2005-06-11T10:11:45Z</time>
</trkpt>
<trkpt lat="43.15861602" lon="-2.46663988">
<ele>629.800</ele>
<time>2005-06-11T10:11:20Z</time>
</trkpt>
<trkpt lat="43.15857102" lon="-2.46660988">
<ele>633.600</ele>
<time>2005-06-11T10:11:15Z</time>
</trkpt>
<trkpt lat="43.15852502" lon="-2.46642588">
<ele>641.300</ele>
<time>2005-06-11T10:11:02Z</time>
</trkpt>
<trkpt lat="43.15850202" lon="-2.46617988">
<ele>647.100</ele>
<time>2005-06-11T10:10:48Z</time>
</trkpt>
<trkpt lat="43.15845702" lon="-2.46617988">
<ele>648.600</ele>
<time>2005-06-11T10:10:44Z</time>
</trkpt>
<trkpt lat="43.15836702" lon="-2.46618088">
<ele>650.000</ele>
<time>2005-06-11T10:10:39Z</time>
</trkpt>
<trkpt lat="43.15816202" lon="-2.46587488">
<ele>651.400</ele>
<time>2005-06-11T10:10:14Z</time>
</trkpt>
<trkpt lat="43.15809502" lon="-2.46587588">
<ele>652.900</ele>
<time>2005-06-11T10:10:08Z</time>
</trkpt>
<trkpt lat="43.15773502" lon="-2.46587888">
<ele>664.400</ele>
<time>2005-06-11T10:09:31Z</time>
</trkpt>
<trkpt lat="43.15746402" lon="-2.46581988">
<ele>671.100</ele>
<time>2005-06-11T10:09:11Z</time>
</trkpt>
<trkpt lat="43.15742002" lon="-2.46591288">
<ele>672.600</ele>
<time>2005-06-11T10:09:03Z</time>
</trkpt>
<trkpt lat="43.15719502" lon="-2.46600688">
<ele>674.000</ele>
<time>2005-06-11T10:08:52Z</time>
</trkpt>
<trkpt lat="43.15706102" lon="-2.46613088">
<ele>678.800</ele>
<time>2005-06-11T10:08:35Z</time>
</trkpt>
<trkpt lat="43.15692602" lon="-2.46625488">
<ele>683.600</ele>
<time>2005-06-11T10:08:18Z</time>
</trkpt>
<trkpt lat="43.15647802" lon="-2.46659688">
<ele>685.600</ele>
<time>2005-06-11T10:07:38Z</time>
</trkpt>
<trkpt lat="43.15593902" lon="-2.46703288">
<ele>700.000</ele>
<time>2005-06-11T10:07:19Z</time>
</trkpt>
<trkpt lat="43.15591702" lon="-2.46718688">
<ele>700.500</ele>
<time>2005-06-11T10:06:36Z</time>
</trkpt>
<trkpt lat="43.15555902" lon="-2.46761988">
<ele>703.400</ele>
<time>2005-06-11T10:06:01Z</time>
</trkpt>
<trkpt lat="43.15549302" lon="-2.46786688">
<ele>706.200</ele>
<time>2005-06-11T10:05:42Z</time>
</trkpt>
<trkpt lat="43.15544802" lon="-2.46798988">
<ele>707.200</ele>
<time>2005-06-11T10:05:29Z</time>
</trkpt>
<trkpt lat="43.15544902" lon="-2.46802088">
<ele>704.300</ele>
<time>2005-06-11T10:05:16Z</time>
</trkpt>
<trkpt lat="43.15540402" lon="-2.46814388">
<ele>702.900</ele>
<time>2005-06-11T10:04:50Z</time>
</trkpt>
<trkpt lat="43.15556402" lon="-2.46857288">
<ele>702.400</ele>
<time>2005-06-11T10:04:08Z</time>
</trkpt>
<trkpt lat="43.15563202" lon="-2.46872588">
<ele>700.500</ele>
<time>2005-06-11T10:03:39Z</time>
</trkpt>
<trkpt lat="43.15567802" lon="-2.46884888">
<ele>696.600</ele>
<time>2005-06-11T10:03:10Z</time>
</trkpt>
<trkpt lat="43.15576802" lon="-2.46903288">
<ele>691.800</ele>
<time>2005-06-11T10:02:51Z</time>
</trkpt>
<trkpt lat="43.15588202" lon="-2.46921588">
<ele>689.900</ele>
<time>2005-06-11T10:02:29Z</time>
</trkpt>
<trkpt lat="43.15597302" lon="-2.46943088">
<ele>689.400</ele>
<time>2005-06-11T10:02:12Z</time>
</trkpt>
<trkpt lat="43.15613202" lon="-2.46979788">
<ele>683.600</ele>
<time>2005-06-11T10:01:44Z</time>
</trkpt>
<trkpt lat="43.15613102" lon="-2.46945988">
<ele>632.700</ele>
<time>2005-06-11T10:01:29Z</time>
</trkpt>
<trkpt lat="43.15622202" lon="-2.46964388">
<ele>632.700</ele>
<time>2005-06-11T10:00:32Z</time>
</trkpt>
<trkpt lat="43.15617702" lon="-2.46970588">
<ele>632.200</ele>
<time>2005-06-11T10:00:09Z</time>
</trkpt>
<trkpt lat="43.15601902" lon="-2.46964488">
<ele>624.500</ele>
<time>2005-06-11T09:59:49Z</time>
</trkpt>
<trkpt lat="43.15590602" lon="-2.46964588">
<ele>624.500</ele>
<time>2005-06-11T09:59:40Z</time>
</trkpt>
<trkpt lat="43.15541102" lon="-2.46958888">
<ele>623.600</ele>
<time>2005-06-11T09:59:03Z</time>
</trkpt>
<trkpt lat="43.15496102" lon="-2.46968488">
<ele>623.600</ele>
<time>2005-06-11T09:58:25Z</time>
</trkpt>
<trkpt lat="43.15446702" lon="-2.46984288">
<ele>620.700</ele>
<time>2005-06-11T09:57:44Z</time>
</trkpt>
<trkpt lat="43.15417602" lon="-2.47021488">
<ele>614.400</ele>
<time>2005-06-11T09:57:07Z</time>
</trkpt>
<trkpt lat="43.15366202" lon="-2.47101888">
<ele>613.000</ele>
<time>2005-06-11T09:56:05Z</time>
</trkpt>
<trkpt lat="43.15346102" lon="-2.47145088">
<ele>613.500</ele>
<time>2005-06-11T09:55:32Z</time>
</trkpt>
<trkpt lat="43.15276502" lon="-2.47188688">
<ele>611.100</ele>
<time>2005-06-11T09:54:38Z</time>
</trkpt>
<trkpt lat="43.15227002" lon="-2.47195288">
<ele>607.700</ele>
<time>2005-06-11T09:54:06Z</time>
</trkpt>
<trkpt lat="43.15227002" lon="-2.47198388">
<ele>606.700</ele>
<time>2005-06-11T09:54:04Z</time>
</trkpt>
<trkpt lat="43.15218102" lon="-2.47213788">
<ele>603.400</ele>
<time>2005-06-11T09:53:50Z</time>
</trkpt>
<trkpt lat="43.15213702" lon="-2.47238488">
<ele>601.900</ele>
<time>2005-06-11T09:53:32Z</time>
</trkpt>
<trkpt lat="43.15189302" lon="-2.47312488">
<ele>602.400</ele>
<time>2005-06-11T09:52:49Z</time>
</trkpt>
<trkpt lat="43.15178202" lon="-2.47355588">
<ele>599.000</ele>
<time>2005-06-11T09:52:27Z</time>
</trkpt>
<trkpt lat="43.15140302" lon="-2.47429688">
<ele>597.100</ele>
<time>2005-06-11T09:51:43Z</time>
</trkpt>
<trkpt lat="43.15111302" lon="-2.47476088">
<ele>597.100</ele>
<time>2005-06-11T09:51:12Z</time>
</trkpt>
<trkpt lat="43.15086702" lon="-2.47510088">
<ele>595.200</ele>
<time>2005-06-11T09:50:47Z</time>
</trkpt>
<trkpt lat="43.15084402" lon="-2.47510188">
<ele>595.200</ele>
<time>2005-06-11T09:50:45Z</time>
</trkpt>
<trkpt lat="43.15057602" lon="-2.47547288">
<ele>593.800</ele>
<time>2005-06-11T09:50:19Z</time>
</trkpt>
<trkpt lat="43.15026202" lon="-2.47578288">
<ele>591.300</ele>
<time>2005-06-11T09:49:47Z</time>
</trkpt>
<trkpt lat="43.15001502" lon="-2.47590788">
<ele>589.400</ele>
<time>2005-06-11T09:49:29Z</time>
</trkpt>
<trkpt lat="43.14981302" lon="-2.47603288">
<ele>588.000</ele>
<time>2005-06-11T09:49:12Z</time>
</trkpt>
<trkpt lat="43.14954402" lon="-2.47621988">
<ele>586.100</ele>
<time>2005-06-11T09:48:52Z</time>
</trkpt>
<trkpt lat="43.14932002" lon="-2.47658988">
<ele>584.600</ele>
<time>2005-06-11T09:48:27Z</time>
</trkpt>
<trkpt lat="43.14914302" lon="-2.47714488">
<ele>582.700</ele>
<time>2005-06-11T09:47:57Z</time>
</trkpt>
<trkpt lat="43.14914402" lon="-2.47739088">
<ele>582.200</ele>
<time>2005-06-11T09:47:17Z</time>
</trkpt>
<trkpt lat="43.14914402" lon="-2.47739088">
<ele>580.800</ele>
<time>2005-06-11T09:47:01Z</time>
</trkpt>
<trkpt lat="43.14909902" lon="-2.47754488">
<ele>580.300</ele>
<time>2005-06-11T09:46:53Z</time>
</trkpt>
<trkpt lat="43.14889902" lon="-2.47800788">
<ele>577.400</ele>
<time>2005-06-11T09:46:24Z</time>
</trkpt>
<trkpt lat="43.14872002" lon="-2.47825588">
<ele>572.600</ele>
<time>2005-06-11T09:46:03Z</time>
</trkpt>
<trkpt lat="43.14847402" lon="-2.47862688">
<ele>568.800</ele>
<time>2005-06-11T09:45:35Z</time>
</trkpt>
<trkpt lat="43.14829602" lon="-2.47905888">
<ele>567.300</ele>
<time>2005-06-11T09:45:06Z</time>
</trkpt>
<trkpt lat="43.14827302" lon="-2.47905888">
<ele>566.800</ele>
<time>2005-06-11T09:45:03Z</time>
</trkpt>
<trkpt lat="43.14820702" lon="-2.47936688">
<ele>565.400</ele>
<time>2005-06-11T09:44:41Z</time>
</trkpt>
<trkpt lat="43.14816402" lon="-2.47982888">
<ele>562.500</ele>
<time>2005-06-11T09:44:15Z</time>
</trkpt>
<trkpt lat="43.14812102" lon="-2.48019788">
<ele>559.600</ele>
<time>2005-06-11T09:43:54Z</time>
</trkpt>
<trkpt lat="43.14812202" lon="-2.48038188">
<ele>558.700</ele>
<time>2005-06-11T09:43:44Z</time>
</trkpt>
<trkpt lat="43.14810102" lon="-2.48068988">
<ele>556.700</ele>
<time>2005-06-11T09:43:23Z</time>
</trkpt>
<trkpt lat="43.14807802" lon="-2.48072088">
<ele>555.800</ele>
<time>2005-06-11T09:43:21Z</time>
</trkpt>
<trkpt lat="43.14806757" lon="-2.48083973">
<ele>550.000</ele>
<time>2013-01-28T18:13:26Z</time>
</trkpt>
<trkpt lat="43.14784802" lon="-2.48222388">
<ele>559.000</ele>
<time>2013-01-28T18:13:46Z</time>
</trkpt>
<trkpt lat="43.14728402" lon="-2.48265288">
<ele>554.000</ele>
<time>2013-01-28T18:14:06Z</time>
</trkpt>
<trkpt lat="43.14692402" lon="-2.48293188">
<ele>548.000</ele>
<time>2013-01-28T18:14:26Z</time>
</trkpt>
<trkpt lat="43.14659502" lon="-2.48381088">
<ele>552.000</ele>
<time>2013-01-28T18:14:46Z</time>
</trkpt>
<trkpt lat="43.14626602" lon="-2.48441188">
<ele>552.000</ele>
<time>2013-01-28T18:15:06Z</time>
</trkpt>
<trkpt lat="43.14589102" lon="-2.48484088">
<ele>537.000</ele>
<time>2013-01-28T18:15:26Z</time>
</trkpt>
<trkpt lat="43.14546802" lon="-2.48511988">
<ele>535.000</ele>
<time>2013-01-28T18:15:46Z</time>
</trkpt>
<trkpt lat="43.14501402" lon="-2.48539888">
<ele>524.000</ele>
<time>2013-01-28T18:16:06Z</time>
</trkpt>
<trkpt lat="43.14398102" lon="-2.48582788">
<ele>518.000</ele>
<time>2013-01-28T18:16:26Z</time>
</trkpt>
<trkpt lat="43.14355802" lon="-2.48638588">
<ele>527.000</ele>
<time>2013-01-28T18:16:46Z</time>
</trkpt>
<trkpt lat="43.14324502" lon="-2.48672988">
<ele>524.000</ele>
<time>2013-01-28T18:17:06Z</time>
</trkpt>
<trkpt lat="43.14274402" lon="-2.48707288">
<ele>510.000</ele>
<time>2013-01-28T18:17:26Z</time>
</trkpt>
<trkpt lat="43.14232102" lon="-2.48702988">
<ele>497.000</ele>
<time>2013-01-28T18:17:46Z</time>
</trkpt>
<trkpt lat="43.14177302" lon="-2.48700888">
<ele>488.000</ele>
<time>2013-01-28T18:18:06Z</time>
</trkpt>
<trkpt lat="43.14158502" lon="-2.48698688">
<ele>488.000</ele>
<time>2013-01-28T18:18:26Z</time>
</trkpt>
<trkpt lat="43.14135402" lon="-2.48685288">
<ele>485.000</ele>
<time>2013-01-28T18:18:46Z</time>
</trkpt>
<trkpt lat="43.14117402" lon="-2.48682088">
<ele>483.000</ele>
<time>2013-01-28T18:19:06Z</time>
</trkpt>
<trkpt lat="43.14100102" lon="-2.48676688">
<ele>484.000</ele>
<time>2013-01-28T18:19:26Z</time>
</trkpt>
<trkpt lat="43.14056702" lon="-2.48672988">
<ele>484.000</ele>
<time>2013-01-28T18:19:46Z</time>
</trkpt>
<trkpt lat="43.14008102" lon="-2.48668088">
<ele>482.000</ele>
<time>2013-01-28T18:20:06Z</time>
</trkpt>
<trkpt lat="43.13938102" lon="-2.48653688">
<ele>477.000</ele>
<time>2013-01-28T18:20:26Z</time>
</trkpt>
<trkpt lat="43.13878602" lon="-2.48641788">
<ele>476.000</ele>
<time>2013-01-28T18:20:46Z</time>
</trkpt>
<trkpt lat="43.13813202" lon="-2.48655788">
<ele>471.000</ele>
<time>2013-01-28T18:21:06Z</time>
</trkpt>
<trkpt lat="43.13778402" lon="-2.48672388">
<ele>471.000</ele>
<time>2013-01-28T18:21:26Z</time>
</trkpt>
<trkpt lat="43.13699302" lon="-2.48710488">
<ele>468.000</ele>
<time>2013-01-28T18:21:46Z</time>
</trkpt>
<trkpt lat="43.13680102" lon="-2.48731388">
<ele>466.000</ele>
<time>2013-01-28T18:22:06Z</time>
</trkpt>
<trkpt lat="43.13676802" lon="-2.48762488">
<ele>466.000</ele>
<time>2013-01-28T18:22:26Z</time>
</trkpt>
<trkpt lat="43.13693802" lon="-2.48830688">
<ele>462.100</ele>
</trkpt>
</trkseg>
</trk>
<extensions>
</extensions>
</gpx>
